<?xml version="1.0" encoding="UTF-8" standalone="no" ?>
<gpx xmlns="http://www.topografix.com/GPX/1/1" xmlns:xsi="http://www.w3.org/2001/XMLSchema-instance" xsi:schemaLocation="http://www.topografix.com/GPX/1/1 http://www.topografix.com/GPX/1/1/gpx.xsd" version="1.1" creator="VisuGPX - https://www.visugpx.com">
  <metadata>
    <name>Rognac -La croix 02</name>
    <desc><![CDATA[Une variante de la rando Rognac La croix toujours agréable ]]></desc>
  </metadata>
  <trk>
    <name><![CDATA[2014-02-17 16:19:45]]></name>
    <trkseg>
      <trkpt lat="43.48724" lon="5.25009">
        <ele>148.18</ele>
        <time>2014-02-17T13:02:37Z</time>
      </trkpt>
      <trkpt lat="43.48721" lon="5.2501">
        <ele>147.22</ele>
        <time>2014-02-17T13:02:45Z</time>
      </trkpt>
      <trkpt lat="43.48719" lon="5.25008">
        <ele>146.74</ele>
        <time>2014-02-17T13:03:05Z</time>
      </trkpt>
      <trkpt lat="43.48718" lon="5.25008">
        <ele>146.74</ele>
        <time>2014-02-17T13:03:28Z</time>
      </trkpt>
      <trkpt lat="43.48721" lon="5.25012">
        <ele>147.22</ele>
        <time>2014-02-17T13:03:46Z</time>
      </trkpt>
      <trkpt lat="43.48722" lon="5.25012">
        <ele>146.74</ele>
        <time>2014-02-17T13:04:03Z</time>
      </trkpt>
      <trkpt lat="43.48721" lon="5.25011">
        <ele>147.22</ele>
        <time>2014-02-17T13:04:16Z</time>
      </trkpt>
      <trkpt lat="43.48723" lon="5.25012">
        <ele>147.22</ele>
        <time>2014-02-17T13:04:40Z</time>
      </trkpt>
      <trkpt lat="43.48721" lon="5.25011">
        <ele>146.74</ele>
        <time>2014-02-17T13:05:02Z</time>
      </trkpt>
      <trkpt lat="43.4872" lon="5.25008">
        <ele>147.22</ele>
        <time>2014-02-17T13:05:13Z</time>
      </trkpt>
      <trkpt lat="43.48721" lon="5.25011">
        <ele>147.22</ele>
        <time>2014-02-17T13:05:29Z</time>
      </trkpt>
      <trkpt lat="43.48722" lon="5.25007">
        <ele>147.7</ele>
        <time>2014-02-17T13:05:41Z</time>
      </trkpt>
      <trkpt lat="43.48719" lon="5.25003">
        <ele>148.66</ele>
        <time>2014-02-17T13:05:54Z</time>
      </trkpt>
      <trkpt lat="43.48719" lon="5.25003">
        <ele>148.18</ele>
        <time>2014-02-17T13:06:09Z</time>
      </trkpt>
      <trkpt lat="43.48723" lon="5.2499">
        <ele>148.18</ele>
        <time>2014-02-17T13:06:20Z</time>
      </trkpt>
      <trkpt lat="43.48723" lon="5.24989">
        <ele>147.7</ele>
        <time>2014-02-17T13:06:21Z</time>
      </trkpt>
      <trkpt lat="43.48728" lon="5.24988">
        <ele>148.18</ele>
        <time>2014-02-17T13:06:26Z</time>
      </trkpt>
      <trkpt lat="43.48738" lon="5.24993">
        <ele>148.18</ele>
        <time>2014-02-17T13:06:36Z</time>
      </trkpt>
      <trkpt lat="43.48746" lon="5.24991">
        <ele>148.66</ele>
        <time>2014-02-17T13:06:45Z</time>
      </trkpt>
      <trkpt lat="43.48749" lon="5.24991">
        <ele>147.7</ele>
        <time>2014-02-17T13:06:49Z</time>
      </trkpt>
      <trkpt lat="43.48752" lon="5.24989">
        <ele>148.66</ele>
        <time>2014-02-17T13:06:52Z</time>
      </trkpt>
      <trkpt lat="43.48753" lon="5.24989">
        <ele>148.18</ele>
        <time>2014-02-17T13:06:53Z</time>
      </trkpt>
      <trkpt lat="43.48757" lon="5.24988">
        <ele>148.18</ele>
        <time>2014-02-17T13:06:57Z</time>
      </trkpt>
      <trkpt lat="43.48758" lon="5.24987">
        <ele>148.18</ele>
        <time>2014-02-17T13:06:58Z</time>
      </trkpt>
      <trkpt lat="43.48766" lon="5.24983">
        <ele>148.66</ele>
        <time>2014-02-17T13:07:07Z</time>
      </trkpt>
      <trkpt lat="43.48777" lon="5.2498">
        <ele>148.66</ele>
        <time>2014-02-17T13:07:17Z</time>
      </trkpt>
      <trkpt lat="43.48786" lon="5.24978">
        <ele>148.18</ele>
        <time>2014-02-17T13:07:26Z</time>
      </trkpt>
      <trkpt lat="43.48792" lon="5.24974">
        <ele>148.18</ele>
        <time>2014-02-17T13:07:33Z</time>
      </trkpt>
      <trkpt lat="43.48793" lon="5.24973">
        <ele>148.66</ele>
        <time>2014-02-17T13:07:34Z</time>
      </trkpt>
      <trkpt lat="43.48795" lon="5.24972">
        <ele>148.66</ele>
        <time>2014-02-17T13:07:35Z</time>
      </trkpt>
      <trkpt lat="43.48803" lon="5.24967">
        <ele>148.18</ele>
        <time>2014-02-17T13:07:44Z</time>
      </trkpt>
      <trkpt lat="43.48805" lon="5.24965">
        <ele>148.66</ele>
        <time>2014-02-17T13:07:50Z</time>
      </trkpt>
      <trkpt lat="43.48807" lon="5.24964">
        <ele>148.18</ele>
        <time>2014-02-17T13:07:53Z</time>
      </trkpt>
      <trkpt lat="43.48808" lon="5.24963">
        <ele>148.66</ele>
        <time>2014-02-17T13:07:54Z</time>
      </trkpt>
      <trkpt lat="43.48809" lon="5.24962">
        <ele>148.66</ele>
        <time>2014-02-17T13:07:55Z</time>
      </trkpt>
      <trkpt lat="43.48812" lon="5.2496">
        <ele>148.66</ele>
        <time>2014-02-17T13:07:58Z</time>
      </trkpt>
      <trkpt lat="43.48813" lon="5.2496">
        <ele>149.14</ele>
        <time>2014-02-17T13:07:59Z</time>
      </trkpt>
      <trkpt lat="43.48815" lon="5.24959">
        <ele>149.14</ele>
        <time>2014-02-17T13:08:02Z</time>
      </trkpt>
      <trkpt lat="43.48816" lon="5.24958">
        <ele>149.14</ele>
        <time>2014-02-17T13:08:03Z</time>
      </trkpt>
      <trkpt lat="43.48825" lon="5.24956">
        <ele>149.62</ele>
        <time>2014-02-17T13:08:12Z</time>
      </trkpt>
      <trkpt lat="43.48832" lon="5.24953">
        <ele>150.1</ele>
        <time>2014-02-17T13:08:20Z</time>
      </trkpt>
      <trkpt lat="43.48834" lon="5.24952">
        <ele>150.1</ele>
        <time>2014-02-17T13:08:21Z</time>
      </trkpt>
      <trkpt lat="43.48835" lon="5.24952">
        <ele>150.1</ele>
        <time>2014-02-17T13:08:22Z</time>
      </trkpt>
      <trkpt lat="43.48838" lon="5.24951">
        <ele>150.58</ele>
        <time>2014-02-17T13:08:25Z</time>
      </trkpt>
      <trkpt lat="43.48839" lon="5.24951">
        <ele>150.58</ele>
        <time>2014-02-17T13:08:26Z</time>
      </trkpt>
      <trkpt lat="43.48841" lon="5.2495">
        <ele>150.58</ele>
        <time>2014-02-17T13:08:27Z</time>
      </trkpt>
      <trkpt lat="43.48848" lon="5.24945">
        <ele>151.54</ele>
        <time>2014-02-17T13:08:35Z</time>
      </trkpt>
      <trkpt lat="43.48849" lon="5.24944">
        <ele>151.06</ele>
        <time>2014-02-17T13:08:36Z</time>
      </trkpt>
      <trkpt lat="43.4885" lon="5.24942">
        <ele>151.54</ele>
        <time>2014-02-17T13:08:37Z</time>
      </trkpt>
      <trkpt lat="43.48857" lon="5.24936">
        <ele>152.03</ele>
        <time>2014-02-17T13:08:45Z</time>
      </trkpt>
      <trkpt lat="43.48859" lon="5.24935">
        <ele>152.03</ele>
        <time>2014-02-17T13:08:46Z</time>
      </trkpt>
      <trkpt lat="43.4886" lon="5.24934">
        <ele>152.51</ele>
        <time>2014-02-17T13:08:47Z</time>
      </trkpt>
      <trkpt lat="43.48868" lon="5.24931">
        <ele>152.99</ele>
        <time>2014-02-17T13:08:56Z</time>
      </trkpt>
      <trkpt lat="43.4888" lon="5.24926">
        <ele>152.99</ele>
        <time>2014-02-17T13:09:06Z</time>
      </trkpt>
      <trkpt lat="43.48892" lon="5.24924">
        <ele>152.99</ele>
        <time>2014-02-17T13:09:16Z</time>
      </trkpt>
      <trkpt lat="43.48894" lon="5.24923">
        <ele>153.47</ele>
        <time>2014-02-17T13:09:19Z</time>
      </trkpt>
      <trkpt lat="43.48896" lon="5.24922">
        <ele>153.47</ele>
        <time>2014-02-17T13:09:20Z</time>
      </trkpt>
      <trkpt lat="43.48897" lon="5.24921">
        <ele>153.47</ele>
        <time>2014-02-17T13:09:21Z</time>
      </trkpt>
      <trkpt lat="43.48905" lon="5.24914">
        <ele>154.43</ele>
        <time>2014-02-17T13:09:30Z</time>
      </trkpt>
      <trkpt lat="43.48906" lon="5.24913">
        <ele>154.43</ele>
        <time>2014-02-17T13:09:31Z</time>
      </trkpt>
      <trkpt lat="43.48908" lon="5.24912">
        <ele>154.43</ele>
        <time>2014-02-17T13:09:32Z</time>
      </trkpt>
      <trkpt lat="43.48909" lon="5.24911">
        <ele>153.95</ele>
        <time>2014-02-17T13:09:33Z</time>
      </trkpt>
      <trkpt lat="43.48911" lon="5.24908">
        <ele>154.43</ele>
        <time>2014-02-17T13:09:36Z</time>
      </trkpt>
      <trkpt lat="43.48912" lon="5.24907">
        <ele>154.43</ele>
        <time>2014-02-17T13:09:37Z</time>
      </trkpt>
      <trkpt lat="43.48913" lon="5.24905">
        <ele>154.91</ele>
        <time>2014-02-17T13:09:38Z</time>
      </trkpt>
      <trkpt lat="43.48918" lon="5.24894">
        <ele>154.91</ele>
        <time>2014-02-17T13:09:47Z</time>
      </trkpt>
      <trkpt lat="43.48919" lon="5.24892">
        <ele>154.91</ele>
        <time>2014-02-17T13:09:48Z</time>
      </trkpt>
      <trkpt lat="43.48926" lon="5.24881">
        <ele>155.39</ele>
        <time>2014-02-17T13:09:58Z</time>
      </trkpt>
      <trkpt lat="43.48936" lon="5.2487">
        <ele>155.87</ele>
        <time>2014-02-17T13:10:08Z</time>
      </trkpt>
      <trkpt lat="43.48943" lon="5.24859">
        <ele>155.39</ele>
        <time>2014-02-17T13:10:18Z</time>
      </trkpt>
      <trkpt lat="43.48952" lon="5.2485">
        <ele>154.91</ele>
        <time>2014-02-17T13:10:28Z</time>
      </trkpt>
      <trkpt lat="43.4896" lon="5.24842">
        <ele>154.91</ele>
        <time>2014-02-17T13:10:37Z</time>
      </trkpt>
      <trkpt lat="43.48971" lon="5.24841">
        <ele>153.95</ele>
        <time>2014-02-17T13:10:47Z</time>
      </trkpt>
      <trkpt lat="43.48972" lon="5.24842">
        <ele>153.95</ele>
        <time>2014-02-17T13:10:48Z</time>
      </trkpt>
      <trkpt lat="43.48973" lon="5.24842">
        <ele>153.95</ele>
        <time>2014-02-17T13:10:49Z</time>
      </trkpt>
      <trkpt lat="43.48974" lon="5.24843">
        <ele>153.95</ele>
        <time>2014-02-17T13:10:50Z</time>
      </trkpt>
      <trkpt lat="43.48985" lon="5.24846">
        <ele>153.47</ele>
        <time>2014-02-17T13:11:00Z</time>
      </trkpt>
      <trkpt lat="43.48986" lon="5.24846">
        <ele>153.95</ele>
        <time>2014-02-17T13:11:01Z</time>
      </trkpt>
      <trkpt lat="43.48988" lon="5.24847">
        <ele>153.47</ele>
        <time>2014-02-17T13:11:02Z</time>
      </trkpt>
      <trkpt lat="43.48989" lon="5.24847">
        <ele>153.95</ele>
        <time>2014-02-17T13:11:03Z</time>
      </trkpt>
      <trkpt lat="43.48998" lon="5.2485">
        <ele>152.99</ele>
        <time>2014-02-17T13:11:12Z</time>
      </trkpt>
      <trkpt lat="43.49007" lon="5.24852">
        <ele>153.47</ele>
        <time>2014-02-17T13:11:19Z</time>
      </trkpt>
      <trkpt lat="43.49008" lon="5.24852">
        <ele>153.47</ele>
        <time>2014-02-17T13:11:20Z</time>
      </trkpt>
      <trkpt lat="43.49009" lon="5.24852">
        <ele>152.99</ele>
        <time>2014-02-17T13:11:21Z</time>
      </trkpt>
      <trkpt lat="43.49011" lon="5.24852">
        <ele>153.47</ele>
        <time>2014-02-17T13:11:22Z</time>
      </trkpt>
      <trkpt lat="43.4902" lon="5.24854">
        <ele>153.47</ele>
        <time>2014-02-17T13:11:31Z</time>
      </trkpt>
      <trkpt lat="43.49026" lon="5.24858">
        <ele>152.99</ele>
        <time>2014-02-17T13:11:37Z</time>
      </trkpt>
      <trkpt lat="43.49027" lon="5.24858">
        <ele>152.99</ele>
        <time>2014-02-17T13:11:38Z</time>
      </trkpt>
      <trkpt lat="43.49028" lon="5.24858">
        <ele>153.47</ele>
        <time>2014-02-17T13:11:39Z</time>
      </trkpt>
      <trkpt lat="43.49037" lon="5.24863">
        <ele>153.47</ele>
        <time>2014-02-17T13:11:48Z</time>
      </trkpt>
      <trkpt lat="43.49038" lon="5.24863">
        <ele>153.47</ele>
        <time>2014-02-17T13:11:49Z</time>
      </trkpt>
      <trkpt lat="43.49039" lon="5.24863">
        <ele>152.99</ele>
        <time>2014-02-17T13:11:50Z</time>
      </trkpt>
      <trkpt lat="43.49042" lon="5.24864">
        <ele>152.99</ele>
        <time>2014-02-17T13:11:53Z</time>
      </trkpt>
      <trkpt lat="43.49043" lon="5.24864">
        <ele>152.99</ele>
        <time>2014-02-17T13:11:54Z</time>
      </trkpt>
      <trkpt lat="43.49045" lon="5.24864">
        <ele>152.99</ele>
        <time>2014-02-17T13:11:55Z</time>
      </trkpt>
      <trkpt lat="43.49055" lon="5.24866">
        <ele>152.99</ele>
        <time>2014-02-17T13:12:04Z</time>
      </trkpt>
      <trkpt lat="43.49057" lon="5.24867">
        <ele>153.95</ele>
        <time>2014-02-17T13:12:06Z</time>
      </trkpt>
      <trkpt lat="43.49061" lon="5.24869">
        <ele>153.95</ele>
        <time>2014-02-17T13:12:10Z</time>
      </trkpt>
      <trkpt lat="43.49062" lon="5.24869">
        <ele>153.95</ele>
        <time>2014-02-17T13:12:11Z</time>
      </trkpt>
      <trkpt lat="43.49064" lon="5.24869">
        <ele>153.47</ele>
        <time>2014-02-17T13:12:12Z</time>
      </trkpt>
      <trkpt lat="43.49066" lon="5.2487">
        <ele>153.95</ele>
        <time>2014-02-17T13:12:13Z</time>
      </trkpt>
      <trkpt lat="43.49069" lon="5.2487">
        <ele>153.95</ele>
        <time>2014-02-17T13:12:16Z</time>
      </trkpt>
      <trkpt lat="43.4907" lon="5.2487">
        <ele>153.47</ele>
        <time>2014-02-17T13:12:17Z</time>
      </trkpt>
      <trkpt lat="43.49071" lon="5.24871">
        <ele>153.95</ele>
        <time>2014-02-17T13:12:18Z</time>
      </trkpt>
      <trkpt lat="43.49081" lon="5.2487">
        <ele>154.43</ele>
        <time>2014-02-17T13:12:27Z</time>
      </trkpt>
      <trkpt lat="43.49092" lon="5.24867">
        <ele>154.43</ele>
        <time>2014-02-17T13:12:37Z</time>
      </trkpt>
      <trkpt lat="43.49103" lon="5.24862">
        <ele>154.91</ele>
        <time>2014-02-17T13:12:47Z</time>
      </trkpt>
      <trkpt lat="43.49106" lon="5.24861">
        <ele>155.39</ele>
        <time>2014-02-17T13:12:50Z</time>
      </trkpt>
      <trkpt lat="43.49107" lon="5.2486">
        <ele>155.39</ele>
        <time>2014-02-17T13:12:51Z</time>
      </trkpt>
      <trkpt lat="43.49108" lon="5.2486">
        <ele>155.39</ele>
        <time>2014-02-17T13:12:52Z</time>
      </trkpt>
      <trkpt lat="43.49117" lon="5.24855">
        <ele>155.87</ele>
        <time>2014-02-17T13:13:01Z</time>
      </trkpt>
      <trkpt lat="43.49127" lon="5.2485">
        <ele>155.87</ele>
        <time>2014-02-17T13:13:11Z</time>
      </trkpt>
      <trkpt lat="43.49138" lon="5.24846">
        <ele>155.87</ele>
        <time>2014-02-17T13:13:21Z</time>
      </trkpt>
      <trkpt lat="43.4915" lon="5.24843">
        <ele>156.35</ele>
        <time>2014-02-17T13:13:31Z</time>
      </trkpt>
      <trkpt lat="43.49157" lon="5.2484">
        <ele>155.87</ele>
        <time>2014-02-17T13:13:39Z</time>
      </trkpt>
      <trkpt lat="43.49158" lon="5.24839">
        <ele>155.87</ele>
        <time>2014-02-17T13:13:40Z</time>
      </trkpt>
      <trkpt lat="43.4916" lon="5.24838">
        <ele>155.87</ele>
        <time>2014-02-17T13:13:41Z</time>
      </trkpt>
      <trkpt lat="43.49164" lon="5.24836">
        <ele>155.87</ele>
        <time>2014-02-17T13:13:45Z</time>
      </trkpt>
      <trkpt lat="43.49165" lon="5.24835">
        <ele>155.87</ele>
        <time>2014-02-17T13:13:46Z</time>
      </trkpt>
      <trkpt lat="43.49166" lon="5.24834">
        <ele>155.87</ele>
        <time>2014-02-17T13:13:47Z</time>
      </trkpt>
      <trkpt lat="43.49167" lon="5.24833">
        <ele>155.87</ele>
        <time>2014-02-17T13:13:48Z</time>
      </trkpt>
      <trkpt lat="43.49174" lon="5.24829">
        <ele>156.35</ele>
        <time>2014-02-17T13:13:56Z</time>
      </trkpt>
      <trkpt lat="43.49175" lon="5.2483">
        <ele>156.35</ele>
        <time>2014-02-17T13:13:57Z</time>
      </trkpt>
      <trkpt lat="43.4918" lon="5.24832">
        <ele>155.87</ele>
        <time>2014-02-17T13:14:02Z</time>
      </trkpt>
      <trkpt lat="43.49182" lon="5.24832">
        <ele>155.39</ele>
        <time>2014-02-17T13:14:03Z</time>
      </trkpt>
      <trkpt lat="43.49183" lon="5.24833">
        <ele>155.87</ele>
        <time>2014-02-17T13:14:04Z</time>
      </trkpt>
      <trkpt lat="43.49187" lon="5.24834">
        <ele>155.87</ele>
        <time>2014-02-17T13:14:08Z</time>
      </trkpt>
      <trkpt lat="43.49188" lon="5.24833">
        <ele>155.87</ele>
        <time>2014-02-17T13:14:09Z</time>
      </trkpt>
      <trkpt lat="43.49193" lon="5.24833">
        <ele>156.35</ele>
        <time>2014-02-17T13:14:13Z</time>
      </trkpt>
      <trkpt lat="43.49194" lon="5.24833">
        <ele>156.35</ele>
        <time>2014-02-17T13:14:14Z</time>
      </trkpt>
      <trkpt lat="43.49194" lon="5.24832">
        <ele>156.35</ele>
        <time>2014-02-17T13:14:28Z</time>
      </trkpt>
      <trkpt lat="43.49194" lon="5.24831">
        <ele>156.35</ele>
        <time>2014-02-17T13:14:48Z</time>
      </trkpt>
      <trkpt lat="43.49196" lon="5.24832">
        <ele>156.35</ele>
        <time>2014-02-17T13:15:19Z</time>
      </trkpt>
      <trkpt lat="43.49197" lon="5.24832">
        <ele>156.35</ele>
        <time>2014-02-17T13:15:20Z</time>
      </trkpt>
      <trkpt lat="43.49206" lon="5.24831">
        <ele>156.83</ele>
        <time>2014-02-17T13:15:29Z</time>
      </trkpt>
      <trkpt lat="43.49216" lon="5.24829">
        <ele>157.79</ele>
        <time>2014-02-17T13:15:38Z</time>
      </trkpt>
      <trkpt lat="43.49217" lon="5.24829">
        <ele>158.27</ele>
        <time>2014-02-17T13:15:39Z</time>
      </trkpt>
      <trkpt lat="43.49218" lon="5.24829">
        <ele>157.79</ele>
        <time>2014-02-17T13:15:40Z</time>
      </trkpt>
      <trkpt lat="43.49228" lon="5.24827">
        <ele>158.27</ele>
        <time>2014-02-17T13:15:49Z</time>
      </trkpt>
      <trkpt lat="43.49239" lon="5.24826">
        <ele>159.24</ele>
        <time>2014-02-17T13:15:58Z</time>
      </trkpt>
      <trkpt lat="43.49246" lon="5.24826">
        <ele>159.72</ele>
        <time>2014-02-17T13:16:05Z</time>
      </trkpt>
      <trkpt lat="43.49247" lon="5.24826">
        <ele>159.72</ele>
        <time>2014-02-17T13:16:06Z</time>
      </trkpt>
      <trkpt lat="43.49249" lon="5.24826">
        <ele>160.2</ele>
        <time>2014-02-17T13:16:07Z</time>
      </trkpt>
      <trkpt lat="43.4925" lon="5.24827">
        <ele>160.2</ele>
        <time>2014-02-17T13:16:08Z</time>
      </trkpt>
      <trkpt lat="43.49258" lon="5.24826">
        <ele>160.2</ele>
        <time>2014-02-17T13:16:16Z</time>
      </trkpt>
      <trkpt lat="43.49259" lon="5.24826">
        <ele>160.68</ele>
        <time>2014-02-17T13:16:17Z</time>
      </trkpt>
      <trkpt lat="43.4926" lon="5.24826">
        <ele>160.2</ele>
        <time>2014-02-17T13:16:18Z</time>
      </trkpt>
      <trkpt lat="43.49262" lon="5.24826">
        <ele>160.68</ele>
        <time>2014-02-17T13:16:19Z</time>
      </trkpt>
      <trkpt lat="43.49265" lon="5.24825">
        <ele>160.68</ele>
        <time>2014-02-17T13:16:22Z</time>
      </trkpt>
      <trkpt lat="43.49266" lon="5.24825">
        <ele>160.68</ele>
        <time>2014-02-17T13:16:23Z</time>
      </trkpt>
      <trkpt lat="43.49267" lon="5.24825">
        <ele>160.68</ele>
        <time>2014-02-17T13:16:24Z</time>
      </trkpt>
      <trkpt lat="43.49269" lon="5.24825">
        <ele>160.68</ele>
        <time>2014-02-17T13:16:25Z</time>
      </trkpt>
      <trkpt lat="43.49278" lon="5.24827">
        <ele>160.68</ele>
        <time>2014-02-17T13:16:34Z</time>
      </trkpt>
      <trkpt lat="43.49291" lon="5.24828">
        <ele>161.16</ele>
        <time>2014-02-17T13:16:44Z</time>
      </trkpt>
      <trkpt lat="43.49293" lon="5.24828">
        <ele>161.16</ele>
        <time>2014-02-17T13:16:46Z</time>
      </trkpt>
      <trkpt lat="43.49294" lon="5.24828">
        <ele>161.16</ele>
        <time>2014-02-17T13:16:47Z</time>
      </trkpt>
      <trkpt lat="43.49296" lon="5.24828">
        <ele>161.16</ele>
        <time>2014-02-17T13:16:48Z</time>
      </trkpt>
      <trkpt lat="43.49298" lon="5.24827">
        <ele>161.64</ele>
        <time>2014-02-17T13:16:49Z</time>
      </trkpt>
      <trkpt lat="43.49309" lon="5.2482">
        <ele>161.64</ele>
        <time>2014-02-17T13:16:58Z</time>
      </trkpt>
      <trkpt lat="43.49316" lon="5.24817">
        <ele>161.16</ele>
        <time>2014-02-17T13:17:04Z</time>
      </trkpt>
      <trkpt lat="43.49317" lon="5.24816">
        <ele>161.16</ele>
        <time>2014-02-17T13:17:05Z</time>
      </trkpt>
      <trkpt lat="43.49318" lon="5.24816">
        <ele>161.16</ele>
        <time>2014-02-17T13:17:06Z</time>
      </trkpt>
      <trkpt lat="43.49329" lon="5.24813">
        <ele>161.16</ele>
        <time>2014-02-17T13:17:16Z</time>
      </trkpt>
      <trkpt lat="43.4933" lon="5.24813">
        <ele>161.64</ele>
        <time>2014-02-17T13:17:17Z</time>
      </trkpt>
      <trkpt lat="43.49331" lon="5.24813">
        <ele>161.64</ele>
        <time>2014-02-17T13:17:18Z</time>
      </trkpt>
      <trkpt lat="43.49342" lon="5.24812">
        <ele>162.12</ele>
        <time>2014-02-17T13:17:27Z</time>
      </trkpt>
      <trkpt lat="43.49352" lon="5.24814">
        <ele>162.6</ele>
        <time>2014-02-17T13:17:37Z</time>
      </trkpt>
      <trkpt lat="43.49361" lon="5.24815">
        <ele>162.6</ele>
        <time>2014-02-17T13:17:45Z</time>
      </trkpt>
      <trkpt lat="43.49372" lon="5.24814">
        <ele>162.6</ele>
        <time>2014-02-17T13:17:55Z</time>
      </trkpt>
      <trkpt lat="43.49376" lon="5.24814">
        <ele>162.6</ele>
        <time>2014-02-17T13:17:59Z</time>
      </trkpt>
      <trkpt lat="43.49377" lon="5.24815">
        <ele>162.6</ele>
        <time>2014-02-17T13:18:00Z</time>
      </trkpt>
      <trkpt lat="43.49378" lon="5.24815">
        <ele>163.08</ele>
        <time>2014-02-17T13:18:01Z</time>
      </trkpt>
      <trkpt lat="43.49388" lon="5.24819">
        <ele>163.08</ele>
        <time>2014-02-17T13:18:10Z</time>
      </trkpt>
      <trkpt lat="43.49399" lon="5.24823">
        <ele>162.6</ele>
        <time>2014-02-17T13:18:20Z</time>
      </trkpt>
      <trkpt lat="43.49402" lon="5.24824">
        <ele>163.08</ele>
        <time>2014-02-17T13:18:24Z</time>
      </trkpt>
      <trkpt lat="43.49404" lon="5.24824">
        <ele>163.08</ele>
        <time>2014-02-17T13:18:25Z</time>
      </trkpt>
      <trkpt lat="43.49405" lon="5.24825">
        <ele>163.08</ele>
        <time>2014-02-17T13:18:26Z</time>
      </trkpt>
      <trkpt lat="43.49407" lon="5.24825">
        <ele>162.6</ele>
        <time>2014-02-17T13:18:27Z</time>
      </trkpt>
      <trkpt lat="43.49409" lon="5.24825">
        <ele>162.6</ele>
        <time>2014-02-17T13:18:30Z</time>
      </trkpt>
      <trkpt lat="43.4941" lon="5.24826">
        <ele>163.08</ele>
        <time>2014-02-17T13:18:31Z</time>
      </trkpt>
      <trkpt lat="43.49412" lon="5.24826">
        <ele>163.08</ele>
        <time>2014-02-17T13:18:32Z</time>
      </trkpt>
      <trkpt lat="43.49413" lon="5.24827">
        <ele>162.6</ele>
        <time>2014-02-17T13:18:33Z</time>
      </trkpt>
      <trkpt lat="43.49424" lon="5.24829">
        <ele>163.56</ele>
        <time>2014-02-17T13:18:43Z</time>
      </trkpt>
      <trkpt lat="43.49434" lon="5.24831">
        <ele>163.56</ele>
        <time>2014-02-17T13:18:52Z</time>
      </trkpt>
      <trkpt lat="43.49436" lon="5.24832">
        <ele>163.56</ele>
        <time>2014-02-17T13:18:54Z</time>
      </trkpt>
      <trkpt lat="43.49438" lon="5.24832">
        <ele>163.56</ele>
        <time>2014-02-17T13:18:55Z</time>
      </trkpt>
      <trkpt lat="43.49439" lon="5.24833">
        <ele>163.56</ele>
        <time>2014-02-17T13:18:56Z</time>
      </trkpt>
      <trkpt lat="43.49449" lon="5.24837">
        <ele>163.08</ele>
        <time>2014-02-17T13:19:06Z</time>
      </trkpt>
      <trkpt lat="43.49459" lon="5.24842">
        <ele>163.56</ele>
        <time>2014-02-17T13:19:15Z</time>
      </trkpt>
      <trkpt lat="43.49463" lon="5.24844">
        <ele>163.56</ele>
        <time>2014-02-17T13:19:19Z</time>
      </trkpt>
      <trkpt lat="43.49464" lon="5.24845">
        <ele>163.56</ele>
        <time>2014-02-17T13:19:20Z</time>
      </trkpt>
      <trkpt lat="43.49466" lon="5.24846">
        <ele>163.08</ele>
        <time>2014-02-17T13:19:21Z</time>
      </trkpt>
      <trkpt lat="43.49467" lon="5.24846">
        <ele>163.08</ele>
        <time>2014-02-17T13:19:22Z</time>
      </trkpt>
      <trkpt lat="43.49475" lon="5.24851">
        <ele>163.08</ele>
        <time>2014-02-17T13:19:31Z</time>
      </trkpt>
      <trkpt lat="43.49487" lon="5.24852">
        <ele>162.6</ele>
        <time>2014-02-17T13:19:41Z</time>
      </trkpt>
      <trkpt lat="43.495" lon="5.24851">
        <ele>162.12</ele>
        <time>2014-02-17T13:19:51Z</time>
      </trkpt>
      <trkpt lat="43.49511" lon="5.24849">
        <ele>162.12</ele>
        <time>2014-02-17T13:20:01Z</time>
      </trkpt>
      <trkpt lat="43.49522" lon="5.24854">
        <ele>162.6</ele>
        <time>2014-02-17T13:20:11Z</time>
      </trkpt>
      <trkpt lat="43.49523" lon="5.24854">
        <ele>162.6</ele>
        <time>2014-02-17T13:20:13Z</time>
      </trkpt>
      <trkpt lat="43.49525" lon="5.24855">
        <ele>162.6</ele>
        <time>2014-02-17T13:20:14Z</time>
      </trkpt>
      <trkpt lat="43.49526" lon="5.24855">
        <ele>162.12</ele>
        <time>2014-02-17T13:20:15Z</time>
      </trkpt>
      <trkpt lat="43.4953" lon="5.24856">
        <ele>162.6</ele>
        <time>2014-02-17T13:20:19Z</time>
      </trkpt>
      <trkpt lat="43.49531" lon="5.24856">
        <ele>162.12</ele>
        <time>2014-02-17T13:20:20Z</time>
      </trkpt>
      <trkpt lat="43.49532" lon="5.24857">
        <ele>162.6</ele>
        <time>2014-02-17T13:20:21Z</time>
      </trkpt>
      <trkpt lat="43.49534" lon="5.24858">
        <ele>162.6</ele>
        <time>2014-02-17T13:20:22Z</time>
      </trkpt>
      <trkpt lat="43.49543" lon="5.2486">
        <ele>163.56</ele>
        <time>2014-02-17T13:20:31Z</time>
      </trkpt>
      <trkpt lat="43.49544" lon="5.24861">
        <ele>164.04</ele>
        <time>2014-02-17T13:20:32Z</time>
      </trkpt>
      <trkpt lat="43.49545" lon="5.24861">
        <ele>163.56</ele>
        <time>2014-02-17T13:20:33Z</time>
      </trkpt>
      <trkpt lat="43.49547" lon="5.24862">
        <ele>164.04</ele>
        <time>2014-02-17T13:20:36Z</time>
      </trkpt>
      <trkpt lat="43.49549" lon="5.24862">
        <ele>164.04</ele>
        <time>2014-02-17T13:20:37Z</time>
      </trkpt>
      <trkpt lat="43.49551" lon="5.24863">
        <ele>164.52</ele>
        <time>2014-02-17T13:20:38Z</time>
      </trkpt>
      <trkpt lat="43.49558" lon="5.24865">
        <ele>165</ele>
        <time>2014-02-17T13:20:46Z</time>
      </trkpt>
      <trkpt lat="43.49569" lon="5.24869">
        <ele>165</ele>
        <time>2014-02-17T13:20:55Z</time>
      </trkpt>
      <trkpt lat="43.49571" lon="5.24871">
        <ele>165.48</ele>
        <time>2014-02-17T13:20:58Z</time>
      </trkpt>
      <trkpt lat="43.49572" lon="5.24871">
        <ele>165.48</ele>
        <time>2014-02-17T13:20:59Z</time>
      </trkpt>
      <trkpt lat="43.49574" lon="5.24872">
        <ele>165.48</ele>
        <time>2014-02-17T13:21:00Z</time>
      </trkpt>
      <trkpt lat="43.49575" lon="5.24873">
        <ele>165.48</ele>
        <time>2014-02-17T13:21:01Z</time>
      </trkpt>
      <trkpt lat="43.49585" lon="5.24878">
        <ele>165.48</ele>
        <time>2014-02-17T13:21:11Z</time>
      </trkpt>
      <trkpt lat="43.49595" lon="5.24884">
        <ele>166.45</ele>
        <time>2014-02-17T13:21:20Z</time>
      </trkpt>
      <trkpt lat="43.49596" lon="5.24885">
        <ele>166.45</ele>
        <time>2014-02-17T13:21:22Z</time>
      </trkpt>
      <trkpt lat="43.49597" lon="5.24885">
        <ele>165.96</ele>
        <time>2014-02-17T13:21:23Z</time>
      </trkpt>
      <trkpt lat="43.49598" lon="5.24886">
        <ele>165.96</ele>
        <time>2014-02-17T13:21:24Z</time>
      </trkpt>
      <trkpt lat="43.496" lon="5.24887">
        <ele>165.96</ele>
        <time>2014-02-17T13:21:25Z</time>
      </trkpt>
      <trkpt lat="43.49602" lon="5.24888">
        <ele>166.45</ele>
        <time>2014-02-17T13:21:28Z</time>
      </trkpt>
      <trkpt lat="43.49604" lon="5.24889">
        <ele>165.96</ele>
        <time>2014-02-17T13:21:29Z</time>
      </trkpt>
      <trkpt lat="43.49606" lon="5.24889">
        <ele>165.96</ele>
        <time>2014-02-17T13:21:30Z</time>
      </trkpt>
      <trkpt lat="43.49616" lon="5.24893">
        <ele>166.93</ele>
        <time>2014-02-17T13:21:39Z</time>
      </trkpt>
      <trkpt lat="43.49617" lon="5.24893">
        <ele>166.93</ele>
        <time>2014-02-17T13:21:40Z</time>
      </trkpt>
      <trkpt lat="43.49618" lon="5.24894">
        <ele>166.93</ele>
        <time>2014-02-17T13:21:41Z</time>
      </trkpt>
      <trkpt lat="43.4962" lon="5.24894">
        <ele>165.96</ele>
        <time>2014-02-17T13:21:42Z</time>
      </trkpt>
      <trkpt lat="43.49624" lon="5.24895">
        <ele>166.93</ele>
        <time>2014-02-17T13:21:46Z</time>
      </trkpt>
      <trkpt lat="43.49625" lon="5.24896">
        <ele>166.45</ele>
        <time>2014-02-17T13:21:47Z</time>
      </trkpt>
      <trkpt lat="43.49626" lon="5.24896">
        <ele>166.45</ele>
        <time>2014-02-17T13:21:48Z</time>
      </trkpt>
      <trkpt lat="43.49628" lon="5.24897">
        <ele>166.93</ele>
        <time>2014-02-17T13:21:49Z</time>
      </trkpt>
      <trkpt lat="43.4963" lon="5.24898">
        <ele>166.93</ele>
        <time>2014-02-17T13:21:52Z</time>
      </trkpt>
      <trkpt lat="43.49631" lon="5.24899">
        <ele>166.45</ele>
        <time>2014-02-17T13:21:53Z</time>
      </trkpt>
      <trkpt lat="43.49633" lon="5.24899">
        <ele>166.45</ele>
        <time>2014-02-17T13:21:54Z</time>
      </trkpt>
      <trkpt lat="43.49634" lon="5.249">
        <ele>166.45</ele>
        <time>2014-02-17T13:21:55Z</time>
      </trkpt>
      <trkpt lat="43.49643" lon="5.24904">
        <ele>166.93</ele>
        <time>2014-02-17T13:22:04Z</time>
      </trkpt>
      <trkpt lat="43.49644" lon="5.24904">
        <ele>166.93</ele>
        <time>2014-02-17T13:22:05Z</time>
      </trkpt>
      <trkpt lat="43.49646" lon="5.24905">
        <ele>167.41</ele>
        <time>2014-02-17T13:22:06Z</time>
      </trkpt>
      <trkpt lat="43.49649" lon="5.24906">
        <ele>167.41</ele>
        <time>2014-02-17T13:22:10Z</time>
      </trkpt>
      <trkpt lat="43.49651" lon="5.24906">
        <ele>166.93</ele>
        <time>2014-02-17T13:22:11Z</time>
      </trkpt>
      <trkpt lat="43.49652" lon="5.24906">
        <ele>166.93</ele>
        <time>2014-02-17T13:22:12Z</time>
      </trkpt>
      <trkpt lat="43.49655" lon="5.24907">
        <ele>167.41</ele>
        <time>2014-02-17T13:22:15Z</time>
      </trkpt>
      <trkpt lat="43.49656" lon="5.24907">
        <ele>167.41</ele>
        <time>2014-02-17T13:22:16Z</time>
      </trkpt>
      <trkpt lat="43.49658" lon="5.24908">
        <ele>167.41</ele>
        <time>2014-02-17T13:22:17Z</time>
      </trkpt>
      <trkpt lat="43.49667" lon="5.24911">
        <ele>167.41</ele>
        <time>2014-02-17T13:22:26Z</time>
      </trkpt>
      <trkpt lat="43.49668" lon="5.24912">
        <ele>167.41</ele>
        <time>2014-02-17T13:22:27Z</time>
      </trkpt>
      <trkpt lat="43.49669" lon="5.24912">
        <ele>167.41</ele>
        <time>2014-02-17T13:22:28Z</time>
      </trkpt>
      <trkpt lat="43.4968" lon="5.24915">
        <ele>167.89</ele>
        <time>2014-02-17T13:22:37Z</time>
      </trkpt>
      <trkpt lat="43.49691" lon="5.24919">
        <ele>167.41</ele>
        <time>2014-02-17T13:22:47Z</time>
      </trkpt>
      <trkpt lat="43.49701" lon="5.24922">
        <ele>166.93</ele>
        <time>2014-02-17T13:22:55Z</time>
      </trkpt>
      <trkpt lat="43.4971" lon="5.24924">
        <ele>166.93</ele>
        <time>2014-02-17T13:23:05Z</time>
      </trkpt>
      <trkpt lat="43.49711" lon="5.24923">
        <ele>167.41</ele>
        <time>2014-02-17T13:23:39Z</time>
      </trkpt>
      <trkpt lat="43.4971" lon="5.24924">
        <ele>167.41</ele>
        <time>2014-02-17T13:24:08Z</time>
      </trkpt>
      <trkpt lat="43.4971" lon="5.24925">
        <ele>167.41</ele>
        <time>2014-02-17T13:24:39Z</time>
      </trkpt>
      <trkpt lat="43.4971" lon="5.24923">
        <ele>167.41</ele>
        <time>2014-02-17T13:24:59Z</time>
      </trkpt>
      <trkpt lat="43.49719" lon="5.24926">
        <ele>167.41</ele>
        <time>2014-02-17T13:25:15Z</time>
      </trkpt>
      <trkpt lat="43.4972" lon="5.24926">
        <ele>166.93</ele>
        <time>2014-02-17T13:25:16Z</time>
      </trkpt>
      <trkpt lat="43.49725" lon="5.24926">
        <ele>166.93</ele>
        <time>2014-02-17T13:25:21Z</time>
      </trkpt>
      <trkpt lat="43.49726" lon="5.24925">
        <ele>166.93</ele>
        <time>2014-02-17T13:25:22Z</time>
      </trkpt>
      <trkpt lat="43.49727" lon="5.24925">
        <ele>166.93</ele>
        <time>2014-02-17T13:25:23Z</time>
      </trkpt>
      <trkpt lat="43.49729" lon="5.24925">
        <ele>165.96</ele>
        <time>2014-02-17T13:25:24Z</time>
      </trkpt>
      <trkpt lat="43.4973" lon="5.24925">
        <ele>166.45</ele>
        <time>2014-02-17T13:25:25Z</time>
      </trkpt>
      <trkpt lat="43.49732" lon="5.24924">
        <ele>166.45</ele>
        <time>2014-02-17T13:25:30Z</time>
      </trkpt>
      <trkpt lat="43.49734" lon="5.24924">
        <ele>165.96</ele>
        <time>2014-02-17T13:25:33Z</time>
      </trkpt>
      <trkpt lat="43.49736" lon="5.24923">
        <ele>166.45</ele>
        <time>2014-02-17T13:25:34Z</time>
      </trkpt>
      <trkpt lat="43.49737" lon="5.24923">
        <ele>166.93</ele>
        <time>2014-02-17T13:25:35Z</time>
      </trkpt>
      <trkpt lat="43.49749" lon="5.2492">
        <ele>166.45</ele>
        <time>2014-02-17T13:25:45Z</time>
      </trkpt>
      <trkpt lat="43.49757" lon="5.24917">
        <ele>165.96</ele>
        <time>2014-02-17T13:25:53Z</time>
      </trkpt>
      <trkpt lat="43.49758" lon="5.24916">
        <ele>165.48</ele>
        <time>2014-02-17T13:25:54Z</time>
      </trkpt>
      <trkpt lat="43.4976" lon="5.24916">
        <ele>165.96</ele>
        <time>2014-02-17T13:25:55Z</time>
      </trkpt>
      <trkpt lat="43.49771" lon="5.24915">
        <ele>165.96</ele>
        <time>2014-02-17T13:26:05Z</time>
      </trkpt>
      <trkpt lat="43.49781" lon="5.24912">
        <ele>165</ele>
        <time>2014-02-17T13:26:14Z</time>
      </trkpt>
      <trkpt lat="43.49786" lon="5.24912">
        <ele>164.52</ele>
        <time>2014-02-17T13:26:19Z</time>
      </trkpt>
      <trkpt lat="43.49787" lon="5.24912">
        <ele>165</ele>
        <time>2014-02-17T13:26:20Z</time>
      </trkpt>
      <trkpt lat="43.49789" lon="5.24912">
        <ele>165</ele>
        <time>2014-02-17T13:26:21Z</time>
      </trkpt>
      <trkpt lat="43.4979" lon="5.24912">
        <ele>165</ele>
        <time>2014-02-17T13:26:22Z</time>
      </trkpt>
      <trkpt lat="43.49792" lon="5.2491">
        <ele>165</ele>
        <time>2014-02-17T13:26:25Z</time>
      </trkpt>
      <trkpt lat="43.49796" lon="5.24905">
        <ele>165.48</ele>
        <time>2014-02-17T13:26:30Z</time>
      </trkpt>
      <trkpt lat="43.49797" lon="5.24904">
        <ele>165.48</ele>
        <time>2014-02-17T13:26:31Z</time>
      </trkpt>
      <trkpt lat="43.49798" lon="5.24902">
        <ele>165.48</ele>
        <time>2014-02-17T13:26:32Z</time>
      </trkpt>
      <trkpt lat="43.49801" lon="5.24896">
        <ele>165.96</ele>
        <time>2014-02-17T13:26:37Z</time>
      </trkpt>
      <trkpt lat="43.49807" lon="5.24891">
        <ele>165.96</ele>
        <time>2014-02-17T13:26:45Z</time>
      </trkpt>
      <trkpt lat="43.49812" lon="5.24892">
        <ele>165.48</ele>
        <time>2014-02-17T13:26:55Z</time>
      </trkpt>
      <trkpt lat="43.49814" lon="5.24888">
        <ele>165.48</ele>
        <time>2014-02-17T13:27:30Z</time>
      </trkpt>
      <trkpt lat="43.49812" lon="5.24893">
        <ele>165.96</ele>
        <time>2014-02-17T13:27:48Z</time>
      </trkpt>
      <trkpt lat="43.49809" lon="5.24898">
        <ele>165.96</ele>
        <time>2014-02-17T13:27:52Z</time>
      </trkpt>
      <trkpt lat="43.4981" lon="5.24904">
        <ele>166.45</ele>
        <time>2014-02-17T13:27:56Z</time>
      </trkpt>
      <trkpt lat="43.49818" lon="5.24915">
        <ele>166.45</ele>
        <time>2014-02-17T13:28:06Z</time>
      </trkpt>
      <trkpt lat="43.4983" lon="5.24917">
        <ele>166.93</ele>
        <time>2014-02-17T13:28:17Z</time>
      </trkpt>
      <trkpt lat="43.49831" lon="5.24917">
        <ele>166.93</ele>
        <time>2014-02-17T13:28:18Z</time>
      </trkpt>
      <trkpt lat="43.49837" lon="5.24914">
        <ele>167.41</ele>
        <time>2014-02-17T13:28:23Z</time>
      </trkpt>
      <trkpt lat="43.49849" lon="5.24909">
        <ele>168.37</ele>
        <time>2014-02-17T13:28:34Z</time>
      </trkpt>
      <trkpt lat="43.4986" lon="5.24906">
        <ele>168.37</ele>
        <time>2014-02-17T13:28:44Z</time>
      </trkpt>
      <trkpt lat="43.49866" lon="5.24905">
        <ele>168.85</ele>
        <time>2014-02-17T13:28:50Z</time>
      </trkpt>
      <trkpt lat="43.49878" lon="5.24902">
        <ele>170.29</ele>
        <time>2014-02-17T13:29:01Z</time>
      </trkpt>
      <trkpt lat="43.49889" lon="5.24896">
        <ele>169.33</ele>
        <time>2014-02-17T13:29:12Z</time>
      </trkpt>
      <trkpt lat="43.49895" lon="5.24894">
        <ele>169.33</ele>
        <time>2014-02-17T13:29:22Z</time>
      </trkpt>
      <trkpt lat="43.49896" lon="5.24893">
        <ele>168.85</ele>
        <time>2014-02-17T13:29:34Z</time>
      </trkpt>
      <trkpt lat="43.49897" lon="5.24892">
        <ele>168.85</ele>
        <time>2014-02-17T13:30:03Z</time>
      </trkpt>
      <trkpt lat="43.49899" lon="5.2489">
        <ele>169.81</ele>
        <time>2014-02-17T13:30:15Z</time>
      </trkpt>
      <trkpt lat="43.49907" lon="5.24892">
        <ele>169.81</ele>
        <time>2014-02-17T13:30:25Z</time>
      </trkpt>
      <trkpt lat="43.49907" lon="5.24892">
        <ele>169.33</ele>
        <time>2014-02-17T13:30:29Z</time>
      </trkpt>
      <trkpt lat="43.49909" lon="5.24892">
        <ele>170.29</ele>
        <time>2014-02-17T13:30:33Z</time>
      </trkpt>
      <trkpt lat="43.49922" lon="5.24893">
        <ele>171.25</ele>
        <time>2014-02-17T13:30:43Z</time>
      </trkpt>
      <trkpt lat="43.4993" lon="5.24893">
        <ele>172.21</ele>
        <time>2014-02-17T13:30:52Z</time>
      </trkpt>
      <trkpt lat="43.49934" lon="5.24892">
        <ele>172.21</ele>
        <time>2014-02-17T13:31:04Z</time>
      </trkpt>
      <trkpt lat="43.49934" lon="5.24892">
        <ele>172.69</ele>
        <time>2014-02-17T13:31:08Z</time>
      </trkpt>
      <trkpt lat="43.49937" lon="5.24892">
        <ele>172.69</ele>
        <time>2014-02-17T13:31:12Z</time>
      </trkpt>
      <trkpt lat="43.49939" lon="5.24892">
        <ele>172.69</ele>
        <time>2014-02-17T13:31:13Z</time>
      </trkpt>
      <trkpt lat="43.4994" lon="5.2489">
        <ele>173.17</ele>
        <time>2014-02-17T13:31:26Z</time>
      </trkpt>
      <trkpt lat="43.49941" lon="5.2489">
        <ele>172.69</ele>
        <time>2014-02-17T13:31:35Z</time>
      </trkpt>
      <trkpt lat="43.49943" lon="5.2489">
        <ele>172.69</ele>
        <time>2014-02-17T13:31:36Z</time>
      </trkpt>
      <trkpt lat="43.49945" lon="5.24889">
        <ele>173.17</ele>
        <time>2014-02-17T13:31:39Z</time>
      </trkpt>
      <trkpt lat="43.49946" lon="5.24888">
        <ele>173.66</ele>
        <time>2014-02-17T13:31:40Z</time>
      </trkpt>
      <trkpt lat="43.49949" lon="5.24887">
        <ele>173.66</ele>
        <time>2014-02-17T13:31:43Z</time>
      </trkpt>
      <trkpt lat="43.4995" lon="5.24887">
        <ele>173.17</ele>
        <time>2014-02-17T13:31:44Z</time>
      </trkpt>
      <trkpt lat="43.49952" lon="5.24887">
        <ele>173.66</ele>
        <time>2014-02-17T13:31:45Z</time>
      </trkpt>
      <trkpt lat="43.4996" lon="5.24884">
        <ele>174.14</ele>
        <time>2014-02-17T13:31:54Z</time>
      </trkpt>
      <trkpt lat="43.49966" lon="5.24883">
        <ele>174.14</ele>
        <time>2014-02-17T13:32:05Z</time>
      </trkpt>
      <trkpt lat="43.49974" lon="5.24881">
        <ele>173.66</ele>
        <time>2014-02-17T13:32:23Z</time>
      </trkpt>
      <trkpt lat="43.49983" lon="5.24883">
        <ele>172.21</ele>
        <time>2014-02-17T13:32:33Z</time>
      </trkpt>
      <trkpt lat="43.49996" lon="5.24886">
        <ele>171.25</ele>
        <time>2014-02-17T13:32:44Z</time>
      </trkpt>
      <trkpt lat="43.49998" lon="5.24887">
        <ele>170.29</ele>
        <time>2014-02-17T13:32:47Z</time>
      </trkpt>
      <trkpt lat="43.49999" lon="5.24887">
        <ele>170.77</ele>
        <time>2014-02-17T13:32:48Z</time>
      </trkpt>
      <trkpt lat="43.5" lon="5.24887">
        <ele>170.29</ele>
        <time>2014-02-17T13:32:49Z</time>
      </trkpt>
      <trkpt lat="43.50001" lon="5.24888">
        <ele>170.77</ele>
        <time>2014-02-17T13:32:50Z</time>
      </trkpt>
      <trkpt lat="43.50005" lon="5.24889">
        <ele>170.29</ele>
        <time>2014-02-17T13:32:54Z</time>
      </trkpt>
      <trkpt lat="43.50016" lon="5.24893">
        <ele>168.85</ele>
        <time>2014-02-17T13:33:05Z</time>
      </trkpt>
      <trkpt lat="43.50017" lon="5.24894">
        <ele>168.85</ele>
        <time>2014-02-17T13:33:06Z</time>
      </trkpt>
      <trkpt lat="43.50018" lon="5.24895">
        <ele>168.85</ele>
        <time>2014-02-17T13:33:07Z</time>
      </trkpt>
      <trkpt lat="43.50019" lon="5.24896">
        <ele>168.85</ele>
        <time>2014-02-17T13:33:08Z</time>
      </trkpt>
      <trkpt lat="43.50022" lon="5.24898">
        <ele>169.33</ele>
        <time>2014-02-17T13:33:12Z</time>
      </trkpt>
      <trkpt lat="43.50024" lon="5.24899">
        <ele>169.81</ele>
        <time>2014-02-17T13:33:13Z</time>
      </trkpt>
      <trkpt lat="43.50025" lon="5.249">
        <ele>169.81</ele>
        <time>2014-02-17T13:33:14Z</time>
      </trkpt>
      <trkpt lat="43.50034" lon="5.24902">
        <ele>170.29</ele>
        <time>2014-02-17T13:33:23Z</time>
      </trkpt>
      <trkpt lat="43.50044" lon="5.24902">
        <ele>169.81</ele>
        <time>2014-02-17T13:33:32Z</time>
      </trkpt>
      <trkpt lat="43.50045" lon="5.24902">
        <ele>170.29</ele>
        <time>2014-02-17T13:33:33Z</time>
      </trkpt>
      <trkpt lat="43.50046" lon="5.24902">
        <ele>170.29</ele>
        <time>2014-02-17T13:33:34Z</time>
      </trkpt>
      <trkpt lat="43.50048" lon="5.24902">
        <ele>169.81</ele>
        <time>2014-02-17T13:33:35Z</time>
      </trkpt>
      <trkpt lat="43.50049" lon="5.24902">
        <ele>169.81</ele>
        <time>2014-02-17T13:33:36Z</time>
      </trkpt>
      <trkpt lat="43.50059" lon="5.24903">
        <ele>169.33</ele>
        <time>2014-02-17T13:33:45Z</time>
      </trkpt>
      <trkpt lat="43.50071" lon="5.24903">
        <ele>169.81</ele>
        <time>2014-02-17T13:33:55Z</time>
      </trkpt>
      <trkpt lat="43.50081" lon="5.24905">
        <ele>170.77</ele>
        <time>2014-02-17T13:34:05Z</time>
      </trkpt>
      <trkpt lat="43.50091" lon="5.24906">
        <ele>170.77</ele>
        <time>2014-02-17T13:34:14Z</time>
      </trkpt>
      <trkpt lat="43.50093" lon="5.24906">
        <ele>170.29</ele>
        <time>2014-02-17T13:34:15Z</time>
      </trkpt>
      <trkpt lat="43.50099" lon="5.24904">
        <ele>170.77</ele>
        <time>2014-02-17T13:34:24Z</time>
      </trkpt>
      <trkpt lat="43.50106" lon="5.249">
        <ele>170.77</ele>
        <time>2014-02-17T13:34:32Z</time>
      </trkpt>
      <trkpt lat="43.50107" lon="5.24899">
        <ele>171.25</ele>
        <time>2014-02-17T13:34:33Z</time>
      </trkpt>
      <trkpt lat="43.50109" lon="5.24899">
        <ele>171.25</ele>
        <time>2014-02-17T13:34:34Z</time>
      </trkpt>
      <trkpt lat="43.5011" lon="5.24898">
        <ele>171.25</ele>
        <time>2014-02-17T13:34:35Z</time>
      </trkpt>
      <trkpt lat="43.50113" lon="5.24897">
        <ele>171.25</ele>
        <time>2014-02-17T13:34:38Z</time>
      </trkpt>
      <trkpt lat="43.50114" lon="5.24896">
        <ele>171.25</ele>
        <time>2014-02-17T13:34:39Z</time>
      </trkpt>
      <trkpt lat="43.50115" lon="5.24896">
        <ele>171.25</ele>
        <time>2014-02-17T13:34:40Z</time>
      </trkpt>
      <trkpt lat="43.50125" lon="5.24892">
        <ele>171.25</ele>
        <time>2014-02-17T13:34:50Z</time>
      </trkpt>
      <trkpt lat="43.50126" lon="5.24891">
        <ele>171.25</ele>
        <time>2014-02-17T13:34:51Z</time>
      </trkpt>
      <trkpt lat="43.50127" lon="5.24891">
        <ele>170.77</ele>
        <time>2014-02-17T13:34:52Z</time>
      </trkpt>
      <trkpt lat="43.50137" lon="5.24887">
        <ele>170.77</ele>
        <time>2014-02-17T13:35:01Z</time>
      </trkpt>
      <trkpt lat="43.50148" lon="5.24881">
        <ele>171.25</ele>
        <time>2014-02-17T13:35:11Z</time>
      </trkpt>
      <trkpt lat="43.50157" lon="5.24875">
        <ele>171.25</ele>
        <time>2014-02-17T13:35:20Z</time>
      </trkpt>
      <trkpt lat="43.50158" lon="5.24874">
        <ele>172.69</ele>
        <time>2014-02-17T13:35:21Z</time>
      </trkpt>
      <trkpt lat="43.50159" lon="5.24874">
        <ele>171.73</ele>
        <time>2014-02-17T13:35:22Z</time>
      </trkpt>
      <trkpt lat="43.5016" lon="5.24873">
        <ele>172.69</ele>
        <time>2014-02-17T13:35:23Z</time>
      </trkpt>
      <trkpt lat="43.50162" lon="5.24872">
        <ele>172.69</ele>
        <time>2014-02-17T13:35:24Z</time>
      </trkpt>
      <trkpt lat="43.50164" lon="5.2487">
        <ele>172.21</ele>
        <time>2014-02-17T13:35:27Z</time>
      </trkpt>
      <trkpt lat="43.50165" lon="5.24869">
        <ele>172.21</ele>
        <time>2014-02-17T13:35:28Z</time>
      </trkpt>
      <trkpt lat="43.50167" lon="5.24868">
        <ele>173.17</ele>
        <time>2014-02-17T13:35:29Z</time>
      </trkpt>
      <trkpt lat="43.50168" lon="5.24868">
        <ele>172.21</ele>
        <time>2014-02-17T13:35:30Z</time>
      </trkpt>
      <trkpt lat="43.50177" lon="5.24864">
        <ele>172.69</ele>
        <time>2014-02-17T13:35:39Z</time>
      </trkpt>
      <trkpt lat="43.50178" lon="5.24863">
        <ele>173.17</ele>
        <time>2014-02-17T13:35:40Z</time>
      </trkpt>
      <trkpt lat="43.50179" lon="5.24863">
        <ele>172.69</ele>
        <time>2014-02-17T13:35:41Z</time>
      </trkpt>
      <trkpt lat="43.5018" lon="5.24862">
        <ele>172.69</ele>
        <time>2014-02-17T13:35:42Z</time>
      </trkpt>
      <trkpt lat="43.50182" lon="5.24862">
        <ele>172.21</ele>
        <time>2014-02-17T13:35:43Z</time>
      </trkpt>
      <trkpt lat="43.50184" lon="5.24861">
        <ele>173.17</ele>
        <time>2014-02-17T13:35:46Z</time>
      </trkpt>
      <trkpt lat="43.50186" lon="5.2486">
        <ele>172.69</ele>
        <time>2014-02-17T13:35:47Z</time>
      </trkpt>
      <trkpt lat="43.50187" lon="5.24859">
        <ele>172.69</ele>
        <time>2014-02-17T13:35:48Z</time>
      </trkpt>
      <trkpt lat="43.50191" lon="5.24858">
        <ele>173.17</ele>
        <time>2014-02-17T13:35:52Z</time>
      </trkpt>
      <trkpt lat="43.50192" lon="5.24858">
        <ele>173.17</ele>
        <time>2014-02-17T13:35:53Z</time>
      </trkpt>
      <trkpt lat="43.50194" lon="5.24858">
        <ele>173.17</ele>
        <time>2014-02-17T13:35:54Z</time>
      </trkpt>
      <trkpt lat="43.50197" lon="5.24856">
        <ele>173.17</ele>
        <time>2014-02-17T13:35:58Z</time>
      </trkpt>
      <trkpt lat="43.50199" lon="5.24856">
        <ele>173.17</ele>
        <time>2014-02-17T13:35:59Z</time>
      </trkpt>
      <trkpt lat="43.50201" lon="5.24855">
        <ele>173.17</ele>
        <time>2014-02-17T13:36:00Z</time>
      </trkpt>
      <trkpt lat="43.5021" lon="5.24851">
        <ele>173.66</ele>
        <time>2014-02-17T13:36:09Z</time>
      </trkpt>
      <trkpt lat="43.50212" lon="5.24851">
        <ele>174.14</ele>
        <time>2014-02-17T13:36:10Z</time>
      </trkpt>
      <trkpt lat="43.50213" lon="5.2485">
        <ele>174.14</ele>
        <time>2014-02-17T13:36:11Z</time>
      </trkpt>
      <trkpt lat="43.50215" lon="5.2485">
        <ele>174.14</ele>
        <time>2014-02-17T13:36:12Z</time>
      </trkpt>
      <trkpt lat="43.50224" lon="5.24847">
        <ele>174.14</ele>
        <time>2014-02-17T13:36:21Z</time>
      </trkpt>
      <trkpt lat="43.50236" lon="5.24842">
        <ele>175.1</ele>
        <time>2014-02-17T13:36:31Z</time>
      </trkpt>
      <trkpt lat="43.50243" lon="5.24838">
        <ele>175.1</ele>
        <time>2014-02-17T13:36:38Z</time>
      </trkpt>
      <trkpt lat="43.50244" lon="5.24837">
        <ele>174.62</ele>
        <time>2014-02-17T13:36:39Z</time>
      </trkpt>
      <trkpt lat="43.50245" lon="5.24837">
        <ele>175.1</ele>
        <time>2014-02-17T13:36:40Z</time>
      </trkpt>
      <trkpt lat="43.50247" lon="5.24836">
        <ele>174.62</ele>
        <time>2014-02-17T13:36:41Z</time>
      </trkpt>
      <trkpt lat="43.50254" lon="5.24831">
        <ele>175.1</ele>
        <time>2014-02-17T13:36:50Z</time>
      </trkpt>
      <trkpt lat="43.50266" lon="5.24829">
        <ele>175.58</ele>
        <time>2014-02-17T13:37:01Z</time>
      </trkpt>
      <trkpt lat="43.50267" lon="5.24829">
        <ele>176.06</ele>
        <time>2014-02-17T13:37:02Z</time>
      </trkpt>
      <trkpt lat="43.50269" lon="5.2483">
        <ele>175.1</ele>
        <time>2014-02-17T13:37:03Z</time>
      </trkpt>
      <trkpt lat="43.50276" lon="5.24831">
        <ele>175.58</ele>
        <time>2014-02-17T13:37:09Z</time>
      </trkpt>
      <trkpt lat="43.50277" lon="5.24832">
        <ele>174.62</ele>
        <time>2014-02-17T13:37:10Z</time>
      </trkpt>
      <trkpt lat="43.50287" lon="5.24835">
        <ele>174.62</ele>
        <time>2014-02-17T13:37:19Z</time>
      </trkpt>
      <trkpt lat="43.50295" lon="5.24836">
        <ele>175.1</ele>
        <time>2014-02-17T13:37:26Z</time>
      </trkpt>
      <trkpt lat="43.50296" lon="5.24835">
        <ele>175.1</ele>
        <time>2014-02-17T13:37:27Z</time>
      </trkpt>
      <trkpt lat="43.50298" lon="5.24835">
        <ele>174.62</ele>
        <time>2014-02-17T13:37:28Z</time>
      </trkpt>
      <trkpt lat="43.50299" lon="5.24835">
        <ele>175.1</ele>
        <time>2014-02-17T13:37:29Z</time>
      </trkpt>
      <trkpt lat="43.50309" lon="5.24833">
        <ele>174.62</ele>
        <time>2014-02-17T13:37:38Z</time>
      </trkpt>
      <trkpt lat="43.5031" lon="5.24833">
        <ele>175.1</ele>
        <time>2014-02-17T13:37:39Z</time>
      </trkpt>
      <trkpt lat="43.50311" lon="5.24832">
        <ele>175.1</ele>
        <time>2014-02-17T13:37:40Z</time>
      </trkpt>
      <trkpt lat="43.50313" lon="5.24832">
        <ele>175.1</ele>
        <time>2014-02-17T13:37:41Z</time>
      </trkpt>
      <trkpt lat="43.50314" lon="5.24831">
        <ele>175.1</ele>
        <time>2014-02-17T13:37:42Z</time>
      </trkpt>
      <trkpt lat="43.50325" lon="5.2483">
        <ele>175.1</ele>
        <time>2014-02-17T13:37:52Z</time>
      </trkpt>
      <trkpt lat="43.50336" lon="5.2483">
        <ele>176.06</ele>
        <time>2014-02-17T13:38:02Z</time>
      </trkpt>
      <trkpt lat="43.50337" lon="5.2483">
        <ele>176.06</ele>
        <time>2014-02-17T13:38:03Z</time>
      </trkpt>
      <trkpt lat="43.50339" lon="5.2483">
        <ele>175.58</ele>
        <time>2014-02-17T13:38:04Z</time>
      </trkpt>
      <trkpt lat="43.5034" lon="5.24831">
        <ele>176.06</ele>
        <time>2014-02-17T13:38:05Z</time>
      </trkpt>
      <trkpt lat="43.50348" lon="5.24834">
        <ele>176.06</ele>
        <time>2014-02-17T13:38:13Z</time>
      </trkpt>
      <trkpt lat="43.50349" lon="5.24834">
        <ele>176.06</ele>
        <time>2014-02-17T13:38:14Z</time>
      </trkpt>
      <trkpt lat="43.50351" lon="5.24834">
        <ele>176.54</ele>
        <time>2014-02-17T13:38:15Z</time>
      </trkpt>
      <trkpt lat="43.50361" lon="5.24838">
        <ele>176.06</ele>
        <time>2014-02-17T13:38:25Z</time>
      </trkpt>
      <trkpt lat="43.50367" lon="5.2484">
        <ele>176.06</ele>
        <time>2014-02-17T13:38:31Z</time>
      </trkpt>
      <trkpt lat="43.50369" lon="5.2484">
        <ele>176.06</ele>
        <time>2014-02-17T13:38:32Z</time>
      </trkpt>
      <trkpt lat="43.5037" lon="5.24841">
        <ele>176.54</ele>
        <time>2014-02-17T13:38:33Z</time>
      </trkpt>
      <trkpt lat="43.50373" lon="5.24842">
        <ele>175.58</ele>
        <time>2014-02-17T13:38:44Z</time>
      </trkpt>
      <trkpt lat="43.50375" lon="5.24841">
        <ele>176.06</ele>
        <time>2014-02-17T13:39:01Z</time>
      </trkpt>
      <trkpt lat="43.50373" lon="5.2484">
        <ele>175.58</ele>
        <time>2014-02-17T13:39:27Z</time>
      </trkpt>
      <trkpt lat="43.50374" lon="5.2484">
        <ele>175.58</ele>
        <time>2014-02-17T13:39:58Z</time>
      </trkpt>
      <trkpt lat="43.50376" lon="5.2484">
        <ele>176.06</ele>
        <time>2014-02-17T13:40:24Z</time>
      </trkpt>
      <trkpt lat="43.5038" lon="5.24842">
        <ele>175.58</ele>
        <time>2014-02-17T13:40:29Z</time>
      </trkpt>
      <trkpt lat="43.50383" lon="5.24842">
        <ele>175.1</ele>
        <time>2014-02-17T13:40:31Z</time>
      </trkpt>
      <trkpt lat="43.50384" lon="5.24842">
        <ele>175.58</ele>
        <time>2014-02-17T13:40:32Z</time>
      </trkpt>
      <trkpt lat="43.50394" lon="5.24842">
        <ele>174.62</ele>
        <time>2014-02-17T13:40:42Z</time>
      </trkpt>
      <trkpt lat="43.50397" lon="5.24842">
        <ele>173.66</ele>
        <time>2014-02-17T13:40:45Z</time>
      </trkpt>
      <trkpt lat="43.50399" lon="5.24842">
        <ele>174.14</ele>
        <time>2014-02-17T13:40:46Z</time>
      </trkpt>
      <trkpt lat="43.50408" lon="5.24843">
        <ele>172.21</ele>
        <time>2014-02-17T13:40:56Z</time>
      </trkpt>
      <trkpt lat="43.5041" lon="5.24843">
        <ele>171.73</ele>
        <time>2014-02-17T13:40:58Z</time>
      </trkpt>
      <trkpt lat="43.50416" lon="5.24847">
        <ele>171.73</ele>
        <time>2014-02-17T13:41:09Z</time>
      </trkpt>
      <trkpt lat="43.50418" lon="5.24848">
        <ele>171.25</ele>
        <time>2014-02-17T13:41:10Z</time>
      </trkpt>
      <trkpt lat="43.50421" lon="5.24849">
        <ele>170.77</ele>
        <time>2014-02-17T13:41:14Z</time>
      </trkpt>
      <trkpt lat="43.50423" lon="5.2485">
        <ele>171.25</ele>
        <time>2014-02-17T13:41:15Z</time>
      </trkpt>
      <trkpt lat="43.50424" lon="5.24851">
        <ele>171.25</ele>
        <time>2014-02-17T13:41:16Z</time>
      </trkpt>
      <trkpt lat="43.50425" lon="5.24852">
        <ele>170.77</ele>
        <time>2014-02-17T13:41:17Z</time>
      </trkpt>
      <trkpt lat="43.50435" lon="5.24856">
        <ele>171.73</ele>
        <time>2014-02-17T13:41:26Z</time>
      </trkpt>
      <trkpt lat="43.50436" lon="5.24856">
        <ele>172.21</ele>
        <time>2014-02-17T13:41:27Z</time>
      </trkpt>
      <trkpt lat="43.50437" lon="5.24857">
        <ele>172.69</ele>
        <time>2014-02-17T13:41:28Z</time>
      </trkpt>
      <trkpt lat="43.50438" lon="5.24858">
        <ele>172.69</ele>
        <time>2014-02-17T13:41:29Z</time>
      </trkpt>
      <trkpt lat="43.50441" lon="5.24858">
        <ele>172.69</ele>
        <time>2014-02-17T13:41:34Z</time>
      </trkpt>
      <trkpt lat="43.50446" lon="5.24861">
        <ele>174.62</ele>
        <time>2014-02-17T13:41:42Z</time>
      </trkpt>
      <trkpt lat="43.50446" lon="5.24862">
        <ele>173.66</ele>
        <time>2014-02-17T13:41:43Z</time>
      </trkpt>
      <trkpt lat="43.50449" lon="5.24864">
        <ele>173.66</ele>
        <time>2014-02-17T13:41:46Z</time>
      </trkpt>
      <trkpt lat="43.5045" lon="5.24865">
        <ele>174.14</ele>
        <time>2014-02-17T13:41:47Z</time>
      </trkpt>
      <trkpt lat="43.50451" lon="5.24866">
        <ele>173.66</ele>
        <time>2014-02-17T13:41:48Z</time>
      </trkpt>
      <trkpt lat="43.50453" lon="5.24867">
        <ele>174.14</ele>
        <time>2014-02-17T13:41:49Z</time>
      </trkpt>
      <trkpt lat="43.50463" lon="5.24873">
        <ele>173.17</ele>
        <time>2014-02-17T13:41:59Z</time>
      </trkpt>
      <trkpt lat="43.50472" lon="5.24878">
        <ele>173.17</ele>
        <time>2014-02-17T13:42:07Z</time>
      </trkpt>
      <trkpt lat="43.50474" lon="5.24878">
        <ele>173.66</ele>
        <time>2014-02-17T13:42:08Z</time>
      </trkpt>
      <trkpt lat="43.50475" lon="5.24878">
        <ele>173.66</ele>
        <time>2014-02-17T13:42:09Z</time>
      </trkpt>
      <trkpt lat="43.50477" lon="5.24879">
        <ele>173.66</ele>
        <time>2014-02-17T13:42:10Z</time>
      </trkpt>
      <trkpt lat="43.50478" lon="5.2488">
        <ele>173.66</ele>
        <time>2014-02-17T13:42:11Z</time>
      </trkpt>
      <trkpt lat="43.50487" lon="5.24887">
        <ele>173.66</ele>
        <time>2014-02-17T13:42:21Z</time>
      </trkpt>
      <trkpt lat="43.50488" lon="5.24888">
        <ele>173.66</ele>
        <time>2014-02-17T13:42:22Z</time>
      </trkpt>
      <trkpt lat="43.50489" lon="5.24889">
        <ele>173.17</ele>
        <time>2014-02-17T13:42:23Z</time>
      </trkpt>
      <trkpt lat="43.50499" lon="5.24896">
        <ele>173.66</ele>
        <time>2014-02-17T13:42:33Z</time>
      </trkpt>
      <trkpt lat="43.50513" lon="5.249">
        <ele>174.14</ele>
        <time>2014-02-17T13:42:44Z</time>
      </trkpt>
      <trkpt lat="43.50524" lon="5.24903">
        <ele>173.17</ele>
        <time>2014-02-17T13:42:54Z</time>
      </trkpt>
      <trkpt lat="43.50536" lon="5.24911">
        <ele>174.14</ele>
        <time>2014-02-17T13:43:05Z</time>
      </trkpt>
      <trkpt lat="43.50537" lon="5.24912">
        <ele>174.14</ele>
        <time>2014-02-17T13:43:07Z</time>
      </trkpt>
      <trkpt lat="43.50539" lon="5.24913">
        <ele>174.14</ele>
        <time>2014-02-17T13:43:08Z</time>
      </trkpt>
      <trkpt lat="43.5054" lon="5.24914">
        <ele>174.14</ele>
        <time>2014-02-17T13:43:09Z</time>
      </trkpt>
      <trkpt lat="43.50541" lon="5.24916">
        <ele>174.14</ele>
        <time>2014-02-17T13:43:10Z</time>
      </trkpt>
      <trkpt lat="43.50549" lon="5.24924">
        <ele>176.06</ele>
        <time>2014-02-17T13:43:19Z</time>
      </trkpt>
      <trkpt lat="43.50555" lon="5.2493">
        <ele>176.06</ele>
        <time>2014-02-17T13:43:26Z</time>
      </trkpt>
      <trkpt lat="43.50567" lon="5.2494">
        <ele>175.58</ele>
        <time>2014-02-17T13:43:37Z</time>
      </trkpt>
      <trkpt lat="43.50569" lon="5.24941">
        <ele>176.06</ele>
        <time>2014-02-17T13:43:40Z</time>
      </trkpt>
      <trkpt lat="43.50573" lon="5.24943">
        <ele>174.62</ele>
        <time>2014-02-17T13:43:43Z</time>
      </trkpt>
      <trkpt lat="43.50578" lon="5.24945">
        <ele>175.1</ele>
        <time>2014-02-17T13:43:52Z</time>
      </trkpt>
      <trkpt lat="43.50585" lon="5.24951">
        <ele>175.58</ele>
        <time>2014-02-17T13:44:03Z</time>
      </trkpt>
      <trkpt lat="43.5059" lon="5.24956">
        <ele>174.62</ele>
        <time>2014-02-17T13:44:09Z</time>
      </trkpt>
      <trkpt lat="43.50592" lon="5.24957">
        <ele>174.62</ele>
        <time>2014-02-17T13:44:10Z</time>
      </trkpt>
      <trkpt lat="43.50593" lon="5.24959">
        <ele>174.62</ele>
        <time>2014-02-17T13:44:11Z</time>
      </trkpt>
      <trkpt lat="43.50594" lon="5.24961">
        <ele>174.14</ele>
        <time>2014-02-17T13:44:12Z</time>
      </trkpt>
      <trkpt lat="43.50597" lon="5.24966">
        <ele>175.1</ele>
        <time>2014-02-17T13:44:17Z</time>
      </trkpt>
      <trkpt lat="43.50597" lon="5.24968">
        <ele>174.14</ele>
        <time>2014-02-17T13:44:18Z</time>
      </trkpt>
      <trkpt lat="43.50597" lon="5.2497">
        <ele>174.14</ele>
        <time>2014-02-17T13:44:19Z</time>
      </trkpt>
      <trkpt lat="43.50602" lon="5.2498">
        <ele>173.66</ele>
        <time>2014-02-17T13:44:29Z</time>
      </trkpt>
      <trkpt lat="43.50605" lon="5.24983">
        <ele>172.69</ele>
        <time>2014-02-17T13:44:40Z</time>
      </trkpt>
      <trkpt lat="43.50605" lon="5.24984">
        <ele>172.69</ele>
        <time>2014-02-17T13:45:07Z</time>
      </trkpt>
      <trkpt lat="43.50607" lon="5.24985">
        <ele>173.17</ele>
        <time>2014-02-17T13:45:29Z</time>
      </trkpt>
      <trkpt lat="43.50608" lon="5.24984">
        <ele>172.69</ele>
        <time>2014-02-17T13:45:53Z</time>
      </trkpt>
      <trkpt lat="43.50614" lon="5.24977">
        <ele>171.73</ele>
        <time>2014-02-17T13:46:01Z</time>
      </trkpt>
      <trkpt lat="43.50626" lon="5.24966">
        <ele>171.73</ele>
        <time>2014-02-17T13:46:13Z</time>
      </trkpt>
      <trkpt lat="43.50635" lon="5.24961">
        <ele>172.21</ele>
        <time>2014-02-17T13:46:22Z</time>
      </trkpt>
      <trkpt lat="43.50645" lon="5.24952">
        <ele>172.21</ele>
        <time>2014-02-17T13:46:33Z</time>
      </trkpt>
      <trkpt lat="43.50655" lon="5.24944">
        <ele>172.21</ele>
        <time>2014-02-17T13:46:43Z</time>
      </trkpt>
      <trkpt lat="43.50657" lon="5.24943">
        <ele>172.21</ele>
        <time>2014-02-17T13:46:46Z</time>
      </trkpt>
      <trkpt lat="43.50666" lon="5.24934">
        <ele>173.17</ele>
        <time>2014-02-17T13:46:55Z</time>
      </trkpt>
      <trkpt lat="43.50674" lon="5.24929">
        <ele>173.17</ele>
        <time>2014-02-17T13:47:05Z</time>
      </trkpt>
      <trkpt lat="43.50677" lon="5.24927">
        <ele>173.66</ele>
        <time>2014-02-17T13:47:09Z</time>
      </trkpt>
      <trkpt lat="43.50685" lon="5.24924">
        <ele>173.66</ele>
        <time>2014-02-17T13:47:18Z</time>
      </trkpt>
      <trkpt lat="43.50691" lon="5.24922">
        <ele>174.62</ele>
        <time>2014-02-17T13:47:27Z</time>
      </trkpt>
      <trkpt lat="43.50693" lon="5.24928">
        <ele>173.66</ele>
        <time>2014-02-17T13:47:36Z</time>
      </trkpt>
      <trkpt lat="43.50696" lon="5.24932">
        <ele>172.69</ele>
        <time>2014-02-17T13:47:39Z</time>
      </trkpt>
      <trkpt lat="43.50697" lon="5.24935">
        <ele>171.25</ele>
        <time>2014-02-17T13:47:43Z</time>
      </trkpt>
      <trkpt lat="43.50699" lon="5.2495">
        <ele>169.81</ele>
        <time>2014-02-17T13:47:53Z</time>
      </trkpt>
      <trkpt lat="43.50699" lon="5.24951">
        <ele>169.81</ele>
        <time>2014-02-17T13:47:55Z</time>
      </trkpt>
      <trkpt lat="43.50698" lon="5.2496">
        <ele>169.81</ele>
        <time>2014-02-17T13:48:00Z</time>
      </trkpt>
      <trkpt lat="43.50698" lon="5.24975">
        <ele>168.37</ele>
        <time>2014-02-17T13:48:10Z</time>
      </trkpt>
      <trkpt lat="43.50698" lon="5.24976">
        <ele>168.85</ele>
        <time>2014-02-17T13:48:11Z</time>
      </trkpt>
      <trkpt lat="43.50698" lon="5.24978">
        <ele>168.85</ele>
        <time>2014-02-17T13:48:12Z</time>
      </trkpt>
      <trkpt lat="43.50699" lon="5.24981">
        <ele>168.85</ele>
        <time>2014-02-17T13:48:13Z</time>
      </trkpt>
      <trkpt lat="43.50699" lon="5.24989">
        <ele>168.85</ele>
        <time>2014-02-17T13:48:21Z</time>
      </trkpt>
      <trkpt lat="43.50699" lon="5.24995">
        <ele>168.85</ele>
        <time>2014-02-17T13:48:28Z</time>
      </trkpt>
      <trkpt lat="43.50701" lon="5.25001">
        <ele>169.81</ele>
        <time>2014-02-17T13:48:34Z</time>
      </trkpt>
      <trkpt lat="43.50703" lon="5.25005">
        <ele>168.85</ele>
        <time>2014-02-17T13:48:37Z</time>
      </trkpt>
      <trkpt lat="43.50705" lon="5.25008">
        <ele>169.33</ele>
        <time>2014-02-17T13:48:40Z</time>
      </trkpt>
      <trkpt lat="43.50706" lon="5.25011">
        <ele>169.33</ele>
        <time>2014-02-17T13:48:43Z</time>
      </trkpt>
      <trkpt lat="43.50706" lon="5.25016">
        <ele>170.29</ele>
        <time>2014-02-17T13:48:49Z</time>
      </trkpt>
      <trkpt lat="43.50708" lon="5.25021">
        <ele>170.77</ele>
        <time>2014-02-17T13:48:55Z</time>
      </trkpt>
      <trkpt lat="43.50709" lon="5.25024">
        <ele>172.21</ele>
        <time>2014-02-17T13:49:03Z</time>
      </trkpt>
      <trkpt lat="43.50709" lon="5.25027">
        <ele>172.69</ele>
        <time>2014-02-17T13:49:06Z</time>
      </trkpt>
      <trkpt lat="43.5071" lon="5.2503">
        <ele>172.69</ele>
        <time>2014-02-17T13:49:09Z</time>
      </trkpt>
      <trkpt lat="43.50713" lon="5.25033">
        <ele>173.66</ele>
        <time>2014-02-17T13:49:20Z</time>
      </trkpt>
      <trkpt lat="43.50712" lon="5.25039">
        <ele>173.17</ele>
        <time>2014-02-17T13:49:32Z</time>
      </trkpt>
      <trkpt lat="43.5071" lon="5.25053">
        <ele>172.69</ele>
        <time>2014-02-17T13:49:42Z</time>
      </trkpt>
      <trkpt lat="43.50709" lon="5.25067">
        <ele>171.73</ele>
        <time>2014-02-17T13:49:51Z</time>
      </trkpt>
      <trkpt lat="43.5071" lon="5.25078">
        <ele>171.25</ele>
        <time>2014-02-17T13:50:00Z</time>
      </trkpt>
      <trkpt lat="43.50713" lon="5.25085">
        <ele>171.73</ele>
        <time>2014-02-17T13:50:05Z</time>
      </trkpt>
      <trkpt lat="43.50715" lon="5.25097">
        <ele>172.21</ele>
        <time>2014-02-17T13:50:15Z</time>
      </trkpt>
      <trkpt lat="43.50717" lon="5.25105">
        <ele>171.73</ele>
        <time>2014-02-17T13:50:24Z</time>
      </trkpt>
      <trkpt lat="43.50717" lon="5.25105">
        <ele>171.73</ele>
        <time>2014-02-17T13:50:28Z</time>
      </trkpt>
      <trkpt lat="43.50715" lon="5.25104">
        <ele>171.25</ele>
        <time>2014-02-17T13:50:32Z</time>
      </trkpt>
      <trkpt lat="43.50705" lon="5.25114">
        <ele>170.77</ele>
        <time>2014-02-17T13:50:42Z</time>
      </trkpt>
      <trkpt lat="43.50703" lon="5.25116">
        <ele>170.77</ele>
        <time>2014-02-17T13:50:46Z</time>
      </trkpt>
      <trkpt lat="43.50695" lon="5.25118">
        <ele>169.81</ele>
        <time>2014-02-17T13:50:59Z</time>
      </trkpt>
      <trkpt lat="43.50691" lon="5.25117">
        <ele>169.33</ele>
        <time>2014-02-17T13:51:08Z</time>
      </trkpt>
      <trkpt lat="43.5069" lon="5.2511">
        <ele>169.33</ele>
        <time>2014-02-17T13:51:18Z</time>
      </trkpt>
      <trkpt lat="43.5069" lon="5.25104">
        <ele>166.93</ele>
        <time>2014-02-17T13:51:31Z</time>
      </trkpt>
      <trkpt lat="43.50689" lon="5.25101">
        <ele>166.93</ele>
        <time>2014-02-17T13:51:53Z</time>
      </trkpt>
      <trkpt lat="43.50689" lon="5.25096">
        <ele>165.96</ele>
        <time>2014-02-17T13:52:08Z</time>
      </trkpt>
      <trkpt lat="43.50689" lon="5.25093">
        <ele>165.96</ele>
        <time>2014-02-17T13:52:24Z</time>
      </trkpt>
      <trkpt lat="43.50691" lon="5.25094">
        <ele>167.41</ele>
        <time>2014-02-17T13:52:42Z</time>
      </trkpt>
      <trkpt lat="43.50694" lon="5.25095">
        <ele>166.45</ele>
        <time>2014-02-17T13:53:00Z</time>
      </trkpt>
      <trkpt lat="43.50695" lon="5.25095">
        <ele>168.85</ele>
        <time>2014-02-17T13:53:11Z</time>
      </trkpt>
      <trkpt lat="43.50694" lon="5.25096">
        <ele>167.89</ele>
        <time>2014-02-17T13:53:15Z</time>
      </trkpt>
      <trkpt lat="43.50696" lon="5.25097">
        <ele>167.41</ele>
        <time>2014-02-17T13:53:17Z</time>
      </trkpt>
      <trkpt lat="43.50697" lon="5.25095">
        <ele>169.33</ele>
        <time>2014-02-17T13:53:28Z</time>
      </trkpt>
      <trkpt lat="43.50701" lon="5.25092">
        <ele>171.25</ele>
        <time>2014-02-17T13:53:40Z</time>
      </trkpt>
      <trkpt lat="43.50701" lon="5.25091">
        <ele>171.25</ele>
        <time>2014-02-17T13:53:42Z</time>
      </trkpt>
      <trkpt lat="43.50701" lon="5.25083">
        <ele>171.73</ele>
        <time>2014-02-17T13:53:51Z</time>
      </trkpt>
      <trkpt lat="43.50702" lon="5.25079">
        <ele>171.25</ele>
        <time>2014-02-17T13:53:57Z</time>
      </trkpt>
      <trkpt lat="43.50703" lon="5.25076">
        <ele>171.25</ele>
        <time>2014-02-17T13:54:07Z</time>
      </trkpt>
      <trkpt lat="43.50705" lon="5.25073">
        <ele>171.73</ele>
        <time>2014-02-17T13:54:17Z</time>
      </trkpt>
      <trkpt lat="43.50706" lon="5.25072">
        <ele>171.73</ele>
        <time>2014-02-17T13:54:19Z</time>
      </trkpt>
      <trkpt lat="43.5071" lon="5.25075">
        <ele>171.73</ele>
        <time>2014-02-17T13:54:26Z</time>
      </trkpt>
      <trkpt lat="43.50712" lon="5.25075">
        <ele>171.73</ele>
        <time>2014-02-17T13:54:28Z</time>
      </trkpt>
      <trkpt lat="43.50712" lon="5.25065">
        <ele>171.73</ele>
        <time>2014-02-17T13:54:37Z</time>
      </trkpt>
      <trkpt lat="43.50712" lon="5.25055">
        <ele>172.69</ele>
        <time>2014-02-17T13:54:46Z</time>
      </trkpt>
      <trkpt lat="43.50713" lon="5.25052">
        <ele>172.69</ele>
        <time>2014-02-17T13:54:49Z</time>
      </trkpt>
      <trkpt lat="43.50713" lon="5.25042">
        <ele>173.66</ele>
        <time>2014-02-17T13:54:57Z</time>
      </trkpt>
      <trkpt lat="43.50714" lon="5.25038">
        <ele>173.17</ele>
        <time>2014-02-17T13:55:00Z</time>
      </trkpt>
      <trkpt lat="43.50713" lon="5.25029">
        <ele>174.14</ele>
        <time>2014-02-17T13:55:10Z</time>
      </trkpt>
      <trkpt lat="43.50711" lon="5.25022">
        <ele>172.69</ele>
        <time>2014-02-17T13:55:25Z</time>
      </trkpt>
      <trkpt lat="43.5071" lon="5.2502">
        <ele>172.21</ele>
        <time>2014-02-17T13:55:29Z</time>
      </trkpt>
      <trkpt lat="43.50708" lon="5.25015">
        <ele>170.77</ele>
        <time>2014-02-17T13:55:37Z</time>
      </trkpt>
      <trkpt lat="43.50708" lon="5.25011">
        <ele>169.81</ele>
        <time>2014-02-17T13:55:42Z</time>
      </trkpt>
      <trkpt lat="43.50706" lon="5.25006">
        <ele>169.81</ele>
        <time>2014-02-17T13:55:46Z</time>
      </trkpt>
      <trkpt lat="43.50704" lon="5.25001">
        <ele>169.33</ele>
        <time>2014-02-17T13:55:51Z</time>
      </trkpt>
      <trkpt lat="43.50702" lon="5.24995">
        <ele>168.85</ele>
        <time>2014-02-17T13:55:59Z</time>
      </trkpt>
      <trkpt lat="43.50702" lon="5.24991">
        <ele>168.37</ele>
        <time>2014-02-17T13:56:04Z</time>
      </trkpt>
      <trkpt lat="43.50702" lon="5.24987">
        <ele>169.81</ele>
        <time>2014-02-17T13:56:08Z</time>
      </trkpt>
      <trkpt lat="43.50701" lon="5.24982">
        <ele>169.33</ele>
        <time>2014-02-17T13:56:11Z</time>
      </trkpt>
      <trkpt lat="43.507" lon="5.24973">
        <ele>169.33</ele>
        <time>2014-02-17T13:56:17Z</time>
      </trkpt>
      <trkpt lat="43.507" lon="5.24966">
        <ele>169.33</ele>
        <time>2014-02-17T13:56:22Z</time>
      </trkpt>
      <trkpt lat="43.50702" lon="5.24951">
        <ele>170.77</ele>
        <time>2014-02-17T13:56:32Z</time>
      </trkpt>
      <trkpt lat="43.50699" lon="5.24937">
        <ele>171.73</ele>
        <time>2014-02-17T13:56:41Z</time>
      </trkpt>
      <trkpt lat="43.50695" lon="5.24926">
        <ele>174.14</ele>
        <time>2014-02-17T13:56:50Z</time>
      </trkpt>
      <trkpt lat="43.50694" lon="5.24924">
        <ele>174.62</ele>
        <time>2014-02-17T13:56:53Z</time>
      </trkpt>
      <trkpt lat="43.50693" lon="5.24921">
        <ele>175.1</ele>
        <time>2014-02-17T13:56:56Z</time>
      </trkpt>
      <trkpt lat="43.50686" lon="5.24923">
        <ele>174.62</ele>
        <time>2014-02-17T13:57:05Z</time>
      </trkpt>
      <trkpt lat="43.50682" lon="5.24925">
        <ele>174.14</ele>
        <time>2014-02-17T13:57:08Z</time>
      </trkpt>
      <trkpt lat="43.50674" lon="5.24928">
        <ele>174.14</ele>
        <time>2014-02-17T13:57:17Z</time>
      </trkpt>
      <trkpt lat="43.50662" lon="5.24936">
        <ele>172.21</ele>
        <time>2014-02-17T13:57:28Z</time>
      </trkpt>
      <trkpt lat="43.50662" lon="5.24936">
        <ele>172.21</ele>
        <time>2014-02-17T13:57:29Z</time>
      </trkpt>
      <trkpt lat="43.50651" lon="5.24947">
        <ele>173.17</ele>
        <time>2014-02-17T13:57:40Z</time>
      </trkpt>
      <trkpt lat="43.5065" lon="5.24947">
        <ele>173.66</ele>
        <time>2014-02-17T13:57:42Z</time>
      </trkpt>
      <trkpt lat="43.50638" lon="5.24957">
        <ele>172.69</ele>
        <time>2014-02-17T13:57:52Z</time>
      </trkpt>
      <trkpt lat="43.50636" lon="5.24959">
        <ele>173.66</ele>
        <time>2014-02-17T13:57:55Z</time>
      </trkpt>
      <trkpt lat="43.50629" lon="5.24964">
        <ele>172.69</ele>
        <time>2014-02-17T13:58:02Z</time>
      </trkpt>
      <trkpt lat="43.5062" lon="5.24972">
        <ele>172.69</ele>
        <time>2014-02-17T13:58:10Z</time>
      </trkpt>
      <trkpt lat="43.5061" lon="5.2498">
        <ele>173.66</ele>
        <time>2014-02-17T13:58:21Z</time>
      </trkpt>
      <trkpt lat="43.50606" lon="5.24983">
        <ele>174.14</ele>
        <time>2014-02-17T13:58:29Z</time>
      </trkpt>
      <trkpt lat="43.50603" lon="5.24981">
        <ele>174.62</ele>
        <time>2014-02-17T13:58:33Z</time>
      </trkpt>
      <trkpt lat="43.50601" lon="5.24977">
        <ele>175.58</ele>
        <time>2014-02-17T13:58:37Z</time>
      </trkpt>
      <trkpt lat="43.50599" lon="5.24972">
        <ele>175.58</ele>
        <time>2014-02-17T13:58:41Z</time>
      </trkpt>
      <trkpt lat="43.50595" lon="5.24958">
        <ele>176.06</ele>
        <time>2014-02-17T13:58:52Z</time>
      </trkpt>
      <trkpt lat="43.50585" lon="5.24948">
        <ele>176.06</ele>
        <time>2014-02-17T13:59:02Z</time>
      </trkpt>
      <trkpt lat="43.50583" lon="5.24947">
        <ele>176.06</ele>
        <time>2014-02-17T13:59:04Z</time>
      </trkpt>
      <trkpt lat="43.5058" lon="5.24947">
        <ele>176.54</ele>
        <time>2014-02-17T13:59:07Z</time>
      </trkpt>
      <trkpt lat="43.50577" lon="5.2495">
        <ele>175.58</ele>
        <time>2014-02-17T13:59:11Z</time>
      </trkpt>
      <trkpt lat="43.50571" lon="5.24956">
        <ele>175.58</ele>
        <time>2014-02-17T13:59:21Z</time>
      </trkpt>
      <trkpt lat="43.5057" lon="5.24956">
        <ele>175.1</ele>
        <time>2014-02-17T13:59:51Z</time>
      </trkpt>
      <trkpt lat="43.50563" lon="5.2496">
        <ele>175.58</ele>
        <time>2014-02-17T14:00:20Z</time>
      </trkpt>
      <trkpt lat="43.50553" lon="5.24969">
        <ele>176.06</ele>
        <time>2014-02-17T14:00:31Z</time>
      </trkpt>
      <trkpt lat="43.50544" lon="5.24974">
        <ele>176.06</ele>
        <time>2014-02-17T14:00:40Z</time>
      </trkpt>
      <trkpt lat="43.50534" lon="5.24977">
        <ele>174.62</ele>
        <time>2014-02-17T14:00:49Z</time>
      </trkpt>
      <trkpt lat="43.50532" lon="5.24978">
        <ele>175.1</ele>
        <time>2014-02-17T14:00:52Z</time>
      </trkpt>
      <trkpt lat="43.50521" lon="5.24985">
        <ele>171.73</ele>
        <time>2014-02-17T14:01:04Z</time>
      </trkpt>
      <trkpt lat="43.50509" lon="5.24995">
        <ele>171.25</ele>
        <time>2014-02-17T14:01:15Z</time>
      </trkpt>
      <trkpt lat="43.50498" lon="5.25008">
        <ele>169.81</ele>
        <time>2014-02-17T14:01:27Z</time>
      </trkpt>
      <trkpt lat="43.50494" lon="5.2501">
        <ele>169.33</ele>
        <time>2014-02-17T14:01:31Z</time>
      </trkpt>
      <trkpt lat="43.50492" lon="5.25011">
        <ele>168.85</ele>
        <time>2014-02-17T14:01:33Z</time>
      </trkpt>
      <trkpt lat="43.50491" lon="5.25012">
        <ele>168.85</ele>
        <time>2014-02-17T14:01:34Z</time>
      </trkpt>
      <trkpt lat="43.50481" lon="5.25019">
        <ele>167.89</ele>
        <time>2014-02-17T14:01:45Z</time>
      </trkpt>
      <trkpt lat="43.5048" lon="5.25021">
        <ele>168.37</ele>
        <time>2014-02-17T14:01:49Z</time>
      </trkpt>
      <trkpt lat="43.50477" lon="5.2503">
        <ele>165</ele>
        <time>2014-02-17T14:01:58Z</time>
      </trkpt>
      <trkpt lat="43.50477" lon="5.25031">
        <ele>165</ele>
        <time>2014-02-17T14:01:59Z</time>
      </trkpt>
      <trkpt lat="43.50476" lon="5.25032">
        <ele>165.48</ele>
        <time>2014-02-17T14:02:00Z</time>
      </trkpt>
      <trkpt lat="43.50475" lon="5.2504">
        <ele>164.04</ele>
        <time>2014-02-17T14:02:10Z</time>
      </trkpt>
      <trkpt lat="43.50475" lon="5.25047">
        <ele>161.64</ele>
        <time>2014-02-17T14:02:23Z</time>
      </trkpt>
      <trkpt lat="43.50471" lon="5.25053">
        <ele>161.16</ele>
        <time>2014-02-17T14:02:32Z</time>
      </trkpt>
      <trkpt lat="43.50466" lon="5.25065">
        <ele>159.24</ele>
        <time>2014-02-17T14:02:42Z</time>
      </trkpt>
      <trkpt lat="43.5046" lon="5.25073">
        <ele>158.27</ele>
        <time>2014-02-17T14:02:52Z</time>
      </trkpt>
      <trkpt lat="43.50453" lon="5.25083">
        <ele>156.83</ele>
        <time>2014-02-17T14:03:02Z</time>
      </trkpt>
      <trkpt lat="43.50448" lon="5.25091">
        <ele>156.83</ele>
        <time>2014-02-17T14:03:13Z</time>
      </trkpt>
      <trkpt lat="43.50444" lon="5.25094">
        <ele>156.35</ele>
        <time>2014-02-17T14:03:42Z</time>
      </trkpt>
      <trkpt lat="43.50442" lon="5.25098">
        <ele>155.87</ele>
        <time>2014-02-17T14:03:47Z</time>
      </trkpt>
      <trkpt lat="43.50441" lon="5.251">
        <ele>156.35</ele>
        <time>2014-02-17T14:03:48Z</time>
      </trkpt>
      <trkpt lat="43.50441" lon="5.25101">
        <ele>155.39</ele>
        <time>2014-02-17T14:03:49Z</time>
      </trkpt>
      <trkpt lat="43.50431" lon="5.25112">
        <ele>155.87</ele>
        <time>2014-02-17T14:03:59Z</time>
      </trkpt>
      <trkpt lat="43.50432" lon="5.25117">
        <ele>155.87</ele>
        <time>2014-02-17T14:04:04Z</time>
      </trkpt>
      <trkpt lat="43.50432" lon="5.25119">
        <ele>155.39</ele>
        <time>2014-02-17T14:04:05Z</time>
      </trkpt>
      <trkpt lat="43.50433" lon="5.25121">
        <ele>154.91</ele>
        <time>2014-02-17T14:04:06Z</time>
      </trkpt>
      <trkpt lat="43.50438" lon="5.25132">
        <ele>152.51</ele>
        <time>2014-02-17T14:04:17Z</time>
      </trkpt>
      <trkpt lat="43.50439" lon="5.25133">
        <ele>152.03</ele>
        <time>2014-02-17T14:04:18Z</time>
      </trkpt>
      <trkpt lat="43.5044" lon="5.25139">
        <ele>151.54</ele>
        <time>2014-02-17T14:04:28Z</time>
      </trkpt>
      <trkpt lat="43.50439" lon="5.2514">
        <ele>151.54</ele>
        <time>2014-02-17T14:04:32Z</time>
      </trkpt>
      <trkpt lat="43.5044" lon="5.25148">
        <ele>150.58</ele>
        <time>2014-02-17T14:04:39Z</time>
      </trkpt>
      <trkpt lat="43.5044" lon="5.2515">
        <ele>150.58</ele>
        <time>2014-02-17T14:04:40Z</time>
      </trkpt>
      <trkpt lat="43.5044" lon="5.25152">
        <ele>150.1</ele>
        <time>2014-02-17T14:04:41Z</time>
      </trkpt>
      <trkpt lat="43.50439" lon="5.2517">
        <ele>148.66</ele>
        <time>2014-02-17T14:04:52Z</time>
      </trkpt>
      <trkpt lat="43.50438" lon="5.25184">
        <ele>147.22</ele>
        <time>2014-02-17T14:05:03Z</time>
      </trkpt>
      <trkpt lat="43.50439" lon="5.25193">
        <ele>146.26</ele>
        <time>2014-02-17T14:05:10Z</time>
      </trkpt>
      <trkpt lat="43.5044" lon="5.25195">
        <ele>145.78</ele>
        <time>2014-02-17T14:05:11Z</time>
      </trkpt>
      <trkpt lat="43.5044" lon="5.25197">
        <ele>145.78</ele>
        <time>2014-02-17T14:05:12Z</time>
      </trkpt>
      <trkpt lat="43.5044" lon="5.25199">
        <ele>145.78</ele>
        <time>2014-02-17T14:05:13Z</time>
      </trkpt>
      <trkpt lat="43.5044" lon="5.25201">
        <ele>145.78</ele>
        <time>2014-02-17T14:05:14Z</time>
      </trkpt>
      <trkpt lat="43.50438" lon="5.25218">
        <ele>144.34</ele>
        <time>2014-02-17T14:05:25Z</time>
      </trkpt>
      <trkpt lat="43.50438" lon="5.25221">
        <ele>144.34</ele>
        <time>2014-02-17T14:05:28Z</time>
      </trkpt>
      <trkpt lat="43.50437" lon="5.25223">
        <ele>144.34</ele>
        <time>2014-02-17T14:05:29Z</time>
      </trkpt>
      <trkpt lat="43.50437" lon="5.25225">
        <ele>143.85</ele>
        <time>2014-02-17T14:05:30Z</time>
      </trkpt>
      <trkpt lat="43.50441" lon="5.25241">
        <ele>143.85</ele>
        <time>2014-02-17T14:05:40Z</time>
      </trkpt>
      <trkpt lat="43.50447" lon="5.25255">
        <ele>142.89</ele>
        <time>2014-02-17T14:05:51Z</time>
      </trkpt>
      <trkpt lat="43.50447" lon="5.25257">
        <ele>142.89</ele>
        <time>2014-02-17T14:05:52Z</time>
      </trkpt>
      <trkpt lat="43.50452" lon="5.25271">
        <ele>140.97</ele>
        <time>2014-02-17T14:06:03Z</time>
      </trkpt>
      <trkpt lat="43.50457" lon="5.25284">
        <ele>139.05</ele>
        <time>2014-02-17T14:06:16Z</time>
      </trkpt>
      <trkpt lat="43.50461" lon="5.25297">
        <ele>137.13</ele>
        <time>2014-02-17T14:06:30Z</time>
      </trkpt>
      <trkpt lat="43.50461" lon="5.25298">
        <ele>136.64</ele>
        <time>2014-02-17T14:06:31Z</time>
      </trkpt>
      <trkpt lat="43.50459" lon="5.25315">
        <ele>136.64</ele>
        <time>2014-02-17T14:06:43Z</time>
      </trkpt>
      <trkpt lat="43.50459" lon="5.25317">
        <ele>136.16</ele>
        <time>2014-02-17T14:06:44Z</time>
      </trkpt>
      <trkpt lat="43.50459" lon="5.25319">
        <ele>136.16</ele>
        <time>2014-02-17T14:06:45Z</time>
      </trkpt>
      <trkpt lat="43.50458" lon="5.25321">
        <ele>136.64</ele>
        <time>2014-02-17T14:06:46Z</time>
      </trkpt>
      <trkpt lat="43.50458" lon="5.25323">
        <ele>136.16</ele>
        <time>2014-02-17T14:06:47Z</time>
      </trkpt>
      <trkpt lat="43.50459" lon="5.25338">
        <ele>134.72</ele>
        <time>2014-02-17T14:06:58Z</time>
      </trkpt>
      <trkpt lat="43.50459" lon="5.25341">
        <ele>134.24</ele>
        <time>2014-02-17T14:07:01Z</time>
      </trkpt>
      <trkpt lat="43.50459" lon="5.25343">
        <ele>134.24</ele>
        <time>2014-02-17T14:07:02Z</time>
      </trkpt>
      <trkpt lat="43.50459" lon="5.25345">
        <ele>134.24</ele>
        <time>2014-02-17T14:07:03Z</time>
      </trkpt>
      <trkpt lat="43.50459" lon="5.25347">
        <ele>133.76</ele>
        <time>2014-02-17T14:07:04Z</time>
      </trkpt>
      <trkpt lat="43.50459" lon="5.25349">
        <ele>133.28</ele>
        <time>2014-02-17T14:07:05Z</time>
      </trkpt>
      <trkpt lat="43.50459" lon="5.25351">
        <ele>133.76</ele>
        <time>2014-02-17T14:07:06Z</time>
      </trkpt>
      <trkpt lat="43.50458" lon="5.25359">
        <ele>133.28</ele>
        <time>2014-02-17T14:07:12Z</time>
      </trkpt>
      <trkpt lat="43.50456" lon="5.25365">
        <ele>133.28</ele>
        <time>2014-02-17T14:07:16Z</time>
      </trkpt>
      <trkpt lat="43.50457" lon="5.25381">
        <ele>131.36</ele>
        <time>2014-02-17T14:07:28Z</time>
      </trkpt>
      <trkpt lat="43.50456" lon="5.25387">
        <ele>130.88</ele>
        <time>2014-02-17T14:07:34Z</time>
      </trkpt>
      <trkpt lat="43.50455" lon="5.25388">
        <ele>131.36</ele>
        <time>2014-02-17T14:07:35Z</time>
      </trkpt>
      <trkpt lat="43.50452" lon="5.25393">
        <ele>131.36</ele>
        <time>2014-02-17T14:07:49Z</time>
      </trkpt>
      <trkpt lat="43.5045" lon="5.25402">
        <ele>131.36</ele>
        <time>2014-02-17T14:08:03Z</time>
      </trkpt>
      <trkpt lat="43.50447" lon="5.25409">
        <ele>129.92</ele>
        <time>2014-02-17T14:08:10Z</time>
      </trkpt>
      <trkpt lat="43.50444" lon="5.25419">
        <ele>129.43</ele>
        <time>2014-02-17T14:08:18Z</time>
      </trkpt>
      <trkpt lat="43.50441" lon="5.2543">
        <ele>128.47</ele>
        <time>2014-02-17T14:08:26Z</time>
      </trkpt>
      <trkpt lat="43.5044" lon="5.25431">
        <ele>128.47</ele>
        <time>2014-02-17T14:08:27Z</time>
      </trkpt>
      <trkpt lat="43.50439" lon="5.25433">
        <ele>128.47</ele>
        <time>2014-02-17T14:08:28Z</time>
      </trkpt>
      <trkpt lat="43.50438" lon="5.25434">
        <ele>128.47</ele>
        <time>2014-02-17T14:08:29Z</time>
      </trkpt>
      <trkpt lat="43.50437" lon="5.25436">
        <ele>128.47</ele>
        <time>2014-02-17T14:08:30Z</time>
      </trkpt>
      <trkpt lat="43.5043" lon="5.25452">
        <ele>127.03</ele>
        <time>2014-02-17T14:08:41Z</time>
      </trkpt>
      <trkpt lat="43.50425" lon="5.25466">
        <ele>126.07</ele>
        <time>2014-02-17T14:08:52Z</time>
      </trkpt>
      <trkpt lat="43.50429" lon="5.25471">
        <ele>125.59</ele>
        <time>2014-02-17T14:08:58Z</time>
      </trkpt>
      <trkpt lat="43.50437" lon="5.25484">
        <ele>123.67</ele>
        <time>2014-02-17T14:09:09Z</time>
      </trkpt>
      <trkpt lat="43.50437" lon="5.25486">
        <ele>123.19</ele>
        <time>2014-02-17T14:09:10Z</time>
      </trkpt>
      <trkpt lat="43.50436" lon="5.25494">
        <ele>122.71</ele>
        <time>2014-02-17T14:09:16Z</time>
      </trkpt>
      <trkpt lat="43.50435" lon="5.2551">
        <ele>121.26</ele>
        <time>2014-02-17T14:09:26Z</time>
      </trkpt>
      <trkpt lat="43.50433" lon="5.25531">
        <ele>120.78</ele>
        <time>2014-02-17T14:09:38Z</time>
      </trkpt>
      <trkpt lat="43.5043" lon="5.25546">
        <ele>120.3</ele>
        <time>2014-02-17T14:09:48Z</time>
      </trkpt>
      <trkpt lat="43.50425" lon="5.25563">
        <ele>119.82</ele>
        <time>2014-02-17T14:10:00Z</time>
      </trkpt>
      <trkpt lat="43.5042" lon="5.25581">
        <ele>119.34</ele>
        <time>2014-02-17T14:10:11Z</time>
      </trkpt>
      <trkpt lat="43.50415" lon="5.25596">
        <ele>119.34</ele>
        <time>2014-02-17T14:10:21Z</time>
      </trkpt>
      <trkpt lat="43.50414" lon="5.25601">
        <ele>119.34</ele>
        <time>2014-02-17T14:10:34Z</time>
      </trkpt>
      <trkpt lat="43.5041" lon="5.25615">
        <ele>119.82</ele>
        <time>2014-02-17T14:10:44Z</time>
      </trkpt>
      <trkpt lat="43.50407" lon="5.25632">
        <ele>119.82</ele>
        <time>2014-02-17T14:10:54Z</time>
      </trkpt>
      <trkpt lat="43.50405" lon="5.2564">
        <ele>119.34</ele>
        <time>2014-02-17T14:11:00Z</time>
      </trkpt>
      <trkpt lat="43.50403" lon="5.25642">
        <ele>119.82</ele>
        <time>2014-02-17T14:11:01Z</time>
      </trkpt>
      <trkpt lat="43.50399" lon="5.25648">
        <ele>118.86</ele>
        <time>2014-02-17T14:11:07Z</time>
      </trkpt>
      <trkpt lat="43.50398" lon="5.25649">
        <ele>118.86</ele>
        <time>2014-02-17T14:11:08Z</time>
      </trkpt>
      <trkpt lat="43.50389" lon="5.25657">
        <ele>118.86</ele>
        <time>2014-02-17T14:11:18Z</time>
      </trkpt>
      <trkpt lat="43.50385" lon="5.25662">
        <ele>118.86</ele>
        <time>2014-02-17T14:11:30Z</time>
      </trkpt>
      <trkpt lat="43.50379" lon="5.25665">
        <ele>118.86</ele>
        <time>2014-02-17T14:11:51Z</time>
      </trkpt>
      <trkpt lat="43.50369" lon="5.25671">
        <ele>117.42</ele>
        <time>2014-02-17T14:12:02Z</time>
      </trkpt>
      <trkpt lat="43.50366" lon="5.25672">
        <ele>116.94</ele>
        <time>2014-02-17T14:12:06Z</time>
      </trkpt>
      <trkpt lat="43.50365" lon="5.25673">
        <ele>116.94</ele>
        <time>2014-02-17T14:12:07Z</time>
      </trkpt>
      <trkpt lat="43.50363" lon="5.25673">
        <ele>117.42</ele>
        <time>2014-02-17T14:12:08Z</time>
      </trkpt>
      <trkpt lat="43.50355" lon="5.25673">
        <ele>114.05</ele>
        <time>2014-02-17T14:12:18Z</time>
      </trkpt>
      <trkpt lat="43.50343" lon="5.25675">
        <ele>113.57</ele>
        <time>2014-02-17T14:12:29Z</time>
      </trkpt>
      <trkpt lat="43.5034" lon="5.2568">
        <ele>113.09</ele>
        <time>2014-02-17T14:12:34Z</time>
      </trkpt>
      <trkpt lat="43.5034" lon="5.25681">
        <ele>113.09</ele>
        <time>2014-02-17T14:12:35Z</time>
      </trkpt>
      <trkpt lat="43.50337" lon="5.25689">
        <ele>110.69</ele>
        <time>2014-02-17T14:12:46Z</time>
      </trkpt>
      <trkpt lat="43.50334" lon="5.25697">
        <ele>109.25</ele>
        <time>2014-02-17T14:12:58Z</time>
      </trkpt>
      <trkpt lat="43.50334" lon="5.25705">
        <ele>106.84</ele>
        <time>2014-02-17T14:13:09Z</time>
      </trkpt>
      <trkpt lat="43.50332" lon="5.25708">
        <ele>105.88</ele>
        <time>2014-02-17T14:13:16Z</time>
      </trkpt>
      <trkpt lat="43.50326" lon="5.25706">
        <ele>105.88</ele>
        <time>2014-02-17T14:13:27Z</time>
      </trkpt>
      <trkpt lat="43.50324" lon="5.25706">
        <ele>104.92</ele>
        <time>2014-02-17T14:13:48Z</time>
      </trkpt>
      <trkpt lat="43.50325" lon="5.25706">
        <ele>104.92</ele>
        <time>2014-02-17T14:13:53Z</time>
      </trkpt>
      <trkpt lat="43.50324" lon="5.25704">
        <ele>105.88</ele>
        <time>2014-02-17T14:13:56Z</time>
      </trkpt>
      <trkpt lat="43.50321" lon="5.25702">
        <ele>105.88</ele>
        <time>2014-02-17T14:14:00Z</time>
      </trkpt>
      <trkpt lat="43.50317" lon="5.25697">
        <ele>106.84</ele>
        <time>2014-02-17T14:14:07Z</time>
      </trkpt>
      <trkpt lat="43.50313" lon="5.25695">
        <ele>107.32</ele>
        <time>2014-02-17T14:14:12Z</time>
      </trkpt>
      <trkpt lat="43.50309" lon="5.25694">
        <ele>108.29</ele>
        <time>2014-02-17T14:14:18Z</time>
      </trkpt>
      <trkpt lat="43.50306" lon="5.25693">
        <ele>109.25</ele>
        <time>2014-02-17T14:14:21Z</time>
      </trkpt>
      <trkpt lat="43.50303" lon="5.25691">
        <ele>109.73</ele>
        <time>2014-02-17T14:14:25Z</time>
      </trkpt>
      <trkpt lat="43.50294" lon="5.25687">
        <ele>110.69</ele>
        <time>2014-02-17T14:14:34Z</time>
      </trkpt>
      <trkpt lat="43.50292" lon="5.25687">
        <ele>110.21</ele>
        <time>2014-02-17T14:14:45Z</time>
      </trkpt>
      <trkpt lat="43.50289" lon="5.25686">
        <ele>110.21</ele>
        <time>2014-02-17T14:14:59Z</time>
      </trkpt>
      <trkpt lat="43.50279" lon="5.25677">
        <ele>111.65</ele>
        <time>2014-02-17T14:15:10Z</time>
      </trkpt>
      <trkpt lat="43.50273" lon="5.2567">
        <ele>112.61</ele>
        <time>2014-02-17T14:15:19Z</time>
      </trkpt>
      <trkpt lat="43.50262" lon="5.25665">
        <ele>112.13</ele>
        <time>2014-02-17T14:15:29Z</time>
      </trkpt>
      <trkpt lat="43.5026" lon="5.25664">
        <ele>112.61</ele>
        <time>2014-02-17T14:15:31Z</time>
      </trkpt>
      <trkpt lat="43.50253" lon="5.25665">
        <ele>113.09</ele>
        <time>2014-02-17T14:15:37Z</time>
      </trkpt>
      <trkpt lat="43.5024" lon="5.25664">
        <ele>112.61</ele>
        <time>2014-02-17T14:15:48Z</time>
      </trkpt>
      <trkpt lat="43.50224" lon="5.25663">
        <ele>112.61</ele>
        <time>2014-02-17T14:16:01Z</time>
      </trkpt>
      <trkpt lat="43.50219" lon="5.25661">
        <ele>112.61</ele>
        <time>2014-02-17T14:16:07Z</time>
      </trkpt>
      <trkpt lat="43.50208" lon="5.25661">
        <ele>112.61</ele>
        <time>2014-02-17T14:16:18Z</time>
      </trkpt>
      <trkpt lat="43.50202" lon="5.25659">
        <ele>112.61</ele>
        <time>2014-02-17T14:16:25Z</time>
      </trkpt>
      <trkpt lat="43.50197" lon="5.25653">
        <ele>113.57</ele>
        <time>2014-02-17T14:16:31Z</time>
      </trkpt>
      <trkpt lat="43.50191" lon="5.25653">
        <ele>113.09</ele>
        <time>2014-02-17T14:16:35Z</time>
      </trkpt>
      <trkpt lat="43.50188" lon="5.25653">
        <ele>113.09</ele>
        <time>2014-02-17T14:16:37Z</time>
      </trkpt>
      <trkpt lat="43.50178" lon="5.25646">
        <ele>113.57</ele>
        <time>2014-02-17T14:16:48Z</time>
      </trkpt>
      <trkpt lat="43.50172" lon="5.25643">
        <ele>113.09</ele>
        <time>2014-02-17T14:16:53Z</time>
      </trkpt>
      <trkpt lat="43.50161" lon="5.25636">
        <ele>113.57</ele>
        <time>2014-02-17T14:17:04Z</time>
      </trkpt>
      <trkpt lat="43.50155" lon="5.25633">
        <ele>113.57</ele>
        <time>2014-02-17T14:17:10Z</time>
      </trkpt>
      <trkpt lat="43.50145" lon="5.25628">
        <ele>114.53</ele>
        <time>2014-02-17T14:17:19Z</time>
      </trkpt>
      <trkpt lat="43.5014" lon="5.25623">
        <ele>114.05</ele>
        <time>2014-02-17T14:17:25Z</time>
      </trkpt>
      <trkpt lat="43.50129" lon="5.25617">
        <ele>115.01</ele>
        <time>2014-02-17T14:17:36Z</time>
      </trkpt>
      <trkpt lat="43.50119" lon="5.25608">
        <ele>115.01</ele>
        <time>2014-02-17T14:17:46Z</time>
      </trkpt>
      <trkpt lat="43.50114" lon="5.25602">
        <ele>115.01</ele>
        <time>2014-02-17T14:17:52Z</time>
      </trkpt>
      <trkpt lat="43.50109" lon="5.25596">
        <ele>115.01</ele>
        <time>2014-02-17T14:17:58Z</time>
      </trkpt>
      <trkpt lat="43.50099" lon="5.25585">
        <ele>114.53</ele>
        <time>2014-02-17T14:18:09Z</time>
      </trkpt>
      <trkpt lat="43.50089" lon="5.25575">
        <ele>114.53</ele>
        <time>2014-02-17T14:18:20Z</time>
      </trkpt>
      <trkpt lat="43.50088" lon="5.25573">
        <ele>114.05</ele>
        <time>2014-02-17T14:18:22Z</time>
      </trkpt>
      <trkpt lat="43.50079" lon="5.25563">
        <ele>114.53</ele>
        <time>2014-02-17T14:18:33Z</time>
      </trkpt>
      <trkpt lat="43.50078" lon="5.25562">
        <ele>115.01</ele>
        <time>2014-02-17T14:18:44Z</time>
      </trkpt>
      <trkpt lat="43.50073" lon="5.25549">
        <ele>115.5</ele>
        <time>2014-02-17T14:18:54Z</time>
      </trkpt>
      <trkpt lat="43.50072" lon="5.25549">
        <ele>115.98</ele>
        <time>2014-02-17T14:18:55Z</time>
      </trkpt>
      <trkpt lat="43.50063" lon="5.25539">
        <ele>116.46</ele>
        <time>2014-02-17T14:19:06Z</time>
      </trkpt>
      <trkpt lat="43.50058" lon="5.25534">
        <ele>116.46</ele>
        <time>2014-02-17T14:19:11Z</time>
      </trkpt>
      <trkpt lat="43.50053" lon="5.2553">
        <ele>116.46</ele>
        <time>2014-02-17T14:19:22Z</time>
      </trkpt>
      <trkpt lat="43.50051" lon="5.2553">
        <ele>115.98</ele>
        <time>2014-02-17T14:19:40Z</time>
      </trkpt>
      <trkpt lat="43.50051" lon="5.25522">
        <ele>116.46</ele>
        <time>2014-02-17T14:19:46Z</time>
      </trkpt>
      <trkpt lat="43.50052" lon="5.25511">
        <ele>118.38</ele>
        <time>2014-02-17T14:19:54Z</time>
      </trkpt>
      <trkpt lat="43.50055" lon="5.25498">
        <ele>118.86</ele>
        <time>2014-02-17T14:20:04Z</time>
      </trkpt>
      <trkpt lat="43.50054" lon="5.25495">
        <ele>118.86</ele>
        <time>2014-02-17T14:20:19Z</time>
      </trkpt>
      <trkpt lat="43.50055" lon="5.25493">
        <ele>119.34</ele>
        <time>2014-02-17T14:20:23Z</time>
      </trkpt>
      <trkpt lat="43.50058" lon="5.25486">
        <ele>119.82</ele>
        <time>2014-02-17T14:20:29Z</time>
      </trkpt>
      <trkpt lat="43.50061" lon="5.2548">
        <ele>120.78</ele>
        <time>2014-02-17T14:20:35Z</time>
      </trkpt>
      <trkpt lat="43.50069" lon="5.2547">
        <ele>122.22</ele>
        <time>2014-02-17T14:20:46Z</time>
      </trkpt>
      <trkpt lat="43.50079" lon="5.25461">
        <ele>123.19</ele>
        <time>2014-02-17T14:20:57Z</time>
      </trkpt>
      <trkpt lat="43.50079" lon="5.2546">
        <ele>123.67</ele>
        <time>2014-02-17T14:20:58Z</time>
      </trkpt>
      <trkpt lat="43.50087" lon="5.25445">
        <ele>125.11</ele>
        <time>2014-02-17T14:21:09Z</time>
      </trkpt>
      <trkpt lat="43.5009" lon="5.25439">
        <ele>125.11</ele>
        <time>2014-02-17T14:21:14Z</time>
      </trkpt>
      <trkpt lat="43.50096" lon="5.25426">
        <ele>126.07</ele>
        <time>2014-02-17T14:21:24Z</time>
      </trkpt>
      <trkpt lat="43.50101" lon="5.25421">
        <ele>127.03</ele>
        <time>2014-02-17T14:21:31Z</time>
      </trkpt>
      <trkpt lat="43.5011" lon="5.25413">
        <ele>128.95</ele>
        <time>2014-02-17T14:21:41Z</time>
      </trkpt>
      <trkpt lat="43.50114" lon="5.25408">
        <ele>129.92</ele>
        <time>2014-02-17T14:21:47Z</time>
      </trkpt>
      <trkpt lat="43.50119" lon="5.25401">
        <ele>128.95</ele>
        <time>2014-02-17T14:21:59Z</time>
      </trkpt>
      <trkpt lat="43.50124" lon="5.25392">
        <ele>129.92</ele>
        <time>2014-02-17T14:22:07Z</time>
      </trkpt>
      <trkpt lat="43.50132" lon="5.25379">
        <ele>130.4</ele>
        <time>2014-02-17T14:22:18Z</time>
      </trkpt>
      <trkpt lat="43.5014" lon="5.25366">
        <ele>130.4</ele>
        <time>2014-02-17T14:22:28Z</time>
      </trkpt>
      <trkpt lat="43.50142" lon="5.25363">
        <ele>130.88</ele>
        <time>2014-02-17T14:22:32Z</time>
      </trkpt>
      <trkpt lat="43.50143" lon="5.25361">
        <ele>131.36</ele>
        <time>2014-02-17T14:22:33Z</time>
      </trkpt>
      <trkpt lat="43.50147" lon="5.25354">
        <ele>131.36</ele>
        <time>2014-02-17T14:22:39Z</time>
      </trkpt>
      <trkpt lat="43.50148" lon="5.25352">
        <ele>131.36</ele>
        <time>2014-02-17T14:22:40Z</time>
      </trkpt>
      <trkpt lat="43.50151" lon="5.25348">
        <ele>132.32</ele>
        <time>2014-02-17T14:22:44Z</time>
      </trkpt>
      <trkpt lat="43.50152" lon="5.25347">
        <ele>132.32</ele>
        <time>2014-02-17T14:22:45Z</time>
      </trkpt>
      <trkpt lat="43.50153" lon="5.25345">
        <ele>132.32</ele>
        <time>2014-02-17T14:22:46Z</time>
      </trkpt>
      <trkpt lat="43.50154" lon="5.25343">
        <ele>132.8</ele>
        <time>2014-02-17T14:22:47Z</time>
      </trkpt>
      <trkpt lat="43.5016" lon="5.25331">
        <ele>133.28</ele>
        <time>2014-02-17T14:22:57Z</time>
      </trkpt>
      <trkpt lat="43.50163" lon="5.25325">
        <ele>133.76</ele>
        <time>2014-02-17T14:23:02Z</time>
      </trkpt>
      <trkpt lat="43.50164" lon="5.25323">
        <ele>133.76</ele>
        <time>2014-02-17T14:23:03Z</time>
      </trkpt>
      <trkpt lat="43.50165" lon="5.25322">
        <ele>134.24</ele>
        <time>2014-02-17T14:23:04Z</time>
      </trkpt>
      <trkpt lat="43.50166" lon="5.2532">
        <ele>134.72</ele>
        <time>2014-02-17T14:23:05Z</time>
      </trkpt>
      <trkpt lat="43.50168" lon="5.25312">
        <ele>134.24</ele>
        <time>2014-02-17T14:23:15Z</time>
      </trkpt>
      <trkpt lat="43.5017" lon="5.25309">
        <ele>134.72</ele>
        <time>2014-02-17T14:23:42Z</time>
      </trkpt>
      <trkpt lat="43.50171" lon="5.25308">
        <ele>134.72</ele>
        <time>2014-02-17T14:23:43Z</time>
      </trkpt>
      <trkpt lat="43.50178" lon="5.25297">
        <ele>134.72</ele>
        <time>2014-02-17T14:23:52Z</time>
      </trkpt>
      <trkpt lat="43.50182" lon="5.25289">
        <ele>135.68</ele>
        <time>2014-02-17T14:24:00Z</time>
      </trkpt>
      <trkpt lat="43.50183" lon="5.25288">
        <ele>135.68</ele>
        <time>2014-02-17T14:24:01Z</time>
      </trkpt>
      <trkpt lat="43.50185" lon="5.25287">
        <ele>135.68</ele>
        <time>2014-02-17T14:24:02Z</time>
      </trkpt>
      <trkpt lat="43.50189" lon="5.25276">
        <ele>136.64</ele>
        <time>2014-02-17T14:24:11Z</time>
      </trkpt>
      <trkpt lat="43.50194" lon="5.25268">
        <ele>137.61</ele>
        <time>2014-02-17T14:24:18Z</time>
      </trkpt>
      <trkpt lat="43.50195" lon="5.25267">
        <ele>137.61</ele>
        <time>2014-02-17T14:24:19Z</time>
      </trkpt>
      <trkpt lat="43.50196" lon="5.25266">
        <ele>137.61</ele>
        <time>2014-02-17T14:24:20Z</time>
      </trkpt>
      <trkpt lat="43.50198" lon="5.25262">
        <ele>138.09</ele>
        <time>2014-02-17T14:24:24Z</time>
      </trkpt>
      <trkpt lat="43.50199" lon="5.2526">
        <ele>139.05</ele>
        <time>2014-02-17T14:24:25Z</time>
      </trkpt>
      <trkpt lat="43.50205" lon="5.25245">
        <ele>139.53</ele>
        <time>2014-02-17T14:24:35Z</time>
      </trkpt>
      <trkpt lat="43.50207" lon="5.25233">
        <ele>140.49</ele>
        <time>2014-02-17T14:24:42Z</time>
      </trkpt>
      <trkpt lat="43.50207" lon="5.25232">
        <ele>140.01</ele>
        <time>2014-02-17T14:24:43Z</time>
      </trkpt>
      <trkpt lat="43.50208" lon="5.2523">
        <ele>140.01</ele>
        <time>2014-02-17T14:24:44Z</time>
      </trkpt>
      <trkpt lat="43.50208" lon="5.25225">
        <ele>140.49</ele>
        <time>2014-02-17T14:24:48Z</time>
      </trkpt>
      <trkpt lat="43.50209" lon="5.25224">
        <ele>140.49</ele>
        <time>2014-02-17T14:24:49Z</time>
      </trkpt>
      <trkpt lat="43.50211" lon="5.25219">
        <ele>140.97</ele>
        <time>2014-02-17T14:24:53Z</time>
      </trkpt>
      <trkpt lat="43.50212" lon="5.25218">
        <ele>140.97</ele>
        <time>2014-02-17T14:24:54Z</time>
      </trkpt>
      <trkpt lat="43.50213" lon="5.25215">
        <ele>140.97</ele>
        <time>2014-02-17T14:24:55Z</time>
      </trkpt>
      <trkpt lat="43.50217" lon="5.25204">
        <ele>140.97</ele>
        <time>2014-02-17T14:25:04Z</time>
      </trkpt>
      <trkpt lat="43.50218" lon="5.25203">
        <ele>140.97</ele>
        <time>2014-02-17T14:25:05Z</time>
      </trkpt>
      <trkpt lat="43.50219" lon="5.25202">
        <ele>141.45</ele>
        <time>2014-02-17T14:25:06Z</time>
      </trkpt>
      <trkpt lat="43.50219" lon="5.25196">
        <ele>141.93</ele>
        <time>2014-02-17T14:25:18Z</time>
      </trkpt>
      <trkpt lat="43.50224" lon="5.2519">
        <ele>142.89</ele>
        <time>2014-02-17T14:25:35Z</time>
      </trkpt>
      <trkpt lat="43.5023" lon="5.25185">
        <ele>144.34</ele>
        <time>2014-02-17T14:25:41Z</time>
      </trkpt>
      <trkpt lat="43.50231" lon="5.25184">
        <ele>144.34</ele>
        <time>2014-02-17T14:25:42Z</time>
      </trkpt>
      <trkpt lat="43.50232" lon="5.25183">
        <ele>143.85</ele>
        <time>2014-02-17T14:25:43Z</time>
      </trkpt>
      <trkpt lat="43.50234" lon="5.25181">
        <ele>144.82</ele>
        <time>2014-02-17T14:25:46Z</time>
      </trkpt>
      <trkpt lat="43.50235" lon="5.2518">
        <ele>144.82</ele>
        <time>2014-02-17T14:25:47Z</time>
      </trkpt>
      <trkpt lat="43.50236" lon="5.25179">
        <ele>144.82</ele>
        <time>2014-02-17T14:25:48Z</time>
      </trkpt>
      <trkpt lat="43.50244" lon="5.25172">
        <ele>146.26</ele>
        <time>2014-02-17T14:25:57Z</time>
      </trkpt>
      <trkpt lat="43.50248" lon="5.25168">
        <ele>146.74</ele>
        <time>2014-02-17T14:26:02Z</time>
      </trkpt>
      <trkpt lat="43.50249" lon="5.25167">
        <ele>146.74</ele>
        <time>2014-02-17T14:26:03Z</time>
      </trkpt>
      <trkpt lat="43.50251" lon="5.25165">
        <ele>146.74</ele>
        <time>2014-02-17T14:26:04Z</time>
      </trkpt>
      <trkpt lat="43.50252" lon="5.25164">
        <ele>146.26</ele>
        <time>2014-02-17T14:26:05Z</time>
      </trkpt>
      <trkpt lat="43.50259" lon="5.25157">
        <ele>147.22</ele>
        <time>2014-02-17T14:26:14Z</time>
      </trkpt>
      <trkpt lat="43.5026" lon="5.25156">
        <ele>147.7</ele>
        <time>2014-02-17T14:26:15Z</time>
      </trkpt>
      <trkpt lat="43.50261" lon="5.25154">
        <ele>147.22</ele>
        <time>2014-02-17T14:26:16Z</time>
      </trkpt>
      <trkpt lat="43.50262" lon="5.25153">
        <ele>147.22</ele>
        <time>2014-02-17T14:26:17Z</time>
      </trkpt>
      <trkpt lat="43.50264" lon="5.25151">
        <ele>147.7</ele>
        <time>2014-02-17T14:26:20Z</time>
      </trkpt>
      <trkpt lat="43.50264" lon="5.25149">
        <ele>148.18</ele>
        <time>2014-02-17T14:26:21Z</time>
      </trkpt>
      <trkpt lat="43.50266" lon="5.25147">
        <ele>147.7</ele>
        <time>2014-02-17T14:26:22Z</time>
      </trkpt>
      <trkpt lat="43.50267" lon="5.25146">
        <ele>147.7</ele>
        <time>2014-02-17T14:26:23Z</time>
      </trkpt>
      <trkpt lat="43.50268" lon="5.25143">
        <ele>148.18</ele>
        <time>2014-02-17T14:26:26Z</time>
      </trkpt>
      <trkpt lat="43.50269" lon="5.25141">
        <ele>147.7</ele>
        <time>2014-02-17T14:26:27Z</time>
      </trkpt>
      <trkpt lat="43.50271" lon="5.2514">
        <ele>147.7</ele>
        <time>2014-02-17T14:26:28Z</time>
      </trkpt>
      <trkpt lat="43.50272" lon="5.25138">
        <ele>147.7</ele>
        <time>2014-02-17T14:26:29Z</time>
      </trkpt>
      <trkpt lat="43.5028" lon="5.25131">
        <ele>148.18</ele>
        <time>2014-02-17T14:26:38Z</time>
      </trkpt>
      <trkpt lat="43.50282" lon="5.2513">
        <ele>148.18</ele>
        <time>2014-02-17T14:26:39Z</time>
      </trkpt>
      <trkpt lat="43.50283" lon="5.2513">
        <ele>148.66</ele>
        <time>2014-02-17T14:26:40Z</time>
      </trkpt>
      <trkpt lat="43.50288" lon="5.25129">
        <ele>149.62</ele>
        <time>2014-02-17T14:26:45Z</time>
      </trkpt>
      <trkpt lat="43.50289" lon="5.25128">
        <ele>150.1</ele>
        <time>2014-02-17T14:26:46Z</time>
      </trkpt>
      <trkpt lat="43.50291" lon="5.25127">
        <ele>150.58</ele>
        <time>2014-02-17T14:26:47Z</time>
      </trkpt>
      <trkpt lat="43.50292" lon="5.25126">
        <ele>150.58</ele>
        <time>2014-02-17T14:26:48Z</time>
      </trkpt>
      <trkpt lat="43.50298" lon="5.25119">
        <ele>151.54</ele>
        <time>2014-02-17T14:26:54Z</time>
      </trkpt>
      <trkpt lat="43.50299" lon="5.25115">
        <ele>152.03</ele>
        <time>2014-02-17T14:26:58Z</time>
      </trkpt>
      <trkpt lat="43.503" lon="5.25113">
        <ele>151.54</ele>
        <time>2014-02-17T14:26:59Z</time>
      </trkpt>
      <trkpt lat="43.50302" lon="5.25111">
        <ele>152.03</ele>
        <time>2014-02-17T14:27:00Z</time>
      </trkpt>
      <trkpt lat="43.50303" lon="5.25107">
        <ele>152.03</ele>
        <time>2014-02-17T14:27:04Z</time>
      </trkpt>
      <trkpt lat="43.50308" lon="5.2509">
        <ele>152.51</ele>
        <time>2014-02-17T14:27:14Z</time>
      </trkpt>
      <trkpt lat="43.50308" lon="5.25087">
        <ele>152.51</ele>
        <time>2014-02-17T14:27:16Z</time>
      </trkpt>
      <trkpt lat="43.50307" lon="5.25085">
        <ele>152.51</ele>
        <time>2014-02-17T14:27:17Z</time>
      </trkpt>
      <trkpt lat="43.50307" lon="5.25083">
        <ele>152.51</ele>
        <time>2014-02-17T14:27:18Z</time>
      </trkpt>
      <trkpt lat="43.50307" lon="5.25081">
        <ele>152.51</ele>
        <time>2014-02-17T14:27:19Z</time>
      </trkpt>
      <trkpt lat="43.50305" lon="5.25068">
        <ele>152.51</ele>
        <time>2014-02-17T14:27:28Z</time>
      </trkpt>
      <trkpt lat="43.50302" lon="5.2506">
        <ele>152.99</ele>
        <time>2014-02-17T14:27:34Z</time>
      </trkpt>
      <trkpt lat="43.50301" lon="5.25058">
        <ele>152.51</ele>
        <time>2014-02-17T14:27:35Z</time>
      </trkpt>
      <trkpt lat="43.50301" lon="5.25056">
        <ele>152.51</ele>
        <time>2014-02-17T14:27:36Z</time>
      </trkpt>
      <trkpt lat="43.50301" lon="5.25052">
        <ele>153.47</ele>
        <time>2014-02-17T14:27:40Z</time>
      </trkpt>
      <trkpt lat="43.503" lon="5.25051">
        <ele>153.47</ele>
        <time>2014-02-17T14:27:54Z</time>
      </trkpt>
      <trkpt lat="43.50303" lon="5.25048">
        <ele>152.99</ele>
        <time>2014-02-17T14:28:25Z</time>
      </trkpt>
      <trkpt lat="43.50305" lon="5.25045">
        <ele>153.47</ele>
        <time>2014-02-17T14:28:29Z</time>
      </trkpt>
      <trkpt lat="43.50309" lon="5.25042">
        <ele>153.47</ele>
        <time>2014-02-17T14:28:35Z</time>
      </trkpt>
      <trkpt lat="43.50315" lon="5.2504">
        <ele>153.95</ele>
        <time>2014-02-17T14:28:44Z</time>
      </trkpt>
      <trkpt lat="43.50317" lon="5.25039">
        <ele>153.95</ele>
        <time>2014-02-17T14:28:52Z</time>
      </trkpt>
      <trkpt lat="43.50322" lon="5.25037">
        <ele>153.95</ele>
        <time>2014-02-17T14:28:58Z</time>
      </trkpt>
      <trkpt lat="43.50325" lon="5.25034">
        <ele>153.95</ele>
        <time>2014-02-17T14:29:03Z</time>
      </trkpt>
      <trkpt lat="43.50326" lon="5.25034">
        <ele>154.43</ele>
        <time>2014-02-17T14:29:16Z</time>
      </trkpt>
      <trkpt lat="43.50329" lon="5.25029">
        <ele>154.91</ele>
        <time>2014-02-17T14:29:30Z</time>
      </trkpt>
      <trkpt lat="43.50331" lon="5.25027">
        <ele>153.95</ele>
        <time>2014-02-17T14:29:43Z</time>
      </trkpt>
      <trkpt lat="43.50331" lon="5.25028">
        <ele>154.43</ele>
        <time>2014-02-17T14:30:13Z</time>
      </trkpt>
      <trkpt lat="43.50329" lon="5.25027">
        <ele>154.91</ele>
        <time>2014-02-17T14:30:44Z</time>
      </trkpt>
      <trkpt lat="43.50336" lon="5.25027">
        <ele>154.43</ele>
        <time>2014-02-17T14:31:09Z</time>
      </trkpt>
      <trkpt lat="43.50343" lon="5.25024">
        <ele>154.91</ele>
        <time>2014-02-17T14:31:18Z</time>
      </trkpt>
      <trkpt lat="43.50344" lon="5.25023">
        <ele>154.91</ele>
        <time>2014-02-17T14:31:19Z</time>
      </trkpt>
      <trkpt lat="43.50345" lon="5.25022">
        <ele>155.39</ele>
        <time>2014-02-17T14:31:20Z</time>
      </trkpt>
      <trkpt lat="43.50347" lon="5.25021">
        <ele>155.39</ele>
        <time>2014-02-17T14:31:23Z</time>
      </trkpt>
      <trkpt lat="43.50349" lon="5.2502">
        <ele>155.39</ele>
        <time>2014-02-17T14:31:24Z</time>
      </trkpt>
      <trkpt lat="43.50356" lon="5.25015">
        <ele>157.31</ele>
        <time>2014-02-17T14:31:33Z</time>
      </trkpt>
      <trkpt lat="43.50363" lon="5.25007">
        <ele>158.75</ele>
        <time>2014-02-17T14:31:42Z</time>
      </trkpt>
      <trkpt lat="43.50366" lon="5.25001">
        <ele>158.75</ele>
        <time>2014-02-17T14:31:48Z</time>
      </trkpt>
      <trkpt lat="43.50367" lon="5.24999">
        <ele>158.75</ele>
        <time>2014-02-17T14:31:49Z</time>
      </trkpt>
      <trkpt lat="43.50368" lon="5.24995">
        <ele>159.24</ele>
        <time>2014-02-17T14:31:52Z</time>
      </trkpt>
      <trkpt lat="43.50369" lon="5.24993">
        <ele>158.75</ele>
        <time>2014-02-17T14:31:53Z</time>
      </trkpt>
      <trkpt lat="43.50371" lon="5.24988">
        <ele>159.72</ele>
        <time>2014-02-17T14:31:57Z</time>
      </trkpt>
      <trkpt lat="43.50371" lon="5.24986">
        <ele>159.24</ele>
        <time>2014-02-17T14:31:58Z</time>
      </trkpt>
      <trkpt lat="43.50372" lon="5.24983">
        <ele>159.72</ele>
        <time>2014-02-17T14:32:01Z</time>
      </trkpt>
      <trkpt lat="43.50372" lon="5.24981">
        <ele>159.24</ele>
        <time>2014-02-17T14:32:02Z</time>
      </trkpt>
      <trkpt lat="43.50372" lon="5.24979">
        <ele>159.72</ele>
        <time>2014-02-17T14:32:03Z</time>
      </trkpt>
      <trkpt lat="43.50374" lon="5.2497">
        <ele>160.2</ele>
        <time>2014-02-17T14:32:10Z</time>
      </trkpt>
      <trkpt lat="43.50374" lon="5.24968">
        <ele>160.68</ele>
        <time>2014-02-17T14:32:11Z</time>
      </trkpt>
      <trkpt lat="43.50376" lon="5.24957">
        <ele>161.16</ele>
        <time>2014-02-17T14:32:19Z</time>
      </trkpt>
      <trkpt lat="43.50376" lon="5.24955">
        <ele>161.64</ele>
        <time>2014-02-17T14:32:20Z</time>
      </trkpt>
      <trkpt lat="43.50376" lon="5.24953">
        <ele>161.16</ele>
        <time>2014-02-17T14:32:21Z</time>
      </trkpt>
      <trkpt lat="43.50378" lon="5.24943">
        <ele>162.12</ele>
        <time>2014-02-17T14:32:29Z</time>
      </trkpt>
      <trkpt lat="43.50378" lon="5.24941">
        <ele>161.64</ele>
        <time>2014-02-17T14:32:30Z</time>
      </trkpt>
      <trkpt lat="43.50378" lon="5.24939">
        <ele>162.12</ele>
        <time>2014-02-17T14:32:31Z</time>
      </trkpt>
      <trkpt lat="43.50378" lon="5.24934">
        <ele>163.08</ele>
        <time>2014-02-17T14:32:35Z</time>
      </trkpt>
      <trkpt lat="43.50379" lon="5.24932">
        <ele>163.08</ele>
        <time>2014-02-17T14:32:36Z</time>
      </trkpt>
      <trkpt lat="43.5038" lon="5.24924">
        <ele>164.52</ele>
        <time>2014-02-17T14:32:42Z</time>
      </trkpt>
      <trkpt lat="43.50384" lon="5.24915">
        <ele>165.48</ele>
        <time>2014-02-17T14:32:51Z</time>
      </trkpt>
      <trkpt lat="43.50385" lon="5.24914">
        <ele>165.96</ele>
        <time>2014-02-17T14:32:52Z</time>
      </trkpt>
      <trkpt lat="43.50386" lon="5.24913">
        <ele>165.96</ele>
        <time>2014-02-17T14:32:53Z</time>
      </trkpt>
      <trkpt lat="43.50387" lon="5.24911">
        <ele>166.45</ele>
        <time>2014-02-17T14:32:54Z</time>
      </trkpt>
      <trkpt lat="43.5039" lon="5.24902">
        <ele>167.41</ele>
        <time>2014-02-17T14:33:02Z</time>
      </trkpt>
      <trkpt lat="43.50391" lon="5.249">
        <ele>167.41</ele>
        <time>2014-02-17T14:33:03Z</time>
      </trkpt>
      <trkpt lat="43.50392" lon="5.24897">
        <ele>167.89</ele>
        <time>2014-02-17T14:33:06Z</time>
      </trkpt>
      <trkpt lat="43.50393" lon="5.24895">
        <ele>167.89</ele>
        <time>2014-02-17T14:33:07Z</time>
      </trkpt>
      <trkpt lat="43.50398" lon="5.24886">
        <ele>169.33</ele>
        <time>2014-02-17T14:33:15Z</time>
      </trkpt>
      <trkpt lat="43.50399" lon="5.24884">
        <ele>169.33</ele>
        <time>2014-02-17T14:33:16Z</time>
      </trkpt>
      <trkpt lat="43.50401" lon="5.24882">
        <ele>169.81</ele>
        <time>2014-02-17T14:33:19Z</time>
      </trkpt>
      <trkpt lat="43.50402" lon="5.2488">
        <ele>169.81</ele>
        <time>2014-02-17T14:33:20Z</time>
      </trkpt>
      <trkpt lat="43.50404" lon="5.24879">
        <ele>169.81</ele>
        <time>2014-02-17T14:33:21Z</time>
      </trkpt>
      <trkpt lat="43.50405" lon="5.24877">
        <ele>170.29</ele>
        <time>2014-02-17T14:33:24Z</time>
      </trkpt>
      <trkpt lat="43.50407" lon="5.24876">
        <ele>170.29</ele>
        <time>2014-02-17T14:33:25Z</time>
      </trkpt>
      <trkpt lat="43.50412" lon="5.24868">
        <ele>171.25</ele>
        <time>2014-02-17T14:33:33Z</time>
      </trkpt>
      <trkpt lat="43.50413" lon="5.24867">
        <ele>171.73</ele>
        <time>2014-02-17T14:33:34Z</time>
      </trkpt>
      <trkpt lat="43.50415" lon="5.24866">
        <ele>172.21</ele>
        <time>2014-02-17T14:33:35Z</time>
      </trkpt>
      <trkpt lat="43.50416" lon="5.24864">
        <ele>172.21</ele>
        <time>2014-02-17T14:33:38Z</time>
      </trkpt>
      <trkpt lat="43.50418" lon="5.24863">
        <ele>172.21</ele>
        <time>2014-02-17T14:33:39Z</time>
      </trkpt>
      <trkpt lat="43.50419" lon="5.2486">
        <ele>172.69</ele>
        <time>2014-02-17T14:33:42Z</time>
      </trkpt>
      <trkpt lat="43.5042" lon="5.24858">
        <ele>172.69</ele>
        <time>2014-02-17T14:33:43Z</time>
      </trkpt>
      <trkpt lat="43.50422" lon="5.24857">
        <ele>173.17</ele>
        <time>2014-02-17T14:33:55Z</time>
      </trkpt>
      <trkpt lat="43.50424" lon="5.24852">
        <ele>172.69</ele>
        <time>2014-02-17T14:34:09Z</time>
      </trkpt>
      <trkpt lat="43.50426" lon="5.24846">
        <ele>172.69</ele>
        <time>2014-02-17T14:34:15Z</time>
      </trkpt>
      <trkpt lat="43.50427" lon="5.24838">
        <ele>173.66</ele>
        <time>2014-02-17T14:34:23Z</time>
      </trkpt>
      <trkpt lat="43.50427" lon="5.24837">
        <ele>173.66</ele>
        <time>2014-02-17T14:34:43Z</time>
      </trkpt>
      <trkpt lat="43.50426" lon="5.24836">
        <ele>173.17</ele>
        <time>2014-02-17T14:35:08Z</time>
      </trkpt>
      <trkpt lat="43.50424" lon="5.24834">
        <ele>172.21</ele>
        <time>2014-02-17T14:35:36Z</time>
      </trkpt>
      <trkpt lat="43.50425" lon="5.24835">
        <ele>172.69</ele>
        <time>2014-02-17T14:36:04Z</time>
      </trkpt>
      <trkpt lat="43.50425" lon="5.24835">
        <ele>172.69</ele>
        <time>2014-02-17T14:36:16Z</time>
      </trkpt>
      <trkpt lat="43.50425" lon="5.24835">
        <ele>173.17</ele>
        <time>2014-02-17T14:36:43Z</time>
      </trkpt>
      <trkpt lat="43.50426" lon="5.24835">
        <ele>173.17</ele>
        <time>2014-02-17T14:37:11Z</time>
      </trkpt>
      <trkpt lat="43.50424" lon="5.24835">
        <ele>173.17</ele>
        <time>2014-02-17T14:37:47Z</time>
      </trkpt>
      <trkpt lat="43.50424" lon="5.24835">
        <ele>172.69</ele>
        <time>2014-02-17T14:38:14Z</time>
      </trkpt>
      <trkpt lat="43.50424" lon="5.24835">
        <ele>173.17</ele>
        <time>2014-02-17T14:38:40Z</time>
      </trkpt>
      <trkpt lat="43.50424" lon="5.24837">
        <ele>172.69</ele>
        <time>2014-02-17T14:38:58Z</time>
      </trkpt>
      <trkpt lat="43.50413" lon="5.24838">
        <ele>174.14</ele>
        <time>2014-02-17T14:39:08Z</time>
      </trkpt>
      <trkpt lat="43.50411" lon="5.24837">
        <ele>175.1</ele>
        <time>2014-02-17T14:39:11Z</time>
      </trkpt>
      <trkpt lat="43.5041" lon="5.24836">
        <ele>174.62</ele>
        <time>2014-02-17T14:39:12Z</time>
      </trkpt>
      <trkpt lat="43.50402" lon="5.2483">
        <ele>176.54</ele>
        <time>2014-02-17T14:39:21Z</time>
      </trkpt>
      <trkpt lat="43.50394" lon="5.24825">
        <ele>178.46</ele>
        <time>2014-02-17T14:39:30Z</time>
      </trkpt>
      <trkpt lat="43.50393" lon="5.24825">
        <ele>177.98</ele>
        <time>2014-02-17T14:39:31Z</time>
      </trkpt>
      <trkpt lat="43.50391" lon="5.24824">
        <ele>179.42</ele>
        <time>2014-02-17T14:39:32Z</time>
      </trkpt>
      <trkpt lat="43.50389" lon="5.24823">
        <ele>178.94</ele>
        <time>2014-02-17T14:39:35Z</time>
      </trkpt>
      <trkpt lat="43.50388" lon="5.24822">
        <ele>179.42</ele>
        <time>2014-02-17T14:39:36Z</time>
      </trkpt>
      <trkpt lat="43.50381" lon="5.24817">
        <ele>178.94</ele>
        <time>2014-02-17T14:39:44Z</time>
      </trkpt>
      <trkpt lat="43.5038" lon="5.24816">
        <ele>179.42</ele>
        <time>2014-02-17T14:39:45Z</time>
      </trkpt>
      <trkpt lat="43.50372" lon="5.2481">
        <ele>178.94</ele>
        <time>2014-02-17T14:39:53Z</time>
      </trkpt>
      <trkpt lat="43.50361" lon="5.24804">
        <ele>178.94</ele>
        <time>2014-02-17T14:40:03Z</time>
      </trkpt>
      <trkpt lat="43.50351" lon="5.24801">
        <ele>178.94</ele>
        <time>2014-02-17T14:40:13Z</time>
      </trkpt>
      <trkpt lat="43.50344" lon="5.24799">
        <ele>178.94</ele>
        <time>2014-02-17T14:40:21Z</time>
      </trkpt>
      <trkpt lat="43.50343" lon="5.24799">
        <ele>178.46</ele>
        <time>2014-02-17T14:40:22Z</time>
      </trkpt>
      <trkpt lat="43.50341" lon="5.24798">
        <ele>178.94</ele>
        <time>2014-02-17T14:40:23Z</time>
      </trkpt>
      <trkpt lat="43.5033" lon="5.24795">
        <ele>178.46</ele>
        <time>2014-02-17T14:40:33Z</time>
      </trkpt>
      <trkpt lat="43.50322" lon="5.24796">
        <ele>178.94</ele>
        <time>2014-02-17T14:40:41Z</time>
      </trkpt>
      <trkpt lat="43.5032" lon="5.24797">
        <ele>178.94</ele>
        <time>2014-02-17T14:40:42Z</time>
      </trkpt>
      <trkpt lat="43.50319" lon="5.24798">
        <ele>178.94</ele>
        <time>2014-02-17T14:40:43Z</time>
      </trkpt>
      <trkpt lat="43.50317" lon="5.24799">
        <ele>178.94</ele>
        <time>2014-02-17T14:40:44Z</time>
      </trkpt>
      <trkpt lat="43.50309" lon="5.24804">
        <ele>178.46</ele>
        <time>2014-02-17T14:40:53Z</time>
      </trkpt>
      <trkpt lat="43.50308" lon="5.24805">
        <ele>178.46</ele>
        <time>2014-02-17T14:40:54Z</time>
      </trkpt>
      <trkpt lat="43.50307" lon="5.24806">
        <ele>178.46</ele>
        <time>2014-02-17T14:40:55Z</time>
      </trkpt>
      <trkpt lat="43.50305" lon="5.24807">
        <ele>178.46</ele>
        <time>2014-02-17T14:40:56Z</time>
      </trkpt>
      <trkpt lat="43.50302" lon="5.24809">
        <ele>178.94</ele>
        <time>2014-02-17T14:41:00Z</time>
      </trkpt>
      <trkpt lat="43.50301" lon="5.24809">
        <ele>178.94</ele>
        <time>2014-02-17T14:41:01Z</time>
      </trkpt>
      <trkpt lat="43.50299" lon="5.2481">
        <ele>178.94</ele>
        <time>2014-02-17T14:41:02Z</time>
      </trkpt>
      <trkpt lat="43.5029" lon="5.24814">
        <ele>178.94</ele>
        <time>2014-02-17T14:41:11Z</time>
      </trkpt>
      <trkpt lat="43.50288" lon="5.24815">
        <ele>178.46</ele>
        <time>2014-02-17T14:41:13Z</time>
      </trkpt>
      <trkpt lat="43.50287" lon="5.24816">
        <ele>178.94</ele>
        <time>2014-02-17T14:41:14Z</time>
      </trkpt>
      <trkpt lat="43.50285" lon="5.24816">
        <ele>178.46</ele>
        <time>2014-02-17T14:41:15Z</time>
      </trkpt>
      <trkpt lat="43.50275" lon="5.24821">
        <ele>177.98</ele>
        <time>2014-02-17T14:41:25Z</time>
      </trkpt>
      <trkpt lat="43.50274" lon="5.24821">
        <ele>178.46</ele>
        <time>2014-02-17T14:41:26Z</time>
      </trkpt>
      <trkpt lat="43.50272" lon="5.24822">
        <ele>177.98</ele>
        <time>2014-02-17T14:41:28Z</time>
      </trkpt>
      <trkpt lat="43.5026" lon="5.24827">
        <ele>177.98</ele>
        <time>2014-02-17T14:41:39Z</time>
      </trkpt>
      <trkpt lat="43.50248" lon="5.24833">
        <ele>177.02</ele>
        <time>2014-02-17T14:41:49Z</time>
      </trkpt>
      <trkpt lat="43.50238" lon="5.24839">
        <ele>177.02</ele>
        <time>2014-02-17T14:41:59Z</time>
      </trkpt>
      <trkpt lat="43.50236" lon="5.2484">
        <ele>176.54</ele>
        <time>2014-02-17T14:42:01Z</time>
      </trkpt>
      <trkpt lat="43.50235" lon="5.24841">
        <ele>177.02</ele>
        <time>2014-02-17T14:42:02Z</time>
      </trkpt>
      <trkpt lat="43.50233" lon="5.24842">
        <ele>177.02</ele>
        <time>2014-02-17T14:42:03Z</time>
      </trkpt>
      <trkpt lat="43.50228" lon="5.24845">
        <ele>176.54</ele>
        <time>2014-02-17T14:42:08Z</time>
      </trkpt>
      <trkpt lat="43.50227" lon="5.24845">
        <ele>177.02</ele>
        <time>2014-02-17T14:42:09Z</time>
      </trkpt>
      <trkpt lat="43.50226" lon="5.24846">
        <ele>176.54</ele>
        <time>2014-02-17T14:42:10Z</time>
      </trkpt>
      <trkpt lat="43.50224" lon="5.24846">
        <ele>176.54</ele>
        <time>2014-02-17T14:42:11Z</time>
      </trkpt>
      <trkpt lat="43.50219" lon="5.24847">
        <ele>176.06</ele>
        <time>2014-02-17T14:42:16Z</time>
      </trkpt>
      <trkpt lat="43.50218" lon="5.24848">
        <ele>176.54</ele>
        <time>2014-02-17T14:42:17Z</time>
      </trkpt>
      <trkpt lat="43.50217" lon="5.24848">
        <ele>176.06</ele>
        <time>2014-02-17T14:42:18Z</time>
      </trkpt>
      <trkpt lat="43.50215" lon="5.24848">
        <ele>176.54</ele>
        <time>2014-02-17T14:42:19Z</time>
      </trkpt>
      <trkpt lat="43.50213" lon="5.24848">
        <ele>176.54</ele>
        <time>2014-02-17T14:42:20Z</time>
      </trkpt>
      <trkpt lat="43.50203" lon="5.24853">
        <ele>176.54</ele>
        <time>2014-02-17T14:42:30Z</time>
      </trkpt>
      <trkpt lat="43.50202" lon="5.24853">
        <ele>176.06</ele>
        <time>2014-02-17T14:42:31Z</time>
      </trkpt>
      <trkpt lat="43.50189" lon="5.24857">
        <ele>175.58</ele>
        <time>2014-02-17T14:42:41Z</time>
      </trkpt>
      <trkpt lat="43.50179" lon="5.2486">
        <ele>176.06</ele>
        <time>2014-02-17T14:42:51Z</time>
      </trkpt>
      <trkpt lat="43.5017" lon="5.24866">
        <ele>175.58</ele>
        <time>2014-02-17T14:43:01Z</time>
      </trkpt>
      <trkpt lat="43.50169" lon="5.24866">
        <ele>175.1</ele>
        <time>2014-02-17T14:43:02Z</time>
      </trkpt>
      <trkpt lat="43.50166" lon="5.24867">
        <ele>174.62</ele>
        <time>2014-02-17T14:43:06Z</time>
      </trkpt>
      <trkpt lat="43.50165" lon="5.24868">
        <ele>175.1</ele>
        <time>2014-02-17T14:43:07Z</time>
      </trkpt>
      <trkpt lat="43.50163" lon="5.24869">
        <ele>175.1</ele>
        <time>2014-02-17T14:43:08Z</time>
      </trkpt>
      <trkpt lat="43.50162" lon="5.24869">
        <ele>175.1</ele>
        <time>2014-02-17T14:43:09Z</time>
      </trkpt>
      <trkpt lat="43.50156" lon="5.24874">
        <ele>175.1</ele>
        <time>2014-02-17T14:43:15Z</time>
      </trkpt>
      <trkpt lat="43.50154" lon="5.24875">
        <ele>175.1</ele>
        <time>2014-02-17T14:43:16Z</time>
      </trkpt>
      <trkpt lat="43.50148" lon="5.24879">
        <ele>174.62</ele>
        <time>2014-02-17T14:43:22Z</time>
      </trkpt>
      <trkpt lat="43.50144" lon="5.24881">
        <ele>174.62</ele>
        <time>2014-02-17T14:43:26Z</time>
      </trkpt>
      <trkpt lat="43.50143" lon="5.24882">
        <ele>174.14</ele>
        <time>2014-02-17T14:43:27Z</time>
      </trkpt>
      <trkpt lat="43.50142" lon="5.24883">
        <ele>174.14</ele>
        <time>2014-02-17T14:43:28Z</time>
      </trkpt>
      <trkpt lat="43.5014" lon="5.24884">
        <ele>173.66</ele>
        <time>2014-02-17T14:43:29Z</time>
      </trkpt>
      <trkpt lat="43.50139" lon="5.24885">
        <ele>173.66</ele>
        <time>2014-02-17T14:43:30Z</time>
      </trkpt>
      <trkpt lat="43.50136" lon="5.24886">
        <ele>173.66</ele>
        <time>2014-02-17T14:43:33Z</time>
      </trkpt>
      <trkpt lat="43.50135" lon="5.24886">
        <ele>173.66</ele>
        <time>2014-02-17T14:43:34Z</time>
      </trkpt>
      <trkpt lat="43.50134" lon="5.24886">
        <ele>173.66</ele>
        <time>2014-02-17T14:43:35Z</time>
      </trkpt>
      <trkpt lat="43.50132" lon="5.24887">
        <ele>173.66</ele>
        <time>2014-02-17T14:43:36Z</time>
      </trkpt>
      <trkpt lat="43.50131" lon="5.24887">
        <ele>173.66</ele>
        <time>2014-02-17T14:43:37Z</time>
      </trkpt>
      <trkpt lat="43.50119" lon="5.24891">
        <ele>174.62</ele>
        <time>2014-02-17T14:43:48Z</time>
      </trkpt>
      <trkpt lat="43.50107" lon="5.24896">
        <ele>173.66</ele>
        <time>2014-02-17T14:43:58Z</time>
      </trkpt>
      <trkpt lat="43.50098" lon="5.24901">
        <ele>173.17</ele>
        <time>2014-02-17T14:44:07Z</time>
      </trkpt>
      <trkpt lat="43.50096" lon="5.24903">
        <ele>173.17</ele>
        <time>2014-02-17T14:44:09Z</time>
      </trkpt>
      <trkpt lat="43.50095" lon="5.24904">
        <ele>173.17</ele>
        <time>2014-02-17T14:44:18Z</time>
      </trkpt>
      <trkpt lat="43.50094" lon="5.24904">
        <ele>173.17</ele>
        <time>2014-02-17T14:44:19Z</time>
      </trkpt>
      <trkpt lat="43.50087" lon="5.24904">
        <ele>173.17</ele>
        <time>2014-02-17T14:44:27Z</time>
      </trkpt>
      <trkpt lat="43.5008" lon="5.24903">
        <ele>172.69</ele>
        <time>2014-02-17T14:44:33Z</time>
      </trkpt>
      <trkpt lat="43.50079" lon="5.24902">
        <ele>173.17</ele>
        <time>2014-02-17T14:44:34Z</time>
      </trkpt>
      <trkpt lat="43.50065" lon="5.249">
        <ele>171.73</ele>
        <time>2014-02-17T14:44:45Z</time>
      </trkpt>
      <trkpt lat="43.50061" lon="5.24901">
        <ele>170.77</ele>
        <time>2014-02-17T14:44:50Z</time>
      </trkpt>
      <trkpt lat="43.50059" lon="5.24902">
        <ele>171.25</ele>
        <time>2014-02-17T14:44:51Z</time>
      </trkpt>
      <trkpt lat="43.50058" lon="5.24902">
        <ele>170.77</ele>
        <time>2014-02-17T14:44:52Z</time>
      </trkpt>
      <trkpt lat="43.50046" lon="5.24905">
        <ele>171.73</ele>
        <time>2014-02-17T14:45:02Z</time>
      </trkpt>
      <trkpt lat="43.50035" lon="5.24904">
        <ele>171.73</ele>
        <time>2014-02-17T14:45:12Z</time>
      </trkpt>
      <trkpt lat="43.50024" lon="5.24903">
        <ele>172.69</ele>
        <time>2014-02-17T14:45:22Z</time>
      </trkpt>
      <trkpt lat="43.50015" lon="5.24903">
        <ele>172.69</ele>
        <time>2014-02-17T14:45:30Z</time>
      </trkpt>
      <trkpt lat="43.50014" lon="5.24904">
        <ele>172.21</ele>
        <time>2014-02-17T14:45:31Z</time>
      </trkpt>
      <trkpt lat="43.50012" lon="5.24904">
        <ele>172.21</ele>
        <time>2014-02-17T14:45:32Z</time>
      </trkpt>
      <trkpt lat="43.50011" lon="5.24904">
        <ele>172.21</ele>
        <time>2014-02-17T14:45:33Z</time>
      </trkpt>
      <trkpt lat="43.50009" lon="5.24905">
        <ele>172.69</ele>
        <time>2014-02-17T14:45:34Z</time>
      </trkpt>
      <trkpt lat="43.49997" lon="5.24909">
        <ele>171.73</ele>
        <time>2014-02-17T14:45:45Z</time>
      </trkpt>
      <trkpt lat="43.49996" lon="5.24909">
        <ele>171.73</ele>
        <time>2014-02-17T14:45:46Z</time>
      </trkpt>
      <trkpt lat="43.49994" lon="5.24911">
        <ele>171.25</ele>
        <time>2014-02-17T14:45:48Z</time>
      </trkpt>
      <trkpt lat="43.49988" lon="5.24914">
        <ele>171.73</ele>
        <time>2014-02-17T14:45:53Z</time>
      </trkpt>
      <trkpt lat="43.49987" lon="5.24915">
        <ele>171.73</ele>
        <time>2014-02-17T14:45:54Z</time>
      </trkpt>
      <trkpt lat="43.49986" lon="5.24915">
        <ele>171.73</ele>
        <time>2014-02-17T14:45:55Z</time>
      </trkpt>
      <trkpt lat="43.49984" lon="5.24916">
        <ele>171.25</ele>
        <time>2014-02-17T14:45:56Z</time>
      </trkpt>
      <trkpt lat="43.49981" lon="5.24918">
        <ele>171.25</ele>
        <time>2014-02-17T14:46:00Z</time>
      </trkpt>
      <trkpt lat="43.4998" lon="5.24919">
        <ele>171.25</ele>
        <time>2014-02-17T14:46:01Z</time>
      </trkpt>
      <trkpt lat="43.49978" lon="5.2492">
        <ele>171.25</ele>
        <time>2014-02-17T14:46:02Z</time>
      </trkpt>
      <trkpt lat="43.49977" lon="5.2492">
        <ele>171.73</ele>
        <time>2014-02-17T14:46:03Z</time>
      </trkpt>
      <trkpt lat="43.49975" lon="5.24921">
        <ele>171.73</ele>
        <time>2014-02-17T14:46:04Z</time>
      </trkpt>
      <trkpt lat="43.49963" lon="5.24925">
        <ele>172.21</ele>
        <time>2014-02-17T14:46:15Z</time>
      </trkpt>
      <trkpt lat="43.49952" lon="5.2493">
        <ele>171.73</ele>
        <time>2014-02-17T14:46:25Z</time>
      </trkpt>
      <trkpt lat="43.49941" lon="5.24936">
        <ele>171.25</ele>
        <time>2014-02-17T14:46:35Z</time>
      </trkpt>
      <trkpt lat="43.49939" lon="5.24937">
        <ele>171.25</ele>
        <time>2014-02-17T14:46:37Z</time>
      </trkpt>
      <trkpt lat="43.49938" lon="5.24938">
        <ele>171.25</ele>
        <time>2014-02-17T14:46:38Z</time>
      </trkpt>
      <trkpt lat="43.49937" lon="5.2494">
        <ele>170.77</ele>
        <time>2014-02-17T14:46:39Z</time>
      </trkpt>
      <trkpt lat="43.49936" lon="5.24941">
        <ele>171.25</ele>
        <time>2014-02-17T14:46:40Z</time>
      </trkpt>
      <trkpt lat="43.49934" lon="5.24941">
        <ele>171.73</ele>
        <time>2014-02-17T14:46:41Z</time>
      </trkpt>
      <trkpt lat="43.49932" lon="5.24941">
        <ele>171.25</ele>
        <time>2014-02-17T14:46:44Z</time>
      </trkpt>
      <trkpt lat="43.49931" lon="5.24941">
        <ele>171.25</ele>
        <time>2014-02-17T14:46:45Z</time>
      </trkpt>
      <trkpt lat="43.4993" lon="5.24941">
        <ele>171.25</ele>
        <time>2014-02-17T14:46:46Z</time>
      </trkpt>
      <trkpt lat="43.49928" lon="5.24941">
        <ele>171.73</ele>
        <time>2014-02-17T14:46:47Z</time>
      </trkpt>
      <trkpt lat="43.49926" lon="5.24941">
        <ele>171.25</ele>
        <time>2014-02-17T14:46:48Z</time>
      </trkpt>
      <trkpt lat="43.4992" lon="5.24939">
        <ele>171.25</ele>
        <time>2014-02-17T14:46:54Z</time>
      </trkpt>
      <trkpt lat="43.49908" lon="5.24935">
        <ele>172.21</ele>
        <time>2014-02-17T14:47:05Z</time>
      </trkpt>
      <trkpt lat="43.49908" lon="5.24935">
        <ele>171.73</ele>
        <time>2014-02-17T14:47:06Z</time>
      </trkpt>
      <trkpt lat="43.49906" lon="5.24935">
        <ele>172.69</ele>
        <time>2014-02-17T14:47:07Z</time>
      </trkpt>
      <trkpt lat="43.49905" lon="5.24934">
        <ele>172.21</ele>
        <time>2014-02-17T14:47:08Z</time>
      </trkpt>
      <trkpt lat="43.49903" lon="5.24933">
        <ele>172.69</ele>
        <time>2014-02-17T14:47:09Z</time>
      </trkpt>
      <trkpt lat="43.49901" lon="5.24933">
        <ele>172.21</ele>
        <time>2014-02-17T14:47:10Z</time>
      </trkpt>
      <trkpt lat="43.49898" lon="5.24931">
        <ele>171.73</ele>
        <time>2014-02-17T14:47:14Z</time>
      </trkpt>
      <trkpt lat="43.49897" lon="5.24931">
        <ele>171.25</ele>
        <time>2014-02-17T14:47:15Z</time>
      </trkpt>
      <trkpt lat="43.49895" lon="5.24931">
        <ele>171.73</ele>
        <time>2014-02-17T14:47:16Z</time>
      </trkpt>
      <trkpt lat="43.49894" lon="5.2493">
        <ele>171.25</ele>
        <time>2014-02-17T14:47:17Z</time>
      </trkpt>
      <trkpt lat="43.49892" lon="5.24929">
        <ele>172.21</ele>
        <time>2014-02-17T14:47:18Z</time>
      </trkpt>
      <trkpt lat="43.49881" lon="5.24925">
        <ele>171.73</ele>
        <time>2014-02-17T14:47:28Z</time>
      </trkpt>
      <trkpt lat="43.49868" lon="5.24922">
        <ele>171.73</ele>
        <time>2014-02-17T14:47:39Z</time>
      </trkpt>
      <trkpt lat="43.49856" lon="5.24917">
        <ele>170.77</ele>
        <time>2014-02-17T14:47:49Z</time>
      </trkpt>
      <trkpt lat="43.49844" lon="5.24916">
        <ele>170.29</ele>
        <time>2014-02-17T14:48:01Z</time>
      </trkpt>
      <trkpt lat="43.49838" lon="5.24915">
        <ele>170.29</ele>
        <time>2014-02-17T14:48:06Z</time>
      </trkpt>
      <trkpt lat="43.49836" lon="5.24915">
        <ele>170.29</ele>
        <time>2014-02-17T14:48:07Z</time>
      </trkpt>
      <trkpt lat="43.49835" lon="5.24915">
        <ele>170.77</ele>
        <time>2014-02-17T14:48:08Z</time>
      </trkpt>
      <trkpt lat="43.49833" lon="5.24915">
        <ele>171.25</ele>
        <time>2014-02-17T14:48:09Z</time>
      </trkpt>
      <trkpt lat="43.49832" lon="5.24915">
        <ele>170.77</ele>
        <time>2014-02-17T14:48:10Z</time>
      </trkpt>
      <trkpt lat="43.4982" lon="5.24913">
        <ele>169.81</ele>
        <time>2014-02-17T14:48:20Z</time>
      </trkpt>
      <trkpt lat="43.49811" lon="5.24905">
        <ele>170.29</ele>
        <time>2014-02-17T14:48:30Z</time>
      </trkpt>
      <trkpt lat="43.49805" lon="5.24894">
        <ele>170.29</ele>
        <time>2014-02-17T14:48:38Z</time>
      </trkpt>
      <trkpt lat="43.49803" lon="5.24887">
        <ele>170.29</ele>
        <time>2014-02-17T14:48:43Z</time>
      </trkpt>
      <trkpt lat="43.49802" lon="5.24886">
        <ele>170.29</ele>
        <time>2014-02-17T14:48:44Z</time>
      </trkpt>
      <trkpt lat="43.498" lon="5.24885">
        <ele>170.29</ele>
        <time>2014-02-17T14:48:45Z</time>
      </trkpt>
      <trkpt lat="43.49791" lon="5.24874">
        <ele>171.25</ele>
        <time>2014-02-17T14:48:55Z</time>
      </trkpt>
      <trkpt lat="43.4978" lon="5.24866">
        <ele>171.73</ele>
        <time>2014-02-17T14:49:05Z</time>
      </trkpt>
      <trkpt lat="43.49771" lon="5.24858">
        <ele>172.69</ele>
        <time>2014-02-17T14:49:15Z</time>
      </trkpt>
      <trkpt lat="43.49764" lon="5.24848">
        <ele>173.17</ele>
        <time>2014-02-17T14:49:24Z</time>
      </trkpt>
      <trkpt lat="43.49757" lon="5.24837">
        <ele>173.17</ele>
        <time>2014-02-17T14:49:34Z</time>
      </trkpt>
      <trkpt lat="43.49754" lon="5.24831">
        <ele>174.14</ele>
        <time>2014-02-17T14:49:39Z</time>
      </trkpt>
      <trkpt lat="43.49753" lon="5.24829">
        <ele>174.14</ele>
        <time>2014-02-17T14:49:40Z</time>
      </trkpt>
      <trkpt lat="43.49752" lon="5.24827">
        <ele>174.14</ele>
        <time>2014-02-17T14:49:41Z</time>
      </trkpt>
      <trkpt lat="43.49748" lon="5.24816">
        <ele>174.14</ele>
        <time>2014-02-17T14:49:50Z</time>
      </trkpt>
      <trkpt lat="43.49743" lon="5.24808">
        <ele>174.62</ele>
        <time>2014-02-17T14:49:57Z</time>
      </trkpt>
      <trkpt lat="43.49742" lon="5.24807">
        <ele>174.62</ele>
        <time>2014-02-17T14:49:58Z</time>
      </trkpt>
      <trkpt lat="43.49733" lon="5.24799">
        <ele>174.62</ele>
        <time>2014-02-17T14:50:07Z</time>
      </trkpt>
      <trkpt lat="43.49721" lon="5.24793">
        <ele>173.66</ele>
        <time>2014-02-17T14:50:17Z</time>
      </trkpt>
      <trkpt lat="43.4971" lon="5.24789">
        <ele>174.14</ele>
        <time>2014-02-17T14:50:27Z</time>
      </trkpt>
      <trkpt lat="43.49702" lon="5.24787">
        <ele>174.62</ele>
        <time>2014-02-17T14:50:35Z</time>
      </trkpt>
      <trkpt lat="43.497" lon="5.24787">
        <ele>175.1</ele>
        <time>2014-02-17T14:50:36Z</time>
      </trkpt>
      <trkpt lat="43.49699" lon="5.24786">
        <ele>174.62</ele>
        <time>2014-02-17T14:50:37Z</time>
      </trkpt>
      <trkpt lat="43.49698" lon="5.24785">
        <ele>174.62</ele>
        <time>2014-02-17T14:50:38Z</time>
      </trkpt>
      <trkpt lat="43.49689" lon="5.2478">
        <ele>173.66</ele>
        <time>2014-02-17T14:50:47Z</time>
      </trkpt>
      <trkpt lat="43.49683" lon="5.24774">
        <ele>173.66</ele>
        <time>2014-02-17T14:50:54Z</time>
      </trkpt>
      <trkpt lat="43.49682" lon="5.24772">
        <ele>173.66</ele>
        <time>2014-02-17T14:50:55Z</time>
      </trkpt>
      <trkpt lat="43.49674" lon="5.24759">
        <ele>173.17</ele>
        <time>2014-02-17T14:51:06Z</time>
      </trkpt>
      <trkpt lat="43.49667" lon="5.24745">
        <ele>174.14</ele>
        <time>2014-02-17T14:51:17Z</time>
      </trkpt>
      <trkpt lat="43.49663" lon="5.24739">
        <ele>174.14</ele>
        <time>2014-02-17T14:51:26Z</time>
      </trkpt>
      <trkpt lat="43.49662" lon="5.24738">
        <ele>174.14</ele>
        <time>2014-02-17T14:51:33Z</time>
      </trkpt>
      <trkpt lat="43.49661" lon="5.24737">
        <ele>173.66</ele>
        <time>2014-02-17T14:51:34Z</time>
      </trkpt>
      <trkpt lat="43.4966" lon="5.24735">
        <ele>175.1</ele>
        <time>2014-02-17T14:51:35Z</time>
      </trkpt>
      <trkpt lat="43.49652" lon="5.24726">
        <ele>174.14</ele>
        <time>2014-02-17T14:51:46Z</time>
      </trkpt>
      <trkpt lat="43.49643" lon="5.24719">
        <ele>173.66</ele>
        <time>2014-02-17T14:51:55Z</time>
      </trkpt>
      <trkpt lat="43.49641" lon="5.24717">
        <ele>173.66</ele>
        <time>2014-02-17T14:51:57Z</time>
      </trkpt>
      <trkpt lat="43.4964" lon="5.24717">
        <ele>173.66</ele>
        <time>2014-02-17T14:51:58Z</time>
      </trkpt>
      <trkpt lat="43.49639" lon="5.24716">
        <ele>173.17</ele>
        <time>2014-02-17T14:51:59Z</time>
      </trkpt>
      <trkpt lat="43.4963" lon="5.24708">
        <ele>173.17</ele>
        <time>2014-02-17T14:52:09Z</time>
      </trkpt>
      <trkpt lat="43.49623" lon="5.24696">
        <ele>173.17</ele>
        <time>2014-02-17T14:52:20Z</time>
      </trkpt>
      <trkpt lat="43.49618" lon="5.2469">
        <ele>174.14</ele>
        <time>2014-02-17T14:52:26Z</time>
      </trkpt>
      <trkpt lat="43.49617" lon="5.24688">
        <ele>173.66</ele>
        <time>2014-02-17T14:52:27Z</time>
      </trkpt>
      <trkpt lat="43.49617" lon="5.24686">
        <ele>174.14</ele>
        <time>2014-02-17T14:52:28Z</time>
      </trkpt>
      <trkpt lat="43.49616" lon="5.24684">
        <ele>175.1</ele>
        <time>2014-02-17T14:52:29Z</time>
      </trkpt>
      <trkpt lat="43.4961" lon="5.24677">
        <ele>174.62</ele>
        <time>2014-02-17T14:52:38Z</time>
      </trkpt>
      <trkpt lat="43.49607" lon="5.24671">
        <ele>175.1</ele>
        <time>2014-02-17T14:52:43Z</time>
      </trkpt>
      <trkpt lat="43.49606" lon="5.2467">
        <ele>174.62</ele>
        <time>2014-02-17T14:52:44Z</time>
      </trkpt>
      <trkpt lat="43.49599" lon="5.24661">
        <ele>174.62</ele>
        <time>2014-02-17T14:52:54Z</time>
      </trkpt>
      <trkpt lat="43.49594" lon="5.24655">
        <ele>175.1</ele>
        <time>2014-02-17T14:53:00Z</time>
      </trkpt>
      <trkpt lat="43.49593" lon="5.24653">
        <ele>175.1</ele>
        <time>2014-02-17T14:53:01Z</time>
      </trkpt>
      <trkpt lat="43.49585" lon="5.24644">
        <ele>176.54</ele>
        <time>2014-02-17T14:53:11Z</time>
      </trkpt>
      <trkpt lat="43.4958" lon="5.24642">
        <ele>177.5</ele>
        <time>2014-02-17T14:53:20Z</time>
      </trkpt>
      <trkpt lat="43.49579" lon="5.24641">
        <ele>177.02</ele>
        <time>2014-02-17T14:53:21Z</time>
      </trkpt>
      <trkpt lat="43.49579" lon="5.24639">
        <ele>177.5</ele>
        <time>2014-02-17T14:53:22Z</time>
      </trkpt>
      <trkpt lat="43.49577" lon="5.24638">
        <ele>177.02</ele>
        <time>2014-02-17T14:53:25Z</time>
      </trkpt>
      <trkpt lat="43.49575" lon="5.24637">
        <ele>177.02</ele>
        <time>2014-02-17T14:53:26Z</time>
      </trkpt>
      <trkpt lat="43.49574" lon="5.24636">
        <ele>176.54</ele>
        <time>2014-02-17T14:53:27Z</time>
      </trkpt>
      <trkpt lat="43.49563" lon="5.2463">
        <ele>177.5</ele>
        <time>2014-02-17T14:53:37Z</time>
      </trkpt>
      <trkpt lat="43.49556" lon="5.24625">
        <ele>177.98</ele>
        <time>2014-02-17T14:53:45Z</time>
      </trkpt>
      <trkpt lat="43.49555" lon="5.24624">
        <ele>178.46</ele>
        <time>2014-02-17T14:53:46Z</time>
      </trkpt>
      <trkpt lat="43.49553" lon="5.24623">
        <ele>178.46</ele>
        <time>2014-02-17T14:53:47Z</time>
      </trkpt>
      <trkpt lat="43.49544" lon="5.24617">
        <ele>179.9</ele>
        <time>2014-02-17T14:53:56Z</time>
      </trkpt>
      <trkpt lat="43.49544" lon="5.24616">
        <ele>179.9</ele>
        <time>2014-02-17T14:53:57Z</time>
      </trkpt>
      <trkpt lat="43.49542" lon="5.24615">
        <ele>179.42</ele>
        <time>2014-02-17T14:53:58Z</time>
      </trkpt>
      <trkpt lat="43.49541" lon="5.24614">
        <ele>179.9</ele>
        <time>2014-02-17T14:53:59Z</time>
      </trkpt>
      <trkpt lat="43.49532" lon="5.24608">
        <ele>180.38</ele>
        <time>2014-02-17T14:54:08Z</time>
      </trkpt>
      <trkpt lat="43.49526" lon="5.24604">
        <ele>180.38</ele>
        <time>2014-02-17T14:54:14Z</time>
      </trkpt>
      <trkpt lat="43.49524" lon="5.24603">
        <ele>179.9</ele>
        <time>2014-02-17T14:54:16Z</time>
      </trkpt>
      <trkpt lat="43.49523" lon="5.24603">
        <ele>179.9</ele>
        <time>2014-02-17T14:54:17Z</time>
      </trkpt>
      <trkpt lat="43.49521" lon="5.24602">
        <ele>179.42</ele>
        <time>2014-02-17T14:54:18Z</time>
      </trkpt>
      <trkpt lat="43.49519" lon="5.24601">
        <ele>179.42</ele>
        <time>2014-02-17T14:54:19Z</time>
      </trkpt>
      <trkpt lat="43.49518" lon="5.246">
        <ele>179.42</ele>
        <time>2014-02-17T14:54:20Z</time>
      </trkpt>
      <trkpt lat="43.49514" lon="5.246">
        <ele>178.94</ele>
        <time>2014-02-17T14:54:24Z</time>
      </trkpt>
      <trkpt lat="43.49513" lon="5.246">
        <ele>179.42</ele>
        <time>2014-02-17T14:54:25Z</time>
      </trkpt>
      <trkpt lat="43.49511" lon="5.246">
        <ele>179.42</ele>
        <time>2014-02-17T14:54:26Z</time>
      </trkpt>
      <trkpt lat="43.49507" lon="5.24601">
        <ele>178.94</ele>
        <time>2014-02-17T14:54:31Z</time>
      </trkpt>
      <trkpt lat="43.49504" lon="5.24601">
        <ele>178.46</ele>
        <time>2014-02-17T14:54:33Z</time>
      </trkpt>
      <trkpt lat="43.49503" lon="5.24602">
        <ele>178.46</ele>
        <time>2014-02-17T14:54:34Z</time>
      </trkpt>
      <trkpt lat="43.49501" lon="5.24602">
        <ele>178.46</ele>
        <time>2014-02-17T14:54:35Z</time>
      </trkpt>
      <trkpt lat="43.495" lon="5.24602">
        <ele>178.46</ele>
        <time>2014-02-17T14:54:36Z</time>
      </trkpt>
      <trkpt lat="43.49499" lon="5.24603">
        <ele>178.46</ele>
        <time>2014-02-17T14:54:37Z</time>
      </trkpt>
      <trkpt lat="43.49488" lon="5.24608">
        <ele>178.46</ele>
        <time>2014-02-17T14:54:47Z</time>
      </trkpt>
      <trkpt lat="43.49482" lon="5.24611">
        <ele>177.98</ele>
        <time>2014-02-17T14:54:53Z</time>
      </trkpt>
      <trkpt lat="43.4947" lon="5.24618">
        <ele>177.02</ele>
        <time>2014-02-17T14:55:04Z</time>
      </trkpt>
      <trkpt lat="43.49468" lon="5.24621">
        <ele>176.54</ele>
        <time>2014-02-17T14:55:06Z</time>
      </trkpt>
      <trkpt lat="43.49466" lon="5.24621">
        <ele>176.54</ele>
        <time>2014-02-17T14:55:07Z</time>
      </trkpt>
      <trkpt lat="43.49457" lon="5.24624">
        <ele>176.54</ele>
        <time>2014-02-17T14:55:17Z</time>
      </trkpt>
      <trkpt lat="43.49454" lon="5.24624">
        <ele>177.02</ele>
        <time>2014-02-17T14:55:19Z</time>
      </trkpt>
      <trkpt lat="43.49452" lon="5.24624">
        <ele>176.54</ele>
        <time>2014-02-17T14:55:22Z</time>
      </trkpt>
      <trkpt lat="43.4945" lon="5.24624">
        <ele>176.06</ele>
        <time>2014-02-17T14:55:24Z</time>
      </trkpt>
      <trkpt lat="43.49448" lon="5.24625">
        <ele>176.06</ele>
        <time>2014-02-17T14:55:25Z</time>
      </trkpt>
      <trkpt lat="43.49438" lon="5.24626">
        <ele>175.58</ele>
        <time>2014-02-17T14:55:35Z</time>
      </trkpt>
      <trkpt lat="43.49437" lon="5.24626">
        <ele>175.58</ele>
        <time>2014-02-17T14:55:36Z</time>
      </trkpt>
      <trkpt lat="43.49435" lon="5.24626">
        <ele>175.1</ele>
        <time>2014-02-17T14:55:37Z</time>
      </trkpt>
      <trkpt lat="43.49434" lon="5.24626">
        <ele>175.1</ele>
        <time>2014-02-17T14:55:38Z</time>
      </trkpt>
      <trkpt lat="43.49432" lon="5.24626">
        <ele>175.1</ele>
        <time>2014-02-17T14:55:39Z</time>
      </trkpt>
      <trkpt lat="43.49431" lon="5.24626">
        <ele>175.1</ele>
        <time>2014-02-17T14:55:40Z</time>
      </trkpt>
      <trkpt lat="43.49428" lon="5.24627">
        <ele>175.1</ele>
        <time>2014-02-17T14:55:44Z</time>
      </trkpt>
      <trkpt lat="43.49414" lon="5.24628">
        <ele>174.14</ele>
        <time>2014-02-17T14:55:55Z</time>
      </trkpt>
      <trkpt lat="43.49406" lon="5.24626">
        <ele>174.14</ele>
        <time>2014-02-17T14:56:03Z</time>
      </trkpt>
      <trkpt lat="43.49404" lon="5.24626">
        <ele>174.62</ele>
        <time>2014-02-17T14:56:05Z</time>
      </trkpt>
      <trkpt lat="43.49394" lon="5.24626">
        <ele>174.62</ele>
        <time>2014-02-17T14:56:15Z</time>
      </trkpt>
      <trkpt lat="43.49382" lon="5.24623">
        <ele>173.66</ele>
        <time>2014-02-17T14:56:25Z</time>
      </trkpt>
      <trkpt lat="43.49378" lon="5.24621">
        <ele>173.17</ele>
        <time>2014-02-17T14:56:30Z</time>
      </trkpt>
      <trkpt lat="43.49372" lon="5.24614">
        <ele>172.69</ele>
        <time>2014-02-17T14:56:37Z</time>
      </trkpt>
      <trkpt lat="43.4937" lon="5.24613">
        <ele>172.21</ele>
        <time>2014-02-17T14:56:38Z</time>
      </trkpt>
      <trkpt lat="43.49369" lon="5.24613">
        <ele>172.69</ele>
        <time>2014-02-17T14:56:39Z</time>
      </trkpt>
      <trkpt lat="43.49358" lon="5.24606">
        <ele>173.66</ele>
        <time>2014-02-17T14:56:49Z</time>
      </trkpt>
      <trkpt lat="43.49347" lon="5.24599">
        <ele>174.62</ele>
        <time>2014-02-17T14:57:00Z</time>
      </trkpt>
      <trkpt lat="43.49335" lon="5.24592">
        <ele>176.06</ele>
        <time>2014-02-17T14:57:10Z</time>
      </trkpt>
      <trkpt lat="43.49334" lon="5.24592">
        <ele>175.58</ele>
        <time>2014-02-17T14:57:21Z</time>
      </trkpt>
      <trkpt lat="43.4933" lon="5.2459">
        <ele>176.06</ele>
        <time>2014-02-17T14:57:40Z</time>
      </trkpt>
      <trkpt lat="43.49326" lon="5.24586">
        <ele>176.54</ele>
        <time>2014-02-17T14:57:45Z</time>
      </trkpt>
      <trkpt lat="43.49324" lon="5.24585">
        <ele>177.02</ele>
        <time>2014-02-17T14:57:46Z</time>
      </trkpt>
      <trkpt lat="43.49323" lon="5.24583">
        <ele>177.02</ele>
        <time>2014-02-17T14:57:47Z</time>
      </trkpt>
      <trkpt lat="43.49321" lon="5.24581">
        <ele>177.02</ele>
        <time>2014-02-17T14:57:50Z</time>
      </trkpt>
      <trkpt lat="43.4932" lon="5.2458">
        <ele>176.54</ele>
        <time>2014-02-17T14:57:51Z</time>
      </trkpt>
      <trkpt lat="43.49319" lon="5.24579">
        <ele>177.02</ele>
        <time>2014-02-17T14:57:52Z</time>
      </trkpt>
      <trkpt lat="43.49318" lon="5.24578">
        <ele>176.54</ele>
        <time>2014-02-17T14:57:53Z</time>
      </trkpt>
      <trkpt lat="43.49317" lon="5.24576">
        <ele>176.54</ele>
        <time>2014-02-17T14:57:54Z</time>
      </trkpt>
      <trkpt lat="43.4931" lon="5.24563">
        <ele>176.54</ele>
        <time>2014-02-17T14:58:04Z</time>
      </trkpt>
      <trkpt lat="43.49309" lon="5.24562">
        <ele>176.06</ele>
        <time>2014-02-17T14:58:05Z</time>
      </trkpt>
      <trkpt lat="43.49309" lon="5.2456">
        <ele>176.54</ele>
        <time>2014-02-17T14:58:06Z</time>
      </trkpt>
      <trkpt lat="43.49307" lon="5.24559">
        <ele>176.54</ele>
        <time>2014-02-17T14:58:07Z</time>
      </trkpt>
      <trkpt lat="43.49306" lon="5.24557">
        <ele>176.54</ele>
        <time>2014-02-17T14:58:08Z</time>
      </trkpt>
      <trkpt lat="43.49305" lon="5.24555">
        <ele>176.54</ele>
        <time>2014-02-17T14:58:09Z</time>
      </trkpt>
      <trkpt lat="43.49302" lon="5.24549">
        <ele>176.06</ele>
        <time>2014-02-17T14:58:15Z</time>
      </trkpt>
      <trkpt lat="43.49301" lon="5.24547">
        <ele>176.06</ele>
        <time>2014-02-17T14:58:16Z</time>
      </trkpt>
      <trkpt lat="43.49293" lon="5.24532">
        <ele>175.58</ele>
        <time>2014-02-17T14:58:27Z</time>
      </trkpt>
      <trkpt lat="43.49292" lon="5.2453">
        <ele>175.1</ele>
        <time>2014-02-17T14:58:29Z</time>
      </trkpt>
      <trkpt lat="43.49292" lon="5.24529">
        <ele>174.62</ele>
        <time>2014-02-17T14:58:30Z</time>
      </trkpt>
      <trkpt lat="43.49291" lon="5.24528">
        <ele>174.62</ele>
        <time>2014-02-17T14:58:31Z</time>
      </trkpt>
      <trkpt lat="43.4929" lon="5.24526">
        <ele>175.1</ele>
        <time>2014-02-17T14:58:32Z</time>
      </trkpt>
      <trkpt lat="43.49289" lon="5.24524">
        <ele>175.1</ele>
        <time>2014-02-17T14:58:33Z</time>
      </trkpt>
      <trkpt lat="43.49288" lon="5.24521">
        <ele>176.06</ele>
        <time>2014-02-17T14:58:36Z</time>
      </trkpt>
      <trkpt lat="43.49287" lon="5.2452">
        <ele>175.58</ele>
        <time>2014-02-17T14:58:37Z</time>
      </trkpt>
      <trkpt lat="43.49286" lon="5.24518">
        <ele>175.1</ele>
        <time>2014-02-17T14:58:38Z</time>
      </trkpt>
      <trkpt lat="43.49285" lon="5.24516">
        <ele>175.58</ele>
        <time>2014-02-17T14:58:39Z</time>
      </trkpt>
      <trkpt lat="43.49283" lon="5.24514">
        <ele>176.06</ele>
        <time>2014-02-17T14:58:40Z</time>
      </trkpt>
      <trkpt lat="43.49278" lon="5.24502">
        <ele>176.06</ele>
        <time>2014-02-17T14:58:50Z</time>
      </trkpt>
      <trkpt lat="43.49274" lon="5.24489">
        <ele>177.5</ele>
        <time>2014-02-17T14:58:59Z</time>
      </trkpt>
      <trkpt lat="43.49265" lon="5.24476">
        <ele>177.5</ele>
        <time>2014-02-17T14:59:09Z</time>
      </trkpt>
      <trkpt lat="43.49256" lon="5.24469">
        <ele>177.98</ele>
        <time>2014-02-17T14:59:19Z</time>
      </trkpt>
      <trkpt lat="43.49247" lon="5.24456">
        <ele>177.5</ele>
        <time>2014-02-17T14:59:29Z</time>
      </trkpt>
      <trkpt lat="43.49239" lon="5.24446">
        <ele>177.98</ele>
        <time>2014-02-17T14:59:39Z</time>
      </trkpt>
      <trkpt lat="43.49226" lon="5.24441">
        <ele>177.98</ele>
        <time>2014-02-17T14:59:50Z</time>
      </trkpt>
      <trkpt lat="43.4921" lon="5.24439">
        <ele>177.02</ele>
        <time>2014-02-17T15:00:03Z</time>
      </trkpt>
      <trkpt lat="43.49199" lon="5.24438">
        <ele>177.98</ele>
        <time>2014-02-17T15:00:13Z</time>
      </trkpt>
      <trkpt lat="43.49197" lon="5.24438">
        <ele>177.02</ele>
        <time>2014-02-17T15:00:15Z</time>
      </trkpt>
      <trkpt lat="43.49196" lon="5.24438">
        <ele>177.02</ele>
        <time>2014-02-17T15:00:16Z</time>
      </trkpt>
      <trkpt lat="43.49194" lon="5.24438">
        <ele>177.02</ele>
        <time>2014-02-17T15:00:17Z</time>
      </trkpt>
      <trkpt lat="43.49193" lon="5.24438">
        <ele>177.5</ele>
        <time>2014-02-17T15:00:18Z</time>
      </trkpt>
      <trkpt lat="43.49181" lon="5.2444">
        <ele>177.02</ele>
        <time>2014-02-17T15:00:29Z</time>
      </trkpt>
      <trkpt lat="43.49171" lon="5.24441">
        <ele>177.02</ele>
        <time>2014-02-17T15:00:37Z</time>
      </trkpt>
      <trkpt lat="43.49169" lon="5.24441">
        <ele>177.5</ele>
        <time>2014-02-17T15:00:38Z</time>
      </trkpt>
      <trkpt lat="43.49158" lon="5.24441">
        <ele>177.5</ele>
        <time>2014-02-17T15:00:48Z</time>
      </trkpt>
      <trkpt lat="43.49156" lon="5.24442">
        <ele>177.5</ele>
        <time>2014-02-17T15:00:50Z</time>
      </trkpt>
      <trkpt lat="43.49143" lon="5.24441">
        <ele>176.54</ele>
        <time>2014-02-17T15:01:00Z</time>
      </trkpt>
      <trkpt lat="43.49131" lon="5.2444">
        <ele>177.02</ele>
        <time>2014-02-17T15:01:11Z</time>
      </trkpt>
      <trkpt lat="43.4912" lon="5.24438">
        <ele>177.02</ele>
        <time>2014-02-17T15:01:21Z</time>
      </trkpt>
      <trkpt lat="43.49111" lon="5.24437">
        <ele>177.98</ele>
        <time>2014-02-17T15:01:29Z</time>
      </trkpt>
      <trkpt lat="43.4911" lon="5.24437">
        <ele>177.5</ele>
        <time>2014-02-17T15:01:30Z</time>
      </trkpt>
      <trkpt lat="43.49109" lon="5.24436">
        <ele>177.5</ele>
        <time>2014-02-17T15:01:31Z</time>
      </trkpt>
      <trkpt lat="43.49107" lon="5.24436">
        <ele>177.5</ele>
        <time>2014-02-17T15:01:32Z</time>
      </trkpt>
      <trkpt lat="43.49096" lon="5.24437">
        <ele>178.46</ele>
        <time>2014-02-17T15:01:42Z</time>
      </trkpt>
      <trkpt lat="43.49094" lon="5.24437">
        <ele>177.98</ele>
        <time>2014-02-17T15:01:43Z</time>
      </trkpt>
      <trkpt lat="43.49093" lon="5.24437">
        <ele>177.98</ele>
        <time>2014-02-17T15:01:44Z</time>
      </trkpt>
      <trkpt lat="43.49085" lon="5.24439">
        <ele>177.98</ele>
        <time>2014-02-17T15:01:54Z</time>
      </trkpt>
      <trkpt lat="43.49084" lon="5.24439">
        <ele>177.98</ele>
        <time>2014-02-17T15:01:55Z</time>
      </trkpt>
      <trkpt lat="43.49083" lon="5.24438">
        <ele>177.98</ele>
        <time>2014-02-17T15:01:56Z</time>
      </trkpt>
      <trkpt lat="43.49077" lon="5.24436">
        <ele>178.46</ele>
        <time>2014-02-17T15:02:03Z</time>
      </trkpt>
      <trkpt lat="43.49076" lon="5.24435">
        <ele>178.46</ele>
        <time>2014-02-17T15:02:04Z</time>
      </trkpt>
      <trkpt lat="43.49071" lon="5.24431">
        <ele>179.42</ele>
        <time>2014-02-17T15:02:10Z</time>
      </trkpt>
      <trkpt lat="43.49065" lon="5.24433">
        <ele>178.94</ele>
        <time>2014-02-17T15:02:21Z</time>
      </trkpt>
      <trkpt lat="43.49065" lon="5.24434">
        <ele>178.94</ele>
        <time>2014-02-17T15:02:44Z</time>
      </trkpt>
      <trkpt lat="43.49064" lon="5.24433">
        <ele>178.46</ele>
        <time>2014-02-17T15:03:05Z</time>
      </trkpt>
      <trkpt lat="43.49063" lon="5.24433">
        <ele>178.46</ele>
        <time>2014-02-17T15:03:08Z</time>
      </trkpt>
      <trkpt lat="43.49061" lon="5.24434">
        <ele>178.94</ele>
        <time>2014-02-17T15:03:11Z</time>
      </trkpt>
      <trkpt lat="43.49054" lon="5.24441">
        <ele>178.94</ele>
        <time>2014-02-17T15:03:21Z</time>
      </trkpt>
      <trkpt lat="43.4905" lon="5.24442">
        <ele>178.94</ele>
        <time>2014-02-17T15:03:36Z</time>
      </trkpt>
      <trkpt lat="43.49051" lon="5.24443">
        <ele>178.94</ele>
        <time>2014-02-17T15:04:03Z</time>
      </trkpt>
      <trkpt lat="43.49052" lon="5.24445">
        <ele>178.94</ele>
        <time>2014-02-17T15:04:21Z</time>
      </trkpt>
      <trkpt lat="43.49052" lon="5.24444">
        <ele>179.42</ele>
        <time>2014-02-17T15:04:40Z</time>
      </trkpt>
      <trkpt lat="43.49056" lon="5.24436">
        <ele>178.46</ele>
        <time>2014-02-17T15:05:06Z</time>
      </trkpt>
      <trkpt lat="43.49062" lon="5.24438">
        <ele>178.46</ele>
        <time>2014-02-17T15:05:40Z</time>
      </trkpt>
      <trkpt lat="43.49061" lon="5.24439">
        <ele>178.46</ele>
        <time>2014-02-17T15:06:13Z</time>
      </trkpt>
      <trkpt lat="43.4906" lon="5.24443">
        <ele>178.94</ele>
        <time>2014-02-17T15:06:44Z</time>
      </trkpt>
      <trkpt lat="43.49061" lon="5.24444">
        <ele>178.94</ele>
        <time>2014-02-17T15:07:19Z</time>
      </trkpt>
      <trkpt lat="43.49056" lon="5.24445">
        <ele>179.42</ele>
        <time>2014-02-17T15:07:54Z</time>
      </trkpt>
      <trkpt lat="43.49055" lon="5.24447">
        <ele>179.42</ele>
        <time>2014-02-17T15:08:11Z</time>
      </trkpt>
      <trkpt lat="43.49058" lon="5.2445">
        <ele>179.42</ele>
        <time>2014-02-17T15:08:16Z</time>
      </trkpt>
      <trkpt lat="43.49058" lon="5.24459">
        <ele>178.46</ele>
        <time>2014-02-17T15:08:25Z</time>
      </trkpt>
      <trkpt lat="43.49059" lon="5.24461">
        <ele>178.94</ele>
        <time>2014-02-17T15:08:27Z</time>
      </trkpt>
      <trkpt lat="43.49056" lon="5.24473">
        <ele>177.98</ele>
        <time>2014-02-17T15:08:36Z</time>
      </trkpt>
      <trkpt lat="43.49051" lon="5.24488">
        <ele>177.5</ele>
        <time>2014-02-17T15:08:47Z</time>
      </trkpt>
      <trkpt lat="43.49047" lon="5.24504">
        <ele>177.02</ele>
        <time>2014-02-17T15:08:58Z</time>
      </trkpt>
      <trkpt lat="43.49042" lon="5.24518">
        <ele>176.06</ele>
        <time>2014-02-17T15:09:08Z</time>
      </trkpt>
      <trkpt lat="43.49042" lon="5.24519">
        <ele>176.06</ele>
        <time>2014-02-17T15:09:09Z</time>
      </trkpt>
      <trkpt lat="43.49042" lon="5.2452">
        <ele>176.06</ele>
        <time>2014-02-17T15:09:10Z</time>
      </trkpt>
      <trkpt lat="43.49041" lon="5.24522">
        <ele>176.06</ele>
        <time>2014-02-17T15:09:11Z</time>
      </trkpt>
      <trkpt lat="43.4904" lon="5.24524">
        <ele>176.06</ele>
        <time>2014-02-17T15:09:12Z</time>
      </trkpt>
      <trkpt lat="43.49038" lon="5.24528">
        <ele>176.06</ele>
        <time>2014-02-17T15:09:16Z</time>
      </trkpt>
      <trkpt lat="43.49034" lon="5.24536">
        <ele>176.06</ele>
        <time>2014-02-17T15:09:22Z</time>
      </trkpt>
      <trkpt lat="43.49033" lon="5.24537">
        <ele>176.06</ele>
        <time>2014-02-17T15:09:23Z</time>
      </trkpt>
      <trkpt lat="43.49033" lon="5.24539">
        <ele>176.06</ele>
        <time>2014-02-17T15:09:24Z</time>
      </trkpt>
      <trkpt lat="43.49026" lon="5.24552">
        <ele>176.06</ele>
        <time>2014-02-17T15:09:34Z</time>
      </trkpt>
      <trkpt lat="43.49021" lon="5.24563">
        <ele>175.1</ele>
        <time>2014-02-17T15:09:43Z</time>
      </trkpt>
      <trkpt lat="43.49019" lon="5.24581">
        <ele>174.62</ele>
        <time>2014-02-17T15:09:53Z</time>
      </trkpt>
      <trkpt lat="43.49019" lon="5.24588">
        <ele>174.14</ele>
        <time>2014-02-17T15:09:58Z</time>
      </trkpt>
      <trkpt lat="43.49019" lon="5.24589">
        <ele>174.14</ele>
        <time>2014-02-17T15:09:59Z</time>
      </trkpt>
      <trkpt lat="43.49019" lon="5.24592">
        <ele>174.14</ele>
        <time>2014-02-17T15:10:00Z</time>
      </trkpt>
      <trkpt lat="43.49019" lon="5.24597">
        <ele>174.14</ele>
        <time>2014-02-17T15:10:04Z</time>
      </trkpt>
      <trkpt lat="43.49019" lon="5.24599">
        <ele>173.66</ele>
        <time>2014-02-17T15:10:05Z</time>
      </trkpt>
      <trkpt lat="43.49019" lon="5.24601">
        <ele>174.14</ele>
        <time>2014-02-17T15:10:06Z</time>
      </trkpt>
      <trkpt lat="43.49019" lon="5.24603">
        <ele>173.17</ele>
        <time>2014-02-17T15:10:07Z</time>
      </trkpt>
      <trkpt lat="43.49018" lon="5.24606">
        <ele>173.66</ele>
        <time>2014-02-17T15:10:08Z</time>
      </trkpt>
      <trkpt lat="43.49018" lon="5.24611">
        <ele>174.14</ele>
        <time>2014-02-17T15:10:12Z</time>
      </trkpt>
      <trkpt lat="43.49018" lon="5.24612">
        <ele>173.66</ele>
        <time>2014-02-17T15:10:13Z</time>
      </trkpt>
      <trkpt lat="43.49017" lon="5.2462">
        <ele>173.17</ele>
        <time>2014-02-17T15:10:18Z</time>
      </trkpt>
      <trkpt lat="43.49017" lon="5.24621">
        <ele>173.17</ele>
        <time>2014-02-17T15:10:19Z</time>
      </trkpt>
      <trkpt lat="43.49017" lon="5.24623">
        <ele>173.17</ele>
        <time>2014-02-17T15:10:20Z</time>
      </trkpt>
      <trkpt lat="43.49017" lon="5.24626">
        <ele>172.69</ele>
        <time>2014-02-17T15:10:21Z</time>
      </trkpt>
      <trkpt lat="43.49017" lon="5.24628">
        <ele>173.17</ele>
        <time>2014-02-17T15:10:22Z</time>
      </trkpt>
      <trkpt lat="43.49016" lon="5.24644">
        <ele>172.21</ele>
        <time>2014-02-17T15:10:33Z</time>
      </trkpt>
      <trkpt lat="43.49016" lon="5.2466">
        <ele>171.73</ele>
        <time>2014-02-17T15:10:43Z</time>
      </trkpt>
      <trkpt lat="43.49017" lon="5.24677">
        <ele>171.25</ele>
        <time>2014-02-17T15:10:53Z</time>
      </trkpt>
      <trkpt lat="43.49016" lon="5.24693">
        <ele>170.77</ele>
        <time>2014-02-17T15:11:04Z</time>
      </trkpt>
      <trkpt lat="43.4901" lon="5.24699">
        <ele>170.29</ele>
        <time>2014-02-17T15:11:11Z</time>
      </trkpt>
      <trkpt lat="43.49009" lon="5.247">
        <ele>170.29</ele>
        <time>2014-02-17T15:11:12Z</time>
      </trkpt>
      <trkpt lat="43.49" lon="5.24705">
        <ele>169.81</ele>
        <time>2014-02-17T15:11:21Z</time>
      </trkpt>
      <trkpt lat="43.48993" lon="5.24711">
        <ele>170.29</ele>
        <time>2014-02-17T15:11:29Z</time>
      </trkpt>
      <trkpt lat="43.48992" lon="5.24713">
        <ele>169.81</ele>
        <time>2014-02-17T15:11:30Z</time>
      </trkpt>
      <trkpt lat="43.48992" lon="5.24715">
        <ele>170.29</ele>
        <time>2014-02-17T15:11:31Z</time>
      </trkpt>
      <trkpt lat="43.48989" lon="5.24721">
        <ele>169.81</ele>
        <time>2014-02-17T15:11:36Z</time>
      </trkpt>
      <trkpt lat="43.48989" lon="5.24723">
        <ele>170.29</ele>
        <time>2014-02-17T15:11:37Z</time>
      </trkpt>
      <trkpt lat="43.48988" lon="5.24725">
        <ele>169.81</ele>
        <time>2014-02-17T15:11:38Z</time>
      </trkpt>
      <trkpt lat="43.48982" lon="5.24737">
        <ele>169.81</ele>
        <time>2014-02-17T15:11:47Z</time>
      </trkpt>
      <trkpt lat="43.48976" lon="5.24748">
        <ele>169.81</ele>
        <time>2014-02-17T15:11:56Z</time>
      </trkpt>
      <trkpt lat="43.48971" lon="5.24765">
        <ele>169.33</ele>
        <time>2014-02-17T15:12:07Z</time>
      </trkpt>
      <trkpt lat="43.48968" lon="5.24777">
        <ele>168.85</ele>
        <time>2014-02-17T15:12:16Z</time>
      </trkpt>
      <trkpt lat="43.48968" lon="5.24788">
        <ele>168.37</ele>
        <time>2014-02-17T15:12:23Z</time>
      </trkpt>
      <trkpt lat="43.48968" lon="5.24791">
        <ele>167.89</ele>
        <time>2014-02-17T15:12:25Z</time>
      </trkpt>
      <trkpt lat="43.48966" lon="5.24808">
        <ele>166.93</ele>
        <time>2014-02-17T15:12:36Z</time>
      </trkpt>
      <trkpt lat="43.48961" lon="5.24822">
        <ele>165.96</ele>
        <time>2014-02-17T15:12:46Z</time>
      </trkpt>
      <trkpt lat="43.48958" lon="5.24832">
        <ele>165.96</ele>
        <time>2014-02-17T15:12:53Z</time>
      </trkpt>
      <trkpt lat="43.48957" lon="5.24834">
        <ele>165.48</ele>
        <time>2014-02-17T15:12:54Z</time>
      </trkpt>
      <trkpt lat="43.48957" lon="5.24836">
        <ele>165.48</ele>
        <time>2014-02-17T15:12:55Z</time>
      </trkpt>
      <trkpt lat="43.48952" lon="5.24841">
        <ele>165.48</ele>
        <time>2014-02-17T15:13:01Z</time>
      </trkpt>
      <trkpt lat="43.48951" lon="5.24842">
        <ele>165.96</ele>
        <time>2014-02-17T15:13:02Z</time>
      </trkpt>
      <trkpt lat="43.48944" lon="5.24851">
        <ele>165.96</ele>
        <time>2014-02-17T15:13:11Z</time>
      </trkpt>
      <trkpt lat="43.48943" lon="5.24852">
        <ele>166.45</ele>
        <time>2014-02-17T15:13:12Z</time>
      </trkpt>
      <trkpt lat="43.48936" lon="5.24862">
        <ele>166.93</ele>
        <time>2014-02-17T15:13:22Z</time>
      </trkpt>
      <trkpt lat="43.48928" lon="5.24872">
        <ele>166.45</ele>
        <time>2014-02-17T15:13:32Z</time>
      </trkpt>
      <trkpt lat="43.48927" lon="5.24873">
        <ele>166.93</ele>
        <time>2014-02-17T15:13:33Z</time>
      </trkpt>
      <trkpt lat="43.48925" lon="5.24875">
        <ele>166.93</ele>
        <time>2014-02-17T15:13:35Z</time>
      </trkpt>
      <trkpt lat="43.48924" lon="5.24876">
        <ele>166.45</ele>
        <time>2014-02-17T15:13:36Z</time>
      </trkpt>
      <trkpt lat="43.48916" lon="5.24888">
        <ele>166.45</ele>
        <time>2014-02-17T15:13:47Z</time>
      </trkpt>
      <trkpt lat="43.48907" lon="5.24899">
        <ele>165.96</ele>
        <time>2014-02-17T15:13:57Z</time>
      </trkpt>
      <trkpt lat="43.48907" lon="5.249">
        <ele>165.96</ele>
        <time>2014-02-17T15:13:58Z</time>
      </trkpt>
      <trkpt lat="43.48907" lon="5.24902">
        <ele>165.96</ele>
        <time>2014-02-17T15:13:59Z</time>
      </trkpt>
      <trkpt lat="43.48907" lon="5.24903">
        <ele>165.96</ele>
        <time>2014-02-17T15:14:00Z</time>
      </trkpt>
      <trkpt lat="43.48907" lon="5.24905">
        <ele>165.96</ele>
        <time>2014-02-17T15:14:01Z</time>
      </trkpt>
      <trkpt lat="43.48906" lon="5.24908">
        <ele>165.96</ele>
        <time>2014-02-17T15:14:02Z</time>
      </trkpt>
      <trkpt lat="43.48902" lon="5.24913">
        <ele>165.96</ele>
        <time>2014-02-17T15:14:08Z</time>
      </trkpt>
      <trkpt lat="43.48896" lon="5.24918">
        <ele>165.48</ele>
        <time>2014-02-17T15:14:14Z</time>
      </trkpt>
      <trkpt lat="43.48895" lon="5.24919">
        <ele>165.48</ele>
        <time>2014-02-17T15:14:15Z</time>
      </trkpt>
      <trkpt lat="43.48892" lon="5.2492">
        <ele>165.48</ele>
        <time>2014-02-17T15:14:19Z</time>
      </trkpt>
      <trkpt lat="43.48891" lon="5.2492">
        <ele>165.48</ele>
        <time>2014-02-17T15:14:20Z</time>
      </trkpt>
      <trkpt lat="43.4889" lon="5.24921">
        <ele>165</ele>
        <time>2014-02-17T15:14:21Z</time>
      </trkpt>
      <trkpt lat="43.48888" lon="5.24921">
        <ele>165</ele>
        <time>2014-02-17T15:14:22Z</time>
      </trkpt>
      <trkpt lat="43.48887" lon="5.2492">
        <ele>165</ele>
        <time>2014-02-17T15:14:23Z</time>
      </trkpt>
      <trkpt lat="43.48876" lon="5.24923">
        <ele>165</ele>
        <time>2014-02-17T15:14:34Z</time>
      </trkpt>
      <trkpt lat="43.48867" lon="5.24927">
        <ele>164.52</ele>
        <time>2014-02-17T15:14:42Z</time>
      </trkpt>
      <trkpt lat="43.48866" lon="5.24927">
        <ele>164.52</ele>
        <time>2014-02-17T15:14:43Z</time>
      </trkpt>
      <trkpt lat="43.48864" lon="5.24928">
        <ele>165</ele>
        <time>2014-02-17T15:14:44Z</time>
      </trkpt>
      <trkpt lat="43.48854" lon="5.24934">
        <ele>163.56</ele>
        <time>2014-02-17T15:14:55Z</time>
      </trkpt>
      <trkpt lat="43.48841" lon="5.24945">
        <ele>163.08</ele>
        <time>2014-02-17T15:15:07Z</time>
      </trkpt>
      <trkpt lat="43.48836" lon="5.24948">
        <ele>162.6</ele>
        <time>2014-02-17T15:15:12Z</time>
      </trkpt>
      <trkpt lat="43.48835" lon="5.24949">
        <ele>162.6</ele>
        <time>2014-02-17T15:15:13Z</time>
      </trkpt>
      <trkpt lat="43.48833" lon="5.2495">
        <ele>162.12</ele>
        <time>2014-02-17T15:15:14Z</time>
      </trkpt>
      <trkpt lat="43.48832" lon="5.2495">
        <ele>162.6</ele>
        <time>2014-02-17T15:15:15Z</time>
      </trkpt>
      <trkpt lat="43.48822" lon="5.24954">
        <ele>161.64</ele>
        <time>2014-02-17T15:15:25Z</time>
      </trkpt>
      <trkpt lat="43.48818" lon="5.24955">
        <ele>161.64</ele>
        <time>2014-02-17T15:15:28Z</time>
      </trkpt>
      <trkpt lat="43.48816" lon="5.24955">
        <ele>161.64</ele>
        <time>2014-02-17T15:15:29Z</time>
      </trkpt>
      <trkpt lat="43.48815" lon="5.24955">
        <ele>161.64</ele>
        <time>2014-02-17T15:15:30Z</time>
      </trkpt>
      <trkpt lat="43.48812" lon="5.24957">
        <ele>160.68</ele>
        <time>2014-02-17T15:15:34Z</time>
      </trkpt>
      <trkpt lat="43.48811" lon="5.24958">
        <ele>160.68</ele>
        <time>2014-02-17T15:15:35Z</time>
      </trkpt>
      <trkpt lat="43.4881" lon="5.24959">
        <ele>160.68</ele>
        <time>2014-02-17T15:15:36Z</time>
      </trkpt>
      <trkpt lat="43.48808" lon="5.2496">
        <ele>160.68</ele>
        <time>2014-02-17T15:15:37Z</time>
      </trkpt>
      <trkpt lat="43.48798" lon="5.24967">
        <ele>161.16</ele>
        <time>2014-02-17T15:15:48Z</time>
      </trkpt>
      <trkpt lat="43.48784" lon="5.24976">
        <ele>161.16</ele>
        <time>2014-02-17T15:16:00Z</time>
      </trkpt>
      <trkpt lat="43.48773" lon="5.24979">
        <ele>161.64</ele>
        <time>2014-02-17T15:16:10Z</time>
      </trkpt>
      <trkpt lat="43.48768" lon="5.2498">
        <ele>162.12</ele>
        <time>2014-02-17T15:16:15Z</time>
      </trkpt>
      <trkpt lat="43.48759" lon="5.24984">
        <ele>162.12</ele>
        <time>2014-02-17T15:16:24Z</time>
      </trkpt>
      <trkpt lat="43.4875" lon="5.24985">
        <ele>161.64</ele>
        <time>2014-02-17T15:16:32Z</time>
      </trkpt>
      <trkpt lat="43.48749" lon="5.24986">
        <ele>161.64</ele>
        <time>2014-02-17T15:16:33Z</time>
      </trkpt>
      <trkpt lat="43.48739" lon="5.24989">
        <ele>160.68</ele>
        <time>2014-02-17T15:16:43Z</time>
      </trkpt>
      <trkpt lat="43.48738" lon="5.2499">
        <ele>161.64</ele>
        <time>2014-02-17T15:16:44Z</time>
      </trkpt>
      <trkpt lat="43.48736" lon="5.24991">
        <ele>161.64</ele>
        <time>2014-02-17T15:16:45Z</time>
      </trkpt>
      <trkpt lat="43.48729" lon="5.24996">
        <ele>161.64</ele>
        <time>2014-02-17T15:16:53Z</time>
      </trkpt>
      <trkpt lat="43.48728" lon="5.24996">
        <ele>161.64</ele>
        <time>2014-02-17T15:16:54Z</time>
      </trkpt>
      <trkpt lat="43.48726" lon="5.25002">
        <ele>161.64</ele>
        <time>2014-02-17T15:17:04Z</time>
      </trkpt>
      <trkpt lat="43.48725" lon="5.25003">
        <ele>160.2</ele>
        <time>2014-02-17T15:17:07Z</time>
      </trkpt>
      <trkpt lat="43.48722" lon="5.25005">
        <ele>161.16</ele>
        <time>2014-02-17T15:17:11Z</time>
      </trkpt>
      <trkpt lat="43.48719" lon="5.25008">
        <ele>161.64</ele>
        <time>2014-02-17T15:17:15Z</time>
      </trkpt>
      <trkpt lat="43.48719" lon="5.25011">
        <ele>161.16</ele>
        <time>2014-02-17T15:17:18Z</time>
      </trkpt>
      <trkpt lat="43.48719" lon="5.25012">
        <ele>161.64</ele>
        <time>2014-02-17T15:17:35Z</time>
      </trkpt>
      <trkpt lat="43.4872" lon="5.25008">
        <ele>160.68</ele>
        <time>2014-02-17T15:17:54Z</time>
      </trkpt>
      <trkpt lat="43.48717" lon="5.25008">
        <ele>161.16</ele>
        <time>2014-02-17T15:18:09Z</time>
      </trkpt>
      <trkpt lat="43.48718" lon="5.25011">
        <ele>161.16</ele>
        <time>2014-02-17T15:18:20Z</time>
      </trkpt>
      <trkpt lat="43.48718" lon="5.25013">
        <ele>161.16</ele>
        <time>2014-02-17T15:18:32Z</time>
      </trkpt>
      <trkpt lat="43.4872" lon="5.25013">
        <ele>160.68</ele>
        <time>2014-02-17T15:18:50Z</time>
      </trkpt>
      <trkpt lat="43.48721" lon="5.2501">
        <ele>160.68</ele>
        <time>2014-02-17T15:19:05Z</time>
      </trkpt>
      <trkpt lat="43.48721" lon="5.25009">
        <ele>160.68</ele>
        <time>2014-02-17T15:19:06Z</time>
      </trkpt>
      <trkpt lat="43.48721" lon="5.25007">
        <ele>160.2</ele>
        <time>2014-02-17T15:19:20Z</time>
      </trkpt>
      <trkpt lat="43.48719" lon="5.25004">
        <ele>160.68</ele>
        <time>2014-02-17T15:19:42Z</time>
      </trkpt>
    </trkseg>
  </trk>
</gpx>